<?xml version="1.0" encoding="UTF-8" standalone="no" ?>
<gpx xmlns="http://www.topografix.com/GPX/1/1" xmlns:xsi="http://www.w3.org/2001/XMLSchema-instance" xsi:schemaLocation="http://www.topografix.com/GPX/1/1 http://www.topografix.com/GPX/1/1/gpx.xsd" version="1.1" creator="VisuGPX - https://www.visugpx.com">
  <metadata>
    <name>étape3</name>
  </metadata>
  <trk>
    <name><![CDATA[étape3_1]]></name>
    <extensions>
      <line xmlns="http://www.topografix.com/GPX/gpx_style/0/2">
        <color>0000FF</color>
        <width>4</width>
      </line>
    </extensions>
    <trkseg>
      <trkpt lat="44.97415" lon="1.32285">
        <ele>299.01992797852</ele>
        <time>2019-03-30T16:48:22.720Z</time>
      </trkpt>
      <trkpt lat="44.97405" lon="1.32312">
        <ele>299.27716064453</ele>
        <time>2019-03-30T16:48:43.962Z</time>
      </trkpt>
      <trkpt lat="44.97402" lon="1.32318">
        <ele>299.21276855469</ele>
        <time>2019-03-30T16:49:05.204Z</time>
      </trkpt>
      <trkpt lat="44.974" lon="1.32321">
        <ele>299.13552856445</ele>
        <time>2019-03-30T16:49:26.447Z</time>
      </trkpt>
      <trkpt lat="44.97385" lon="1.32347">
        <ele>297.49603271484</ele>
        <time>2019-03-30T16:49:47.694Z</time>
      </trkpt>
      <trkpt lat="44.97372" lon="1.32372">
        <ele>294.76211547852</ele>
        <time>2019-03-30T16:50:08.944Z</time>
      </trkpt>
      <trkpt lat="44.97361" lon="1.3239">
        <ele>292.36770629883</ele>
        <time>2019-03-30T16:50:30.197Z</time>
      </trkpt>
      <trkpt lat="44.97344" lon="1.32398">
        <ele>290.98089599609</ele>
        <time>2019-03-30T16:50:51.453Z</time>
      </trkpt>
      <trkpt lat="44.97341" lon="1.32398">
        <ele>290.88433837891</ele>
        <time>2019-03-30T16:51:12.709Z</time>
      </trkpt>
      <trkpt lat="44.97325" lon="1.32389">
        <ele>290.23782348633</ele>
        <time>2019-03-30T16:51:33.968Z</time>
      </trkpt>
      <trkpt lat="44.97325" lon="1.32389">
        <ele>290.2373046875</ele>
        <time>2019-03-30T16:51:55.227Z</time>
      </trkpt>
      <trkpt lat="44.97275" lon="1.32353">
        <ele>289.26510620117</ele>
        <time>2019-03-30T16:52:16.495Z</time>
      </trkpt>
      <trkpt lat="44.9724" lon="1.32354">
        <ele>289.96905517578</ele>
        <time>2019-03-30T16:52:37.769Z</time>
      </trkpt>
      <trkpt lat="44.97226" lon="1.32364">
        <ele>290.75427246094</ele>
        <time>2019-03-30T16:52:59.045Z</time>
      </trkpt>
      <trkpt lat="44.97213" lon="1.32379">
        <ele>291.52661132812</ele>
        <time>2019-03-30T16:53:20.324Z</time>
      </trkpt>
      <trkpt lat="44.97204" lon="1.32422">
        <ele>292.95758056641</ele>
        <time>2019-03-30T16:53:41.608Z</time>
      </trkpt>
      <trkpt lat="44.97206" lon="1.32445">
        <ele>293.28582763672</ele>
        <time>2019-03-30T16:54:02.895Z</time>
      </trkpt>
      <trkpt lat="44.97222" lon="1.32474">
        <ele>292.29528808594</ele>
        <time>2019-03-30T16:54:24.186Z</time>
      </trkpt>
      <trkpt lat="44.97267" lon="1.32531">
        <ele>290.64712524414</ele>
        <time>2019-03-30T16:54:45.486Z</time>
      </trkpt>
      <trkpt lat="44.97293" lon="1.32586">
        <ele>287.83770751953</ele>
        <time>2019-03-30T16:55:06.794Z</time>
      </trkpt>
      <trkpt lat="44.97304" lon="1.3268">
        <ele>279.43930053711</ele>
        <time>2019-03-30T16:55:28.113Z</time>
      </trkpt>
      <trkpt lat="44.97304" lon="1.32692">
        <ele>278.78924560547</ele>
        <time>2019-03-30T16:55:49.433Z</time>
      </trkpt>
      <trkpt lat="44.97306" lon="1.32714">
        <ele>277.5676574707</ele>
        <time>2019-03-30T16:56:10.756Z</time>
      </trkpt>
      <trkpt lat="44.9732" lon="1.32759">
        <ele>278.23861694336</ele>
        <time>2019-03-30T16:56:32.084Z</time>
      </trkpt>
      <trkpt lat="44.97381" lon="1.32868">
        <ele>278.07369995117</ele>
        <time>2019-03-30T16:56:53.428Z</time>
      </trkpt>
      <trkpt lat="44.97453" lon="1.32943">
        <ele>272.4118347168</ele>
        <time>2019-03-30T16:57:14.786Z</time>
      </trkpt>
      <trkpt lat="44.97453" lon="1.32943">
        <ele>272.41293334961</ele>
        <time>2019-03-30T16:57:36.144Z</time>
      </trkpt>
      <trkpt lat="44.9751" lon="1.32999">
        <ele>263.2317199707</ele>
        <time>2019-03-30T16:57:57.513Z</time>
      </trkpt>
      <trkpt lat="44.97536" lon="1.33042">
        <ele>258.70062255859</ele>
        <time>2019-03-30T16:58:18.889Z</time>
      </trkpt>
      <trkpt lat="44.97539" lon="1.33066">
        <ele>258.185546875</ele>
        <time>2019-03-30T16:58:40.267Z</time>
      </trkpt>
      <trkpt lat="44.97531" lon="1.33164">
        <ele>254.79150390625</ele>
        <time>2019-03-30T16:59:01.657Z</time>
      </trkpt>
      <trkpt lat="44.97543" lon="1.33199">
        <ele>253.18727111816</ele>
        <time>2019-03-30T16:59:23.051Z</time>
      </trkpt>
      <trkpt lat="44.97565" lon="1.33214">
        <ele>253.01992797852</ele>
        <time>2019-03-30T16:59:44.449Z</time>
      </trkpt>
      <trkpt lat="44.97681" lon="1.33221">
        <ele>246.24058532715</ele>
        <time>2019-03-30T17:00:05.866Z</time>
      </trkpt>
      <trkpt lat="44.97703" lon="1.33231">
        <ele>245.41285705566</ele>
        <time>2019-03-30T17:00:27.286Z</time>
      </trkpt>
      <trkpt lat="44.97731" lon="1.33261">
        <ele>242.16055297852</ele>
        <time>2019-03-30T17:00:48.712Z</time>
      </trkpt>
      <trkpt lat="44.97737" lon="1.33297">
        <ele>241.09214782715</ele>
        <time>2019-03-30T17:01:10.142Z</time>
      </trkpt>
      <trkpt lat="44.97731" lon="1.33318">
        <ele>241.17434692383</ele>
        <time>2019-03-30T17:01:31.575Z</time>
      </trkpt>
      <trkpt lat="44.97702" lon="1.33362">
        <ele>238.00009155273</ele>
        <time>2019-03-30T17:01:53.014Z</time>
      </trkpt>
      <trkpt lat="44.97699" lon="1.33382">
        <ele>235.65087890625</ele>
        <time>2019-03-30T17:02:14.456Z</time>
      </trkpt>
      <trkpt lat="44.97704" lon="1.33422">
        <ele>233.35508728027</ele>
        <time>2019-03-30T17:02:35.902Z</time>
      </trkpt>
      <trkpt lat="44.97715" lon="1.33437">
        <ele>232.8777923584</ele>
        <time>2019-03-30T17:02:57.351Z</time>
      </trkpt>
      <trkpt lat="44.97744" lon="1.33449">
        <ele>232.81343078613</ele>
        <time>2019-03-30T17:03:18.805Z</time>
      </trkpt>
      <trkpt lat="44.9782" lon="1.33422">
        <ele>225.67121887207</ele>
        <time>2019-03-30T17:03:40.271Z</time>
      </trkpt>
      <trkpt lat="44.97837" lon="1.33427">
        <ele>224.26167297363</ele>
        <time>2019-03-30T17:04:01.740Z</time>
      </trkpt>
      <trkpt lat="44.97913" lon="1.33489">
        <ele>221.24676513672</ele>
        <time>2019-03-30T17:04:23.223Z</time>
      </trkpt>
      <trkpt lat="44.97971" lon="1.3352">
        <ele>218.62800598145</ele>
        <time>2019-03-30T17:04:44.716Z</time>
      </trkpt>
      <trkpt lat="44.98013" lon="1.33569">
        <ele>219.0950012207</ele>
        <time>2019-03-30T17:05:06.218Z</time>
      </trkpt>
      <trkpt lat="44.98124" lon="1.33791">
        <ele>218.05149841309</ele>
        <time>2019-03-30T17:05:27.751Z</time>
      </trkpt>
      <trkpt lat="44.98164" lon="1.33989">
        <ele>214.01094055176</ele>
        <time>2019-03-30T17:05:49.307Z</time>
      </trkpt>
      <trkpt lat="44.98184" lon="1.34034">
        <ele>211.36566162109</ele>
        <time>2019-03-30T17:06:10.869Z</time>
      </trkpt>
      <trkpt lat="44.98234" lon="1.341">
        <ele>203.52021789551</ele>
        <time>2019-03-30T17:06:32.442Z</time>
      </trkpt>
      <trkpt lat="44.98234" lon="1.341">
        <ele>203.52081298828</ele>
        <time>2019-03-30T17:06:54.015Z</time>
      </trkpt>
      <trkpt lat="44.98241" lon="1.34107">
        <ele>202.59339904785</ele>
        <time>2019-03-30T17:07:15.589Z</time>
      </trkpt>
      <trkpt lat="44.98281" lon="1.34145">
        <ele>196.91725158691</ele>
        <time>2019-03-30T17:07:37.171Z</time>
      </trkpt>
      <trkpt lat="44.98286" lon="1.34149">
        <ele>196.55252075195</ele>
        <time>2019-03-30T17:07:58.754Z</time>
      </trkpt>
      <trkpt lat="44.98361" lon="1.3422">
        <ele>210.59437561035</ele>
        <time>2019-03-30T17:08:20.351Z</time>
      </trkpt>
      <trkpt lat="44.98361" lon="1.3422">
        <ele>210.59487915039</ele>
        <time>2019-03-30T17:08:41.948Z</time>
      </trkpt>
      <trkpt lat="44.98398" lon="1.34278">
        <ele>219.50666809082</ele>
        <time>2019-03-30T17:09:03.554Z</time>
      </trkpt>
      <trkpt lat="44.98416" lon="1.34291">
        <ele>220.6651763916</ele>
        <time>2019-03-30T17:09:25.164Z</time>
      </trkpt>
      <trkpt lat="44.9846" lon="1.34302">
        <ele>219.65582275391</ele>
        <time>2019-03-30T17:09:46.781Z</time>
      </trkpt>
      <trkpt lat="44.98511" lon="1.3429">
        <ele>216.77882385254</ele>
        <time>2019-03-30T17:10:08.406Z</time>
      </trkpt>
      <trkpt lat="44.98621" lon="1.3423">
        <ele>215.8365020752</ele>
        <time>2019-03-30T17:10:30.050Z</time>
      </trkpt>
      <trkpt lat="44.98688" lon="1.3422">
        <ele>219.19915771484</ele>
        <time>2019-03-30T17:10:51.705Z</time>
      </trkpt>
      <trkpt lat="44.98733" lon="1.34194">
        <ele>218.11308288574</ele>
        <time>2019-03-30T17:11:13.367Z</time>
      </trkpt>
      <trkpt lat="44.98786" lon="1.34195">
        <ele>222.28326416016</ele>
        <time>2019-03-30T17:11:35.038Z</time>
      </trkpt>
      <trkpt lat="44.98846" lon="1.34225">
        <ele>231.16526794434</ele>
        <time>2019-03-30T17:11:56.719Z</time>
      </trkpt>
      <trkpt lat="44.98936" lon="1.34315">
        <ele>240.98933410645</ele>
        <time>2019-03-30T17:12:18.418Z</time>
      </trkpt>
      <trkpt lat="44.99078" lon="1.34457">
        <ele>249.34092712402</ele>
        <time>2019-03-30T17:12:40.145Z</time>
      </trkpt>
      <trkpt lat="44.99123" lon="1.34531">
        <ele>254.86703491211</ele>
        <time>2019-03-30T17:13:01.883Z</time>
      </trkpt>
      <trkpt lat="44.99163" lon="1.34622">
        <ele>258.49908447266</ele>
        <time>2019-03-30T17:13:23.633Z</time>
      </trkpt>
      <trkpt lat="44.99163" lon="1.34622">
        <ele>258.49856567383</ele>
        <time>2019-03-30T17:13:45.383Z</time>
      </trkpt>
      <trkpt lat="44.9918" lon="1.34655">
        <ele>259.33505249023</ele>
        <time>2019-03-30T17:14:07.137Z</time>
      </trkpt>
      <trkpt lat="44.99213" lon="1.34696">
        <ele>261.00170898438</ele>
        <time>2019-03-30T17:14:28.898Z</time>
      </trkpt>
      <trkpt lat="44.99271" lon="1.34721">
        <ele>262.41757202148</ele>
        <time>2019-03-30T17:14:50.669Z</time>
      </trkpt>
      <trkpt lat="44.99401" lon="1.3472">
        <ele>265.45397949219</ele>
        <time>2019-03-30T17:15:12.461Z</time>
      </trkpt>
      <trkpt lat="44.99425" lon="1.34726">
        <ele>267.07104492188</ele>
        <time>2019-03-30T17:15:34.257Z</time>
      </trkpt>
      <trkpt lat="44.99425" lon="1.34726">
        <ele>267.07165527344</ele>
        <time>2019-03-30T17:15:56.053Z</time>
      </trkpt>
      <trkpt lat="44.99426" lon="1.34726">
        <ele>267.10165405273</ele>
        <time>2019-03-30T17:16:17.849Z</time>
      </trkpt>
      <trkpt lat="44.99427" lon="1.34727">
        <ele>267.21951293945</ele>
        <time>2019-03-30T17:16:39.645Z</time>
      </trkpt>
      <trkpt lat="44.99427" lon="1.34727">
        <ele>267.21994018555</ele>
        <time>2019-03-30T17:17:01.441Z</time>
      </trkpt>
      <trkpt lat="44.99476" lon="1.34776">
        <ele>271.05032348633</ele>
        <time>2019-03-30T17:17:23.247Z</time>
      </trkpt>
      <trkpt lat="44.99538" lon="1.34842">
        <ele>269.87023925781</ele>
        <time>2019-03-30T17:17:45.065Z</time>
      </trkpt>
      <trkpt lat="44.99581" lon="1.34865">
        <ele>270.37969970703</ele>
        <time>2019-03-30T17:18:06.891Z</time>
      </trkpt>
      <trkpt lat="44.99619" lon="1.34864">
        <ele>273.64486694336</ele>
        <time>2019-03-30T17:18:28.723Z</time>
      </trkpt>
      <trkpt lat="44.99721" lon="1.34804">
        <ele>281.39498901367</ele>
        <time>2019-03-30T17:18:50.572Z</time>
      </trkpt>
      <trkpt lat="44.99721" lon="1.34804">
        <ele>281.39385986328</ele>
        <time>2019-03-30T17:19:12.421Z</time>
      </trkpt>
      <trkpt lat="44.99721" lon="1.34804">
        <ele>281.39340209961</ele>
        <time>2019-03-30T17:19:34.270Z</time>
      </trkpt>
      <trkpt lat="44.99723" lon="1.34803">
        <ele>281.30639648438</ele>
        <time>2019-03-30T17:19:56.120Z</time>
      </trkpt>
      <trkpt lat="44.99723" lon="1.34803">
        <ele>281.30648803711</ele>
        <time>2019-03-30T17:20:17.970Z</time>
      </trkpt>
      <trkpt lat="44.99744" lon="1.34791">
        <ele>280.11911010742</ele>
        <time>2019-03-30T17:20:39.823Z</time>
      </trkpt>
      <trkpt lat="44.99812" lon="1.34759">
        <ele>282.09503173828</ele>
        <time>2019-03-30T17:21:01.688Z</time>
      </trkpt>
      <trkpt lat="44.99855" lon="1.34751">
        <ele>280.83486938477</ele>
        <time>2019-03-30T17:21:23.560Z</time>
      </trkpt>
      <trkpt lat="44.99934" lon="1.34757">
        <ele>280.49496459961</ele>
        <time>2019-03-30T17:21:45.444Z</time>
      </trkpt>
      <trkpt lat="44.99974" lon="1.34796">
        <ele>275.67959594727</ele>
        <time>2019-03-30T17:22:07.336Z</time>
      </trkpt>
      <trkpt lat="45" lon="1.34848">
        <ele>271.69125366211</ele>
        <time>2019-03-30T17:22:29.235Z</time>
      </trkpt>
      <trkpt lat="45" lon="1.34848">
        <ele>271.69274902344</ele>
        <time>2019-03-30T17:22:51.134Z</time>
      </trkpt>
      <trkpt lat="45.0001" lon="1.3486">
        <ele>271.67193603516</ele>
        <time>2019-03-30T17:23:13.036Z</time>
      </trkpt>
      <trkpt lat="45.00034" lon="1.34872">
        <ele>274.31875610352</ele>
        <time>2019-03-30T17:23:34.942Z</time>
      </trkpt>
      <trkpt lat="45.00076" lon="1.34857">
        <ele>284.16567993164</ele>
        <time>2019-03-30T17:23:56.855Z</time>
      </trkpt>
      <trkpt lat="45.0021" lon="1.34878">
        <ele>276.62637329102</ele>
        <time>2019-03-30T17:24:18.789Z</time>
      </trkpt>
      <trkpt lat="45.00246" lon="1.34865">
        <ele>276.61349487305</ele>
        <time>2019-03-30T17:24:40.729Z</time>
      </trkpt>
      <trkpt lat="45.00315" lon="1.34818">
        <ele>280.7571105957</ele>
        <time>2019-03-30T17:25:02.681Z</time>
      </trkpt>
      <trkpt lat="45.00358" lon="1.34821">
        <ele>280.76989746094</ele>
        <time>2019-03-30T17:25:24.640Z</time>
      </trkpt>
      <trkpt lat="45.00399" lon="1.34834">
        <ele>277.84335327148</ele>
        <time>2019-03-30T17:25:46.606Z</time>
      </trkpt>
      <trkpt lat="45.00431" lon="1.34833">
        <ele>277.26388549805</ele>
        <time>2019-03-30T17:26:08.577Z</time>
      </trkpt>
      <trkpt lat="45.00495" lon="1.34813">
        <ele>277.53527832031</ele>
        <time>2019-03-30T17:26:30.559Z</time>
      </trkpt>
      <trkpt lat="45.00495" lon="1.34813">
        <ele>277.53466796875</ele>
        <time>2019-03-30T17:26:52.541Z</time>
      </trkpt>
      <trkpt lat="45.00573" lon="1.34785">
        <ele>278.48980712891</ele>
        <time>2019-03-30T17:27:14.535Z</time>
      </trkpt>
      <trkpt lat="45.00573" lon="1.34785">
        <ele>278.49139404297</ele>
        <time>2019-03-30T17:27:36.529Z</time>
      </trkpt>
      <trkpt lat="45.00573" lon="1.34785">
        <ele>278.49182128906</ele>
        <time>2019-03-30T17:27:58.523Z</time>
      </trkpt>
      <trkpt lat="45.00574" lon="1.34785">
        <ele>278.57144165039</ele>
        <time>2019-03-30T17:28:20.518Z</time>
      </trkpt>
      <trkpt lat="45.00574" lon="1.34785">
        <ele>278.57135009766</ele>
        <time>2019-03-30T17:28:42.513Z</time>
      </trkpt>
      <trkpt lat="45.0062" lon="1.34768">
        <ele>279.80581665039</ele>
        <time>2019-03-30T17:29:04.515Z</time>
      </trkpt>
      <trkpt lat="45.0073" lon="1.34706">
        <ele>288.35916137695</ele>
        <time>2019-03-30T17:29:26.536Z</time>
      </trkpt>
      <trkpt lat="45.00753" lon="1.34706">
        <ele>290.52172851562</ele>
        <time>2019-03-30T17:29:48.561Z</time>
      </trkpt>
      <trkpt lat="45.00768" lon="1.34717">
        <ele>290.52816772461</ele>
        <time>2019-03-30T17:30:10.589Z</time>
      </trkpt>
      <trkpt lat="45.00793" lon="1.3477">
        <ele>284.93850708008</ele>
        <time>2019-03-30T17:30:32.624Z</time>
      </trkpt>
      <trkpt lat="45.00809" lon="1.34791">
        <ele>281.78466796875</ele>
        <time>2019-03-30T17:30:54.662Z</time>
      </trkpt>
      <trkpt lat="45.00839" lon="1.34804">
        <ele>280.21423339844</ele>
        <time>2019-03-30T17:31:16.705Z</time>
      </trkpt>
      <trkpt lat="45.00891" lon="1.34778">
        <ele>286.96694946289</ele>
        <time>2019-03-30T17:31:38.757Z</time>
      </trkpt>
      <trkpt lat="45.00955" lon="1.34774">
        <ele>284.36547851562</ele>
        <time>2019-03-30T17:32:00.819Z</time>
      </trkpt>
      <trkpt lat="45.00986" lon="1.34759">
        <ele>288.54699707031</ele>
        <time>2019-03-30T17:32:22.887Z</time>
      </trkpt>
      <trkpt lat="45.01014" lon="1.34753">
        <ele>288.49276733398</ele>
        <time>2019-03-30T17:32:44.959Z</time>
      </trkpt>
      <trkpt lat="45.01028" lon="1.34768">
        <ele>289.92803955078</ele>
        <time>2019-03-30T17:33:07.034Z</time>
      </trkpt>
      <trkpt lat="45.01028" lon="1.34768">
        <ele>289.92813110352</ele>
        <time>2019-03-30T17:33:29.109Z</time>
      </trkpt>
      <trkpt lat="45.01034" lon="1.34781">
        <ele>291.12518310547</ele>
        <time>2019-03-30T17:33:51.186Z</time>
      </trkpt>
      <trkpt lat="45.01036" lon="1.34814">
        <ele>293.2239074707</ele>
        <time>2019-03-30T17:34:13.267Z</time>
      </trkpt>
      <trkpt lat="45.01031" lon="1.3492">
        <ele>298.76617431641</ele>
        <time>2019-03-30T17:34:35.360Z</time>
      </trkpt>
      <trkpt lat="45.01031" lon="1.3492">
        <ele>298.76556396484</ele>
        <time>2019-03-30T17:34:57.453Z</time>
      </trkpt>
      <trkpt lat="45.01031" lon="1.3492">
        <ele>298.76498413086</ele>
        <time>2019-03-30T17:35:19.546Z</time>
      </trkpt>
      <trkpt lat="45.01031" lon="1.34922">
        <ele>298.66424560547</ele>
        <time>2019-03-30T17:35:41.639Z</time>
      </trkpt>
      <trkpt lat="45.01031" lon="1.34922">
        <ele>298.66363525391</ele>
        <time>2019-03-30T17:36:03.732Z</time>
      </trkpt>
      <trkpt lat="45.01031" lon="1.34933">
        <ele>298.11526489258</ele>
        <time>2019-03-30T17:36:25.826Z</time>
      </trkpt>
      <trkpt lat="45.01039" lon="1.34963">
        <ele>298.86828613281</ele>
        <time>2019-03-30T17:36:47.924Z</time>
      </trkpt>
      <trkpt lat="45.01075" lon="1.35043">
        <ele>304.66073608398</ele>
        <time>2019-03-30T17:37:10.033Z</time>
      </trkpt>
      <trkpt lat="45.0108" lon="1.35067">
        <ele>305.10232543945</ele>
        <time>2019-03-30T17:37:32.144Z</time>
      </trkpt>
      <trkpt lat="45.01076" lon="1.35149">
        <ele>303.10235595703</ele>
        <time>2019-03-30T17:37:54.265Z</time>
      </trkpt>
      <trkpt lat="45.01086" lon="1.35186">
        <ele>302.61965942383</ele>
        <time>2019-03-30T17:38:16.390Z</time>
      </trkpt>
      <trkpt lat="45.0115" lon="1.35282">
        <ele>307.0227355957</ele>
        <time>2019-03-30T17:38:38.530Z</time>
      </trkpt>
      <trkpt lat="45.01172" lon="1.35305">
        <ele>306.75885009766</ele>
        <time>2019-03-30T17:39:00.675Z</time>
      </trkpt>
      <trkpt lat="45.01225" lon="1.35324">
        <ele>306.06045532227</ele>
        <time>2019-03-30T17:39:22.828Z</time>
      </trkpt>
      <trkpt lat="45.01234" lon="1.35326">
        <ele>306.63970947266</ele>
        <time>2019-03-30T17:39:44.983Z</time>
      </trkpt>
      <trkpt lat="45.01277" lon="1.35338">
        <ele>308.33828735352</ele>
        <time>2019-03-30T17:40:07.145Z</time>
      </trkpt>
      <trkpt lat="45.01292" lon="1.35352">
        <ele>307.85684204102</ele>
        <time>2019-03-30T17:40:29.310Z</time>
      </trkpt>
      <trkpt lat="45.0133" lon="1.35422">
        <ele>298.64108276367</ele>
        <time>2019-03-30T17:40:51.485Z</time>
      </trkpt>
      <trkpt lat="45.01386" lon="1.35489">
        <ele>290.77090454102</ele>
        <time>2019-03-30T17:41:13.671Z</time>
      </trkpt>
      <trkpt lat="45.01386" lon="1.35489">
        <ele>290.77011108398</ele>
        <time>2019-03-30T17:41:35.857Z</time>
      </trkpt>
      <trkpt lat="45.01544" lon="1.35706">
        <ele>283.36749267578</ele>
        <time>2019-03-30T17:41:58.079Z</time>
      </trkpt>
      <trkpt lat="45.01565" lon="1.3575">
        <ele>284.17846679688</ele>
        <time>2019-03-30T17:42:20.307Z</time>
      </trkpt>
      <trkpt lat="45.01565" lon="1.3575">
        <ele>284.17834472656</ele>
        <time>2019-03-30T17:42:42.535Z</time>
      </trkpt>
      <trkpt lat="45.01567" lon="1.35879">
        <ele>281.86682128906</ele>
        <time>2019-03-30T17:43:04.777Z</time>
      </trkpt>
      <trkpt lat="45.01573" lon="1.35911">
        <ele>280.85372924805</ele>
        <time>2019-03-30T17:43:27.023Z</time>
      </trkpt>
      <trkpt lat="45.01587" lon="1.3594">
        <ele>280.15859985352</ele>
        <time>2019-03-30T17:43:49.273Z</time>
      </trkpt>
      <trkpt lat="45.01627" lon="1.3598">
        <ele>280.05059814453</ele>
        <time>2019-03-30T17:44:11.531Z</time>
      </trkpt>
      <trkpt lat="45.01689" lon="1.36022">
        <ele>275.53768920898</ele>
        <time>2019-03-30T17:44:33.800Z</time>
      </trkpt>
      <trkpt lat="45.01695" lon="1.36025">
        <ele>275.30599975586</ele>
        <time>2019-03-30T17:44:56.070Z</time>
      </trkpt>
      <trkpt lat="45.01756" lon="1.36042">
        <ele>276.31134033203</ele>
        <time>2019-03-30T17:45:18.350Z</time>
      </trkpt>
      <trkpt lat="45.01763" lon="1.36043">
        <ele>276.55590820312</ele>
        <time>2019-03-30T17:45:40.631Z</time>
      </trkpt>
      <trkpt lat="45.01779" lon="1.36049">
        <ele>276.66766357422</ele>
        <time>2019-03-30T17:46:02.915Z</time>
      </trkpt>
      <trkpt lat="45.01811" lon="1.36087">
        <ele>274.69024658203</ele>
        <time>2019-03-30T17:46:25.205Z</time>
      </trkpt>
      <trkpt lat="45.01824" lon="1.36125">
        <ele>271.67810058594</ele>
        <time>2019-03-30T17:46:47.500Z</time>
      </trkpt>
      <trkpt lat="45.01849" lon="1.36167">
        <ele>270.27386474609</ele>
        <time>2019-03-30T17:47:09.801Z</time>
      </trkpt>
      <trkpt lat="45.01884" lon="1.36187">
        <ele>270.74597167969</ele>
        <time>2019-03-30T17:47:32.109Z</time>
      </trkpt>
      <trkpt lat="45.01914" lon="1.36188">
        <ele>269.63864135742</ele>
        <time>2019-03-30T17:47:54.421Z</time>
      </trkpt>
      <trkpt lat="45.0192" lon="1.36187">
        <ele>268.82089233398</ele>
        <time>2019-03-30T17:48:16.734Z</time>
      </trkpt>
      <trkpt lat="45.01948" lon="1.36189">
        <ele>264.54211425781</ele>
        <time>2019-03-30T17:48:39.052Z</time>
      </trkpt>
      <trkpt lat="45.02008" lon="1.36236">
        <ele>264.16342163086</ele>
        <time>2019-03-30T17:49:01.381Z</time>
      </trkpt>
      <trkpt lat="45.0208" lon="1.36272">
        <ele>260.68142700195</ele>
        <time>2019-03-30T17:49:23.722Z</time>
      </trkpt>
      <trkpt lat="45.02183" lon="1.36376">
        <ele>254.59289550781</ele>
        <time>2019-03-30T17:49:46.083Z</time>
      </trkpt>
      <trkpt lat="45.02238" lon="1.36416">
        <ele>252.29693603516</ele>
        <time>2019-03-30T17:50:08.454Z</time>
      </trkpt>
      <trkpt lat="45.02324" lon="1.36472">
        <ele>250.23754882812</ele>
        <time>2019-03-30T17:50:30.840Z</time>
      </trkpt>
      <trkpt lat="45.02324" lon="1.36472">
        <ele>250.23735046387</ele>
        <time>2019-03-30T17:50:53.226Z</time>
      </trkpt>
      <trkpt lat="45.02411" lon="1.36549">
        <ele>251.05627441406</ele>
        <time>2019-03-30T17:51:15.629Z</time>
      </trkpt>
      <trkpt lat="45.02446" lon="1.36561">
        <ele>251.76425170898</ele>
        <time>2019-03-30T17:51:38.038Z</time>
      </trkpt>
      <trkpt lat="45.02499" lon="1.36555">
        <ele>250.05651855469</ele>
        <time>2019-03-30T17:52:00.455Z</time>
      </trkpt>
      <trkpt lat="45.02519" lon="1.36562">
        <ele>249.12969970703</ele>
        <time>2019-03-30T17:52:22.875Z</time>
      </trkpt>
      <trkpt lat="45.02636" lon="1.36634">
        <ele>249.43647766113</ele>
        <time>2019-03-30T17:52:45.316Z</time>
      </trkpt>
      <trkpt lat="45.02712" lon="1.36761">
        <ele>249.63488769531</ele>
        <time>2019-03-30T17:53:07.776Z</time>
      </trkpt>
      <trkpt lat="45.028" lon="1.36842">
        <ele>248.51118469238</ele>
        <time>2019-03-30T17:53:30.252Z</time>
      </trkpt>
      <trkpt lat="45.02919" lon="1.37008">
        <ele>248.57470703125</ele>
        <time>2019-03-30T17:53:52.755Z</time>
      </trkpt>
      <trkpt lat="45.0296" lon="1.37117">
        <ele>242.40115356445</ele>
        <time>2019-03-30T17:54:15.272Z</time>
      </trkpt>
      <trkpt lat="45.02979" lon="1.37148">
        <ele>239.93215942383</ele>
        <time>2019-03-30T17:54:37.794Z</time>
      </trkpt>
      <trkpt lat="45.03023" lon="1.37186">
        <ele>239.7583770752</ele>
        <time>2019-03-30T17:55:00.324Z</time>
      </trkpt>
      <trkpt lat="45.0307" lon="1.37206">
        <ele>239.82473754883</ele>
        <time>2019-03-30T17:55:22.862Z</time>
      </trkpt>
      <trkpt lat="45.03114" lon="1.3725">
        <ele>237.48532104492</ele>
        <time>2019-03-30T17:55:45.409Z</time>
      </trkpt>
      <trkpt lat="45.03131" lon="1.37284">
        <ele>235.53581237793</ele>
        <time>2019-03-30T17:56:07.960Z</time>
      </trkpt>
      <trkpt lat="45.03157" lon="1.37366">
        <ele>230.69273376465</ele>
        <time>2019-03-30T17:56:30.522Z</time>
      </trkpt>
      <trkpt lat="45.03191" lon="1.37422">
        <ele>231.33055114746</ele>
        <time>2019-03-30T17:56:53.092Z</time>
      </trkpt>
      <trkpt lat="45.03215" lon="1.37438">
        <ele>232.99110412598</ele>
        <time>2019-03-30T17:57:15.666Z</time>
      </trkpt>
      <trkpt lat="45.03241" lon="1.37442">
        <ele>233.91792297363</ele>
        <time>2019-03-30T17:57:38.244Z</time>
      </trkpt>
      <trkpt lat="45.03261" lon="1.3744">
        <ele>233.6276550293</ele>
        <time>2019-03-30T17:58:00.826Z</time>
      </trkpt>
      <trkpt lat="45.03325" lon="1.3741">
        <ele>227.43600463867</ele>
        <time>2019-03-30T17:58:23.418Z</time>
      </trkpt>
      <trkpt lat="45.03372" lon="1.3741">
        <ele>225.66604614258</ele>
        <time>2019-03-30T17:58:46.018Z</time>
      </trkpt>
      <trkpt lat="45.03508" lon="1.37499">
        <ele>223.23179626465</ele>
        <time>2019-03-30T17:59:08.642Z</time>
      </trkpt>
      <trkpt lat="45.03558" lon="1.3751">
        <ele>223.99168395996</ele>
        <time>2019-03-30T17:59:31.274Z</time>
      </trkpt>
      <trkpt lat="45.03558" lon="1.3751">
        <ele>223.99238586426</ele>
        <time>2019-03-30T17:59:53.906Z</time>
      </trkpt>
      <trkpt lat="45.03611" lon="1.37498">
        <ele>224.38536071777</ele>
        <time>2019-03-30T18:00:16.547Z</time>
      </trkpt>
      <trkpt lat="45.03631" lon="1.37495">
        <ele>223.93771362305</ele>
        <time>2019-03-30T18:00:39.191Z</time>
      </trkpt>
      <trkpt lat="45.03677" lon="1.37509">
        <ele>222.48222351074</ele>
        <time>2019-03-30T18:01:01.842Z</time>
      </trkpt>
      <trkpt lat="45.03765" lon="1.37602">
        <ele>226.18327331543</ele>
        <time>2019-03-30T18:01:24.511Z</time>
      </trkpt>
      <trkpt lat="45.03831" lon="1.37642">
        <ele>229.80485534668</ele>
        <time>2019-03-30T18:01:47.191Z</time>
      </trkpt>
      <trkpt lat="45.03991" lon="1.37665">
        <ele>234.37495422363</ele>
        <time>2019-03-30T18:02:09.897Z</time>
      </trkpt>
      <trkpt lat="45.04004" lon="1.37661">
        <ele>235.81283569336</ele>
        <time>2019-03-30T18:02:32.605Z</time>
      </trkpt>
      <trkpt lat="45.04004" lon="1.37661">
        <ele>235.81382751465</ele>
        <time>2019-03-30T18:02:55.313Z</time>
      </trkpt>
      <trkpt lat="45.04004" lon="1.37661">
        <ele>235.81477355957</ele>
        <time>2019-03-30T18:03:18.021Z</time>
      </trkpt>
      <trkpt lat="45.04005" lon="1.3766">
        <ele>235.99989318848</ele>
        <time>2019-03-30T18:03:40.730Z</time>
      </trkpt>
      <trkpt lat="45.04005" lon="1.3766">
        <ele>236.0011138916</ele>
        <time>2019-03-30T18:04:03.439Z</time>
      </trkpt>
      <trkpt lat="45.04032" lon="1.37652">
        <ele>238.93180847168</ele>
        <time>2019-03-30T18:04:26.152Z</time>
      </trkpt>
      <trkpt lat="45.04089" lon="1.3761">
        <ele>237.65536499023</ele>
        <time>2019-03-30T18:04:48.875Z</time>
      </trkpt>
      <trkpt lat="45.04113" lon="1.37583">
        <ele>238.87181091309</ele>
        <time>2019-03-30T18:05:11.603Z</time>
      </trkpt>
      <trkpt lat="45.04131" lon="1.37552">
        <ele>237.96015930176</ele>
        <time>2019-03-30T18:05:34.336Z</time>
      </trkpt>
      <trkpt lat="45.04155" lon="1.37478">
        <ele>233.11810302734</ele>
        <time>2019-03-30T18:05:57.078Z</time>
      </trkpt>
      <trkpt lat="45.04173" lon="1.37454">
        <ele>232.34576416016</ele>
        <time>2019-03-30T18:06:19.824Z</time>
      </trkpt>
      <trkpt lat="45.04213" lon="1.3743">
        <ele>237.22538757324</ele>
        <time>2019-03-30T18:06:42.577Z</time>
      </trkpt>
      <trkpt lat="45.0422" lon="1.37428">
        <ele>237.68235778809</ele>
        <time>2019-03-30T18:07:05.331Z</time>
      </trkpt>
      <trkpt lat="45.04228" lon="1.37425">
        <ele>238.197265625</ele>
        <time>2019-03-30T18:07:28.086Z</time>
      </trkpt>
      <trkpt lat="45.0424" lon="1.37421">
        <ele>238.75091552734</ele>
        <time>2019-03-30T18:07:50.843Z</time>
      </trkpt>
      <trkpt lat="45.04413" lon="1.37354">
        <ele>240.13710021973</ele>
        <time>2019-03-30T18:08:13.629Z</time>
      </trkpt>
      <trkpt lat="45.04489" lon="1.37348">
        <ele>238.08480834961</ele>
        <time>2019-03-30T18:08:36.427Z</time>
      </trkpt>
      <trkpt lat="45.04529" lon="1.37362">
        <ele>238.75396728516</ele>
        <time>2019-03-30T18:08:59.232Z</time>
      </trkpt>
      <trkpt lat="45.04566" lon="1.3739">
        <ele>240.70910644531</ele>
        <time>2019-03-30T18:09:22.043Z</time>
      </trkpt>
      <trkpt lat="45.04606" lon="1.37445">
        <ele>241.04280090332</ele>
        <time>2019-03-30T18:09:44.863Z</time>
      </trkpt>
      <trkpt lat="45.04631" lon="1.37507">
        <ele>241.06938171387</ele>
        <time>2019-03-30T18:10:07.691Z</time>
      </trkpt>
      <trkpt lat="45.04647" lon="1.37584">
        <ele>241.03723144531</ele>
        <time>2019-03-30T18:10:30.528Z</time>
      </trkpt>
      <trkpt lat="45.04672" lon="1.37636">
        <ele>242.81736755371</ele>
        <time>2019-03-30T18:10:53.373Z</time>
      </trkpt>
      <trkpt lat="45.04696" lon="1.3766">
        <ele>242.83670043945</ele>
        <time>2019-03-30T18:11:16.222Z</time>
      </trkpt>
      <trkpt lat="45.04775" lon="1.37705">
        <ele>243.03584289551</ele>
        <time>2019-03-30T18:11:39.085Z</time>
      </trkpt>
      <trkpt lat="45.04817" lon="1.37786">
        <ele>238.08982849121</ele>
        <time>2019-03-30T18:12:01.959Z</time>
      </trkpt>
      <trkpt lat="45.04842" lon="1.37811">
        <ele>236.27481079102</ele>
        <time>2019-03-30T18:12:24.838Z</time>
      </trkpt>
      <trkpt lat="45.04984" lon="1.37868">
        <ele>230.65547180176</ele>
        <time>2019-03-30T18:12:47.741Z</time>
      </trkpt>
      <trkpt lat="45.04984" lon="1.37868">
        <ele>230.65567016602</ele>
        <time>2019-03-30T18:13:10.644Z</time>
      </trkpt>
      <trkpt lat="45.05113" lon="1.37966">
        <ele>237.7462310791</ele>
        <time>2019-03-30T18:13:33.570Z</time>
      </trkpt>
      <trkpt lat="45.05119" lon="1.37971">
        <ele>238.31262207031</ele>
        <time>2019-03-30T18:13:56.497Z</time>
      </trkpt>
      <trkpt lat="45.05291" lon="1.38096">
        <ele>242.0612487793</ele>
        <time>2019-03-30T18:14:19.455Z</time>
      </trkpt>
      <trkpt lat="45.05359" lon="1.38094">
        <ele>244.88975524902</ele>
        <time>2019-03-30T18:14:42.424Z</time>
      </trkpt>
      <trkpt lat="45.0551" lon="1.38056">
        <ele>251.97192382812</ele>
        <time>2019-03-30T18:15:05.418Z</time>
      </trkpt>
      <trkpt lat="45.05554" lon="1.38061">
        <ele>253.64134216309</ele>
        <time>2019-03-30T18:15:28.419Z</time>
      </trkpt>
      <trkpt lat="45.0568" lon="1.38162">
        <ele>256.81494140625</ele>
        <time>2019-03-30T18:15:51.443Z</time>
      </trkpt>
      <trkpt lat="45.05729" lon="1.38186">
        <ele>258.03244018555</ele>
        <time>2019-03-30T18:16:14.475Z</time>
      </trkpt>
      <trkpt lat="45.05767" lon="1.38194">
        <ele>259.92755126953</ele>
        <time>2019-03-30T18:16:37.513Z</time>
      </trkpt>
      <trkpt lat="45.05815" lon="1.38191">
        <ele>261.041015625</ele>
        <time>2019-03-30T18:17:00.559Z</time>
      </trkpt>
      <trkpt lat="45.05815" lon="1.38191">
        <ele>261.04122924805</ele>
        <time>2019-03-30T18:17:23.605Z</time>
      </trkpt>
      <trkpt lat="45.0614" lon="1.38126">
        <ele>261.9548034668</ele>
        <time>2019-03-30T18:17:46.704Z</time>
      </trkpt>
      <trkpt lat="45.06298" lon="1.38111">
        <ele>258.65615844727</ele>
        <time>2019-03-30T18:18:09.828Z</time>
      </trkpt>
      <trkpt lat="45.06345" lon="1.3809">
        <ele>258.86227416992</ele>
        <time>2019-03-30T18:18:32.960Z</time>
      </trkpt>
      <trkpt lat="45.06454" lon="1.38001">
        <ele>256.01895141602</ele>
        <time>2019-03-30T18:18:56.112Z</time>
      </trkpt>
      <trkpt lat="45.06454" lon="1.38001">
        <ele>256.01895141602</ele>
        <time>2019-03-30T18:19:19.264Z</time>
      </trkpt>
      <trkpt lat="45.06454" lon="1.38001">
        <ele>256.01904296875</ele>
        <time>2019-03-30T18:19:42.416Z</time>
      </trkpt>
      <trkpt lat="45.06454" lon="1.38001">
        <ele>256.01913452148</ele>
        <time>2019-03-30T18:20:05.568Z</time>
      </trkpt>
      <trkpt lat="45.06455" lon="1.38">
        <ele>256.03805541992</ele>
        <time>2019-03-30T18:20:28.720Z</time>
      </trkpt>
      <trkpt lat="45.06455" lon="1.38">
        <ele>256.03793334961</ele>
        <time>2019-03-30T18:20:51.872Z</time>
      </trkpt>
      <trkpt lat="45.06558" lon="1.37917">
        <ele>261.26467895508</ele>
        <time>2019-03-30T18:21:15.043Z</time>
      </trkpt>
      <trkpt lat="45.06672" lon="1.37888">
        <ele>266.97225952148</ele>
        <time>2019-03-30T18:21:38.233Z</time>
      </trkpt>
      <trkpt lat="45.06672" lon="1.37888">
        <ele>266.97277832031</ele>
        <time>2019-03-30T18:22:01.423Z</time>
      </trkpt>
      <trkpt lat="45.072" lon="1.37782">
        <ele>271.2724609375</ele>
        <time>2019-03-30T18:22:24.698Z</time>
      </trkpt>
      <trkpt lat="45.07413" lon="1.37743">
        <ele>279.62631225586</ele>
        <time>2019-03-30T18:22:48.008Z</time>
      </trkpt>
      <trkpt lat="45.07484" lon="1.37723">
        <ele>281.51361083984</ele>
        <time>2019-03-30T18:23:11.329Z</time>
      </trkpt>
      <trkpt lat="45.0754" lon="1.37689">
        <ele>281.4001159668</ele>
        <time>2019-03-30T18:23:34.660Z</time>
      </trkpt>
      <trkpt lat="45.07578" lon="1.37675">
        <ele>281.46447753906</ele>
        <time>2019-03-30T18:23:57.997Z</time>
      </trkpt>
      <trkpt lat="45.07619" lon="1.37675">
        <ele>282.41058349609</ele>
        <time>2019-03-30T18:24:21.341Z</time>
      </trkpt>
      <trkpt lat="45.07674" lon="1.37697">
        <ele>283.94857788086</ele>
        <time>2019-03-30T18:24:44.694Z</time>
      </trkpt>
      <trkpt lat="45.07857" lon="1.37818">
        <ele>291.90649414062</ele>
        <time>2019-03-30T18:25:08.079Z</time>
      </trkpt>
      <trkpt lat="45.07885" lon="1.37831">
        <ele>292.20489501953</ele>
        <time>2019-03-30T18:25:31.469Z</time>
      </trkpt>
      <trkpt lat="45.07921" lon="1.37837">
        <ele>291.66076660156</ele>
        <time>2019-03-30T18:25:54.865Z</time>
      </trkpt>
      <trkpt lat="45.07954" lon="1.37828">
        <ele>291.58364868164</ele>
        <time>2019-03-30T18:26:18.266Z</time>
      </trkpt>
      <trkpt lat="45.08008" lon="1.37795">
        <ele>290.75827026367</ele>
        <time>2019-03-30T18:26:41.676Z</time>
      </trkpt>
      <trkpt lat="45.08035" lon="1.37768">
        <ele>290.39813232422</ele>
        <time>2019-03-30T18:27:05.092Z</time>
      </trkpt>
      <trkpt lat="45.08091" lon="1.37754">
        <ele>289.80508422852</ele>
        <time>2019-03-30T18:27:28.517Z</time>
      </trkpt>
      <trkpt lat="45.08107" lon="1.37743">
        <ele>288.46636962891</ele>
        <time>2019-03-30T18:27:51.945Z</time>
      </trkpt>
      <trkpt lat="45.08107" lon="1.37743">
        <ele>288.46594238281</ele>
        <time>2019-03-30T18:28:15.373Z</time>
      </trkpt>
      <trkpt lat="45.0812" lon="1.37715">
        <ele>286.80224609375</ele>
        <time>2019-03-30T18:28:38.805Z</time>
      </trkpt>
      <trkpt lat="45.08155" lon="1.37558">
        <ele>289.02423095703</ele>
        <time>2019-03-30T18:29:02.255Z</time>
      </trkpt>
      <trkpt lat="45.08154" lon="1.37495">
        <ele>293.41619873047</ele>
        <time>2019-03-30T18:29:25.712Z</time>
      </trkpt>
      <trkpt lat="45.08142" lon="1.37425">
        <ele>297.00714111328</ele>
        <time>2019-03-30T18:29:49.178Z</time>
      </trkpt>
      <trkpt lat="45.08144" lon="1.37415">
        <ele>297.88305664062</ele>
        <time>2019-03-30T18:30:12.645Z</time>
      </trkpt>
      <trkpt lat="45.08144" lon="1.37415">
        <ele>297.88342285156</ele>
        <time>2019-03-30T18:30:36.112Z</time>
      </trkpt>
      <trkpt lat="45.08144" lon="1.37415">
        <ele>297.88381958008</ele>
        <time>2019-03-30T18:30:59.579Z</time>
      </trkpt>
      <trkpt lat="45.08144" lon="1.37412">
        <ele>297.95764160156</ele>
        <time>2019-03-30T18:31:23.046Z</time>
      </trkpt>
      <trkpt lat="45.08144" lon="1.37412">
        <ele>297.95953369141</ele>
        <time>2019-03-30T18:31:46.513Z</time>
      </trkpt>
      <trkpt lat="45.08151" lon="1.37372">
        <ele>297.64715576172</ele>
        <time>2019-03-30T18:32:09.985Z</time>
      </trkpt>
      <trkpt lat="45.08165" lon="1.37349">
        <ele>297.98733520508</ele>
        <time>2019-03-30T18:32:33.460Z</time>
      </trkpt>
      <trkpt lat="45.08198" lon="1.37331">
        <ele>297.39520263672</ele>
        <time>2019-03-30T18:32:56.941Z</time>
      </trkpt>
      <trkpt lat="45.08219" lon="1.37335">
        <ele>298.56158447266</ele>
        <time>2019-03-30T18:33:20.425Z</time>
      </trkpt>
      <trkpt lat="45.083" lon="1.37379">
        <ele>303.64776611328</ele>
        <time>2019-03-30T18:33:43.923Z</time>
      </trkpt>
      <trkpt lat="45.08391" lon="1.37399">
        <ele>304.09219360352</ele>
        <time>2019-03-30T18:34:07.436Z</time>
      </trkpt>
      <trkpt lat="45.0845" lon="1.37443">
        <ele>308.56536865234</ele>
        <time>2019-03-30T18:34:30.959Z</time>
      </trkpt>
      <trkpt lat="45.08487" lon="1.37453">
        <ele>307.65783691406</ele>
        <time>2019-03-30T18:34:54.488Z</time>
      </trkpt>
      <trkpt lat="45.08594" lon="1.3744">
        <ele>301.81008911133</ele>
        <time>2019-03-30T18:35:18.035Z</time>
      </trkpt>
      <trkpt lat="45.08617" lon="1.37432">
        <ele>302.83001708984</ele>
        <time>2019-03-30T18:35:41.586Z</time>
      </trkpt>
      <trkpt lat="45.08617" lon="1.37432">
        <ele>302.83068847656</ele>
        <time>2019-03-30T18:36:05.137Z</time>
      </trkpt>
      <trkpt lat="45.08617" lon="1.37432">
        <ele>302.83081054688</ele>
        <time>2019-03-30T18:36:28.688Z</time>
      </trkpt>
      <trkpt lat="45.08617" lon="1.37432">
        <ele>302.83108520508</ele>
        <time>2019-03-30T18:36:52.239Z</time>
      </trkpt>
      <trkpt lat="45.08619" lon="1.37432">
        <ele>302.90826416016</ele>
        <time>2019-03-30T18:37:15.790Z</time>
      </trkpt>
      <trkpt lat="45.08619" lon="1.37432">
        <ele>302.90927124023</ele>
        <time>2019-03-30T18:37:39.341Z</time>
      </trkpt>
      <trkpt lat="45.08708" lon="1.37402">
        <ele>309.56982421875</ele>
        <time>2019-03-30T18:38:02.907Z</time>
      </trkpt>
      <trkpt lat="45.08761" lon="1.37383">
        <ele>310.79153442383</ele>
        <time>2019-03-30T18:38:26.481Z</time>
      </trkpt>
      <trkpt lat="45.08853" lon="1.37347">
        <ele>316.74377441406</ele>
        <time>2019-03-30T18:38:50.071Z</time>
      </trkpt>
      <trkpt lat="45.08873" lon="1.37315">
        <ele>320.03900146484</ele>
        <time>2019-03-30T18:39:13.665Z</time>
      </trkpt>
      <trkpt lat="45.08879" lon="1.37293">
        <ele>321.41842651367</ele>
        <time>2019-03-30T18:39:37.262Z</time>
      </trkpt>
      <trkpt lat="45.089" lon="1.3727">
        <ele>323.83160400391</ele>
        <time>2019-03-30T18:40:00.863Z</time>
      </trkpt>
      <trkpt lat="45.08926" lon="1.37218">
        <ele>327.20330810547</ele>
        <time>2019-03-30T18:40:24.472Z</time>
      </trkpt>
      <trkpt lat="45.0893" lon="1.3721">
        <ele>327.31311035156</ele>
        <time>2019-03-30T18:40:48.082Z</time>
      </trkpt>
      <trkpt lat="45.0893" lon="1.3721">
        <ele>327.31271362305</ele>
        <time>2019-03-30T18:41:11.692Z</time>
      </trkpt>
      <trkpt lat="45.08946" lon="1.37178">
        <ele>328.1650390625</ele>
        <time>2019-03-30T18:41:35.306Z</time>
      </trkpt>
      <trkpt lat="45.08946" lon="1.37178">
        <ele>328.16534423828</ele>
        <time>2019-03-30T18:41:58.920Z</time>
      </trkpt>
      <trkpt lat="45.08946" lon="1.37178">
        <ele>328.16564941406</ele>
        <time>2019-03-30T18:42:22.534Z</time>
      </trkpt>
      <trkpt lat="45.08947" lon="1.37176">
        <ele>328.22760009766</ele>
        <time>2019-03-30T18:42:46.148Z</time>
      </trkpt>
      <trkpt lat="45.08947" lon="1.37176">
        <ele>328.22760009766</ele>
        <time>2019-03-30T18:43:09.762Z</time>
      </trkpt>
      <trkpt lat="45.08986" lon="1.371">
        <ele>328.15228271484</ele>
        <time>2019-03-30T18:43:33.387Z</time>
      </trkpt>
      <trkpt lat="45.09004" lon="1.3708">
        <ele>328.23190307617</ele>
        <time>2019-03-30T18:43:57.016Z</time>
      </trkpt>
      <trkpt lat="45.09079" lon="1.37044">
        <ele>327.47143554688</ele>
        <time>2019-03-30T18:44:20.657Z</time>
      </trkpt>
      <trkpt lat="45.09085" lon="1.37024">
        <ele>327.00802612305</ele>
        <time>2019-03-30T18:44:44.301Z</time>
      </trkpt>
      <trkpt lat="45.09085" lon="1.36745">
        <ele>334.84118652344</ele>
        <time>2019-03-30T18:45:07.976Z</time>
      </trkpt>
      <trkpt lat="45.09093" lon="1.36667">
        <ele>334.06442260742</ele>
        <time>2019-03-30T18:45:31.660Z</time>
      </trkpt>
      <trkpt lat="45.09117" lon="1.36581">
        <ele>330.69906616211</ele>
        <time>2019-03-30T18:45:55.355Z</time>
      </trkpt>
      <trkpt lat="45.09142" lon="1.36458">
        <ele>329.38525390625</ele>
        <time>2019-03-30T18:46:19.064Z</time>
      </trkpt>
      <trkpt lat="45.09118" lon="1.36346">
        <ele>334.24642944336</ele>
        <time>2019-03-30T18:46:42.787Z</time>
      </trkpt>
      <trkpt lat="45.0912" lon="1.36325">
        <ele>335.09600830078</ele>
        <time>2019-03-30T18:47:06.512Z</time>
      </trkpt>
      <trkpt lat="45.0912" lon="1.36325">
        <ele>335.09539794922</ele>
        <time>2019-03-30T18:47:30.237Z</time>
      </trkpt>
      <trkpt lat="45.09151" lon="1.36197">
        <ele>335.3899230957</ele>
        <time>2019-03-30T18:47:53.977Z</time>
      </trkpt>
      <trkpt lat="45.09151" lon="1.36197">
        <ele>335.39001464844</ele>
        <time>2019-03-30T18:48:17.717Z</time>
      </trkpt>
      <trkpt lat="45.09151" lon="1.36197">
        <ele>335.39013671875</ele>
        <time>2019-03-30T18:48:41.457Z</time>
      </trkpt>
      <trkpt lat="45.09151" lon="1.36197">
        <ele>335.39019775391</ele>
        <time>2019-03-30T18:49:05.197Z</time>
      </trkpt>
      <trkpt lat="45.0918" lon="1.36079">
        <ele>334.63018798828</ele>
        <time>2019-03-30T18:49:28.951Z</time>
      </trkpt>
      <trkpt lat="45.0924" lon="1.35963">
        <ele>335.57424926758</ele>
        <time>2019-03-30T18:49:52.722Z</time>
      </trkpt>
      <trkpt lat="45.09268" lon="1.35885">
        <ele>329.86245727539</ele>
        <time>2019-03-30T18:50:16.503Z</time>
      </trkpt>
      <trkpt lat="45.09297" lon="1.35772">
        <ele>323.93341064453</ele>
        <time>2019-03-30T18:50:40.297Z</time>
      </trkpt>
      <trkpt lat="45.09308" lon="1.35753">
        <ele>322.40802001953</ele>
        <time>2019-03-30T18:51:04.094Z</time>
      </trkpt>
      <trkpt lat="45.09326" lon="1.35746">
        <ele>321.2692565918</ele>
        <time>2019-03-30T18:51:27.894Z</time>
      </trkpt>
      <trkpt lat="45.0935" lon="1.35757">
        <ele>321.48165893555</ele>
        <time>2019-03-30T18:51:51.698Z</time>
      </trkpt>
      <trkpt lat="45.09359" lon="1.35775">
        <ele>322.80108642578</ele>
        <time>2019-03-30T18:52:15.505Z</time>
      </trkpt>
      <trkpt lat="45.09374" lon="1.3584">
        <ele>328.48736572266</ele>
        <time>2019-03-30T18:52:39.319Z</time>
      </trkpt>
      <trkpt lat="45.09386" lon="1.35848">
        <ele>328.90905761719</ele>
        <time>2019-03-30T18:53:03.135Z</time>
      </trkpt>
      <trkpt lat="45.094" lon="1.35846">
        <ele>328.18176269531</ele>
        <time>2019-03-30T18:53:26.954Z</time>
      </trkpt>
      <trkpt lat="45.09436" lon="1.35812">
        <ele>330.05895996094</ele>
        <time>2019-03-30T18:53:50.780Z</time>
      </trkpt>
      <trkpt lat="45.09511" lon="1.35684">
        <ele>324.21081542969</ele>
        <time>2019-03-30T18:54:14.624Z</time>
      </trkpt>
      <trkpt lat="45.09534" lon="1.35665">
        <ele>324.01773071289</ele>
        <time>2019-03-30T18:54:38.473Z</time>
      </trkpt>
      <trkpt lat="45.09588" lon="1.35639">
        <ele>320.10186767578</ele>
        <time>2019-03-30T18:55:02.331Z</time>
      </trkpt>
      <trkpt lat="45.09651" lon="1.35621">
        <ele>316.8645324707</ele>
        <time>2019-03-30T18:55:26.199Z</time>
      </trkpt>
      <trkpt lat="45.09706" lon="1.3561">
        <ele>315.6819152832</ele>
        <time>2019-03-30T18:55:50.076Z</time>
      </trkpt>
      <trkpt lat="45.09731" lon="1.35596">
        <ele>313.44918823242</ele>
        <time>2019-03-30T18:56:13.957Z</time>
      </trkpt>
      <trkpt lat="45.09747" lon="1.35567">
        <ele>308.8254699707</ele>
        <time>2019-03-30T18:56:37.843Z</time>
      </trkpt>
      <trkpt lat="45.09748" lon="1.35507">
        <ele>306.19650268555</ele>
        <time>2019-03-30T18:57:01.735Z</time>
      </trkpt>
      <trkpt lat="45.09732" lon="1.35464">
        <ele>307.34484863281</ele>
        <time>2019-03-30T18:57:25.633Z</time>
      </trkpt>
      <trkpt lat="45.09675" lon="1.35407">
        <ele>311.99285888672</ele>
        <time>2019-03-30T18:57:49.542Z</time>
      </trkpt>
      <trkpt lat="45.09654" lon="1.35362">
        <ele>312.61071777344</ele>
        <time>2019-03-30T18:58:13.457Z</time>
      </trkpt>
      <trkpt lat="45.09651" lon="1.35336">
        <ele>313.35733032227</ele>
        <time>2019-03-30T18:58:37.375Z</time>
      </trkpt>
      <trkpt lat="45.09655" lon="1.35282">
        <ele>315.12728881836</ele>
        <time>2019-03-30T18:59:01.299Z</time>
      </trkpt>
      <trkpt lat="45.09733" lon="1.35015">
        <ele>321.24383544922</ele>
        <time>2019-03-30T18:59:25.256Z</time>
      </trkpt>
      <trkpt lat="45.09739" lon="1.34968">
        <ele>321.17208862305</ele>
        <time>2019-03-30T18:59:49.218Z</time>
      </trkpt>
      <trkpt lat="45.09739" lon="1.34968">
        <ele>321.171875</ele>
        <time>2019-03-30T19:00:13.180Z</time>
      </trkpt>
      <trkpt lat="45.09736" lon="1.34709">
        <ele>321.82965087891</ele>
        <time>2019-03-30T19:00:37.172Z</time>
      </trkpt>
      <trkpt lat="45.09702" lon="1.3454">
        <ele>319.51181030273</ele>
        <time>2019-03-30T19:01:01.184Z</time>
      </trkpt>
      <trkpt lat="45.09638" lon="1.34388">
        <ele>314.27398681641</ele>
        <time>2019-03-30T19:01:25.216Z</time>
      </trkpt>
      <trkpt lat="45.09628" lon="1.34329">
        <ele>315.77874755859</ele>
        <time>2019-03-30T19:01:49.255Z</time>
      </trkpt>
      <trkpt lat="45.09631" lon="1.34267">
        <ele>315.38909912109</ele>
        <time>2019-03-30T19:02:13.301Z</time>
      </trkpt>
      <trkpt lat="45.09657" lon="1.34166">
        <ele>312.49108886719</ele>
        <time>2019-03-30T19:02:37.359Z</time>
      </trkpt>
      <trkpt lat="45.09674" lon="1.33966">
        <ele>305.09326171875</ele>
        <time>2019-03-30T19:03:01.440Z</time>
      </trkpt>
      <trkpt lat="45.09664" lon="1.33912">
        <ele>302.28067016602</ele>
        <time>2019-03-30T19:03:25.527Z</time>
      </trkpt>
      <trkpt lat="45.09647" lon="1.33875">
        <ele>302.21130371094</ele>
        <time>2019-03-30T19:03:49.619Z</time>
      </trkpt>
      <trkpt lat="45.0962" lon="1.3384">
        <ele>304.15927124023</ele>
        <time>2019-03-30T19:04:13.717Z</time>
      </trkpt>
      <trkpt lat="45.09536" lon="1.33769">
        <ele>302.74328613281</ele>
        <time>2019-03-30T19:04:37.830Z</time>
      </trkpt>
      <trkpt lat="45.09466" lon="1.33744">
        <ele>300.77807617188</ele>
        <time>2019-03-30T19:05:01.955Z</time>
      </trkpt>
      <trkpt lat="45.09444" lon="1.33724">
        <ele>299.04455566406</ele>
        <time>2019-03-30T19:05:26.084Z</time>
      </trkpt>
      <trkpt lat="45.09436" lon="1.33672">
        <ele>296.16760253906</ele>
        <time>2019-03-30T19:05:50.219Z</time>
      </trkpt>
      <trkpt lat="45.09455" lon="1.335">
        <ele>287.38549804688</ele>
        <time>2019-03-30T19:06:14.374Z</time>
      </trkpt>
      <trkpt lat="45.09471" lon="1.33455">
        <ele>282.97219848633</ele>
        <time>2019-03-30T19:06:38.535Z</time>
      </trkpt>
      <trkpt lat="45.09535" lon="1.33365">
        <ele>274.84140014648</ele>
        <time>2019-03-30T19:07:02.710Z</time>
      </trkpt>
      <trkpt lat="45.09549" lon="1.33332">
        <ele>275.54949951172</ele>
        <time>2019-03-30T19:07:26.890Z</time>
      </trkpt>
      <trkpt lat="45.09668" lon="1.32943">
        <ele>278.15423583984</ele>
        <time>2019-03-30T19:07:51.118Z</time>
      </trkpt>
      <trkpt lat="45.09736" lon="1.32764">
        <ele>270.30426025391</ele>
        <time>2019-03-30T19:08:15.369Z</time>
      </trkpt>
      <trkpt lat="45.09763" lon="1.32632">
        <ele>265.23867797852</ele>
        <time>2019-03-30T19:08:39.635Z</time>
      </trkpt>
      <trkpt lat="45.09787" lon="1.32565">
        <ele>265.64346313477</ele>
        <time>2019-03-30T19:09:03.910Z</time>
      </trkpt>
      <trkpt lat="45.09978" lon="1.32386">
        <ele>263.10559082031</ele>
        <time>2019-03-30T19:09:28.221Z</time>
      </trkpt>
      <trkpt lat="45.10032" lon="1.32323">
        <ele>264.73675537109</ele>
        <time>2019-03-30T19:09:52.544Z</time>
      </trkpt>
      <trkpt lat="45.10075" lon="1.32195">
        <ele>269.79132080078</ele>
        <time>2019-03-30T19:10:16.883Z</time>
      </trkpt>
      <trkpt lat="45.10114" lon="1.32125">
        <ele>272.451171875</ele>
        <time>2019-03-30T19:10:41.232Z</time>
      </trkpt>
      <trkpt lat="45.10146" lon="1.32094">
        <ele>273.31744384766</ele>
        <time>2019-03-30T19:11:05.587Z</time>
      </trkpt>
      <trkpt lat="45.10211" lon="1.32071">
        <ele>275.96142578125</ele>
        <time>2019-03-30T19:11:29.953Z</time>
      </trkpt>
      <trkpt lat="45.10264" lon="1.32023">
        <ele>275.62124633789</ele>
        <time>2019-03-30T19:11:54.329Z</time>
      </trkpt>
      <trkpt lat="45.10264" lon="1.32023">
        <ele>275.62112426758</ele>
        <time>2019-03-30T19:12:18.705Z</time>
      </trkpt>
      <trkpt lat="45.10301" lon="1.31979">
        <ele>278.86001586914</ele>
        <time>2019-03-30T19:12:43.089Z</time>
      </trkpt>
      <trkpt lat="45.10371" lon="1.31924">
        <ele>284.16305541992</ele>
        <time>2019-03-30T19:13:07.485Z</time>
      </trkpt>
      <trkpt lat="45.10489" lon="1.31877">
        <ele>279.85339355469</ele>
        <time>2019-03-30T19:13:31.901Z</time>
      </trkpt>
      <trkpt lat="45.10525" lon="1.31853">
        <ele>277.64996337891</ele>
        <time>2019-03-30T19:13:56.323Z</time>
      </trkpt>
      <trkpt lat="45.10614" lon="1.31771">
        <ele>278.22445678711</ele>
        <time>2019-03-30T19:14:20.762Z</time>
      </trkpt>
      <trkpt lat="45.10614" lon="1.31771">
        <ele>278.22396850586</ele>
        <time>2019-03-30T19:14:45.201Z</time>
      </trkpt>
      <trkpt lat="45.10634" lon="1.31751">
        <ele>279.49890136719</ele>
        <time>2019-03-30T19:15:09.644Z</time>
      </trkpt>
      <trkpt lat="45.10685" lon="1.31688">
        <ele>279.60397338867</ele>
        <time>2019-03-30T19:15:34.098Z</time>
      </trkpt>
      <trkpt lat="45.10826" lon="1.31577">
        <ele>275.34780883789</ele>
        <time>2019-03-30T19:15:58.578Z</time>
      </trkpt>
      <trkpt lat="45.10852" lon="1.31548">
        <ele>275.30102539062</ele>
        <time>2019-03-30T19:16:23.063Z</time>
      </trkpt>
      <trkpt lat="45.10905" lon="1.31446">
        <ele>277.00665283203</ele>
        <time>2019-03-30T19:16:47.563Z</time>
      </trkpt>
      <trkpt lat="45.10931" lon="1.31349">
        <ele>281.44567871094</ele>
        <time>2019-03-30T19:17:12.074Z</time>
      </trkpt>
      <trkpt lat="45.1093" lon="1.31305">
        <ele>282.09954833984</ele>
        <time>2019-03-30T19:17:36.590Z</time>
      </trkpt>
      <trkpt lat="45.10911" lon="1.31204">
        <ele>277.37045288086</ele>
        <time>2019-03-30T19:18:01.118Z</time>
      </trkpt>
      <trkpt lat="45.10909" lon="1.31162">
        <ele>275.71752929688</ele>
        <time>2019-03-30T19:18:25.651Z</time>
      </trkpt>
      <trkpt lat="45.1092" lon="1.31091">
        <ele>273.8835144043</ele>
        <time>2019-03-30T19:18:50.192Z</time>
      </trkpt>
      <trkpt lat="45.10905" lon="1.30991">
        <ele>265.67953491211</ele>
        <time>2019-03-30T19:19:14.745Z</time>
      </trkpt>
      <trkpt lat="45.10905" lon="1.30991">
        <ele>265.6784362793</ele>
        <time>2019-03-30T19:19:39.298Z</time>
      </trkpt>
      <trkpt lat="45.10916" lon="1.30958">
        <ele>265.83392333984</ele>
        <time>2019-03-30T19:20:03.855Z</time>
      </trkpt>
      <trkpt lat="45.10993" lon="1.30878">
        <ele>267.23992919922</ele>
        <time>2019-03-30T19:20:28.427Z</time>
      </trkpt>
      <trkpt lat="45.11098" lon="1.30735">
        <ele>256.32342529297</ele>
        <time>2019-03-30T19:20:53.023Z</time>
      </trkpt>
      <trkpt lat="45.11203" lon="1.30659">
        <ele>243.33616638184</ele>
        <time>2019-03-30T19:21:17.637Z</time>
      </trkpt>
      <trkpt lat="45.11233" lon="1.3062">
        <ele>241.40232849121</ele>
        <time>2019-03-30T19:21:42.258Z</time>
      </trkpt>
      <trkpt lat="45.1126" lon="1.30594">
        <ele>240.29574584961</ele>
        <time>2019-03-30T19:22:06.884Z</time>
      </trkpt>
      <trkpt lat="45.11281" lon="1.30584">
        <ele>239.19485473633</ele>
        <time>2019-03-30T19:22:31.514Z</time>
      </trkpt>
      <trkpt lat="45.11281" lon="1.30584">
        <ele>239.19514465332</ele>
        <time>2019-03-30T19:22:56.144Z</time>
      </trkpt>
      <trkpt lat="45.11359" lon="1.30589">
        <ele>233.92533874512</ele>
        <time>2019-03-30T19:23:20.786Z</time>
      </trkpt>
      <trkpt lat="45.1147" lon="1.30638">
        <ele>229.53979492188</ele>
        <time>2019-03-30T19:23:45.447Z</time>
      </trkpt>
      <trkpt lat="45.11519" lon="1.3063">
        <ele>224.9049987793</ele>
        <time>2019-03-30T19:24:10.116Z</time>
      </trkpt>
      <trkpt lat="45.11519" lon="1.3063">
        <ele>224.90571594238</ele>
        <time>2019-03-30T19:24:34.785Z</time>
      </trkpt>
      <trkpt lat="45.11549" lon="1.30628">
        <ele>222.75241088867</ele>
        <time>2019-03-30T19:24:59.459Z</time>
      </trkpt>
      <trkpt lat="45.11572" lon="1.30639">
        <ele>220.3516998291</ele>
        <time>2019-03-30T19:25:24.136Z</time>
      </trkpt>
      <trkpt lat="45.11583" lon="1.3066">
        <ele>220.25024414062</ele>
        <time>2019-03-30T19:25:48.816Z</time>
      </trkpt>
      <trkpt lat="45.116" lon="1.30744">
        <ele>222.8058013916</ele>
        <time>2019-03-30T19:26:13.506Z</time>
      </trkpt>
      <trkpt lat="45.11611" lon="1.30762">
        <ele>223.6167755127</ele>
        <time>2019-03-30T19:26:38.199Z</time>
      </trkpt>
      <trkpt lat="45.1163" lon="1.30767">
        <ele>223.15617370605</ele>
        <time>2019-03-30T19:27:02.895Z</time>
      </trkpt>
      <trkpt lat="45.1164" lon="1.30765">
        <ele>223.10458374023</ele>
        <time>2019-03-30T19:27:27.593Z</time>
      </trkpt>
      <trkpt lat="45.1179" lon="1.30636">
        <ele>215.7767791748</ele>
        <time>2019-03-30T19:27:52.319Z</time>
      </trkpt>
      <trkpt lat="45.11814" lon="1.3059">
        <ele>212.99655151367</ele>
        <time>2019-03-30T19:28:17.051Z</time>
      </trkpt>
      <trkpt lat="45.11814" lon="1.3059">
        <ele>212.9959564209</ele>
        <time>2019-03-30T19:28:41.783Z</time>
      </trkpt>
      <trkpt lat="45.11815" lon="1.30589">
        <ele>212.98500061035</ele>
        <time>2019-03-30T19:29:06.515Z</time>
      </trkpt>
      <trkpt lat="45.11815" lon="1.30589">
        <ele>212.9852142334</ele>
        <time>2019-03-30T19:29:31.247Z</time>
      </trkpt>
      <trkpt lat="45.11836" lon="1.3055">
        <ele>211.51663208008</ele>
        <time>2019-03-30T19:29:55.985Z</time>
      </trkpt>
      <trkpt lat="45.1186" lon="1.30525">
        <ele>210.23558044434</ele>
        <time>2019-03-30T19:30:20.728Z</time>
      </trkpt>
      <trkpt lat="45.12008" lon="1.30449">
        <ele>194.27680969238</ele>
        <time>2019-03-30T19:30:45.496Z</time>
      </trkpt>
      <trkpt lat="45.12057" lon="1.30452">
        <ele>192.46273803711</ele>
        <time>2019-03-30T19:31:10.272Z</time>
      </trkpt>
      <trkpt lat="45.12202" lon="1.3056">
        <ele>178.09950256348</ele>
        <time>2019-03-30T19:31:35.074Z</time>
      </trkpt>
      <trkpt lat="45.12253" lon="1.30604">
        <ele>174.59800720215</ele>
        <time>2019-03-30T19:31:59.886Z</time>
      </trkpt>
      <trkpt lat="45.12253" lon="1.30604">
        <ele>174.59971618652</ele>
        <time>2019-03-30T19:32:24.698Z</time>
      </trkpt>
      <trkpt lat="45.12323" lon="1.30664">
        <ele>173.76722717285</ele>
        <time>2019-03-30T19:32:49.523Z</time>
      </trkpt>
      <trkpt lat="45.12354" lon="1.30675">
        <ele>172.97557067871</ele>
        <time>2019-03-30T19:33:14.353Z</time>
      </trkpt>
      <trkpt lat="45.12403" lon="1.3068">
        <ele>171.24565124512</ele>
        <time>2019-03-30T19:33:39.191Z</time>
      </trkpt>
      <trkpt lat="45.1249" lon="1.30675">
        <ele>168.47311401367</ele>
        <time>2019-03-30T19:34:04.043Z</time>
      </trkpt>
      <trkpt lat="45.12561" lon="1.30654">
        <ele>155.1031036377</ele>
        <time>2019-03-30T19:34:28.906Z</time>
      </trkpt>
      <trkpt lat="45.12583" lon="1.30658">
        <ele>152.99201965332</ele>
        <time>2019-03-30T19:34:53.773Z</time>
      </trkpt>
      <trkpt lat="45.12613" lon="1.30686">
        <ele>154.3811340332</ele>
        <time>2019-03-30T19:35:18.646Z</time>
      </trkpt>
      <trkpt lat="45.12613" lon="1.30686">
        <ele>154.3822479248</ele>
        <time>2019-03-30T19:35:43.519Z</time>
      </trkpt>
      <trkpt lat="45.12637" lon="1.30708">
        <ele>154.2412109375</ele>
        <time>2019-03-30T19:36:08.396Z</time>
      </trkpt>
      <trkpt lat="45.1267" lon="1.30717">
        <ele>147.74494934082</ele>
        <time>2019-03-30T19:36:33.279Z</time>
      </trkpt>
      <trkpt lat="45.12695" lon="1.3073">
        <ele>143.94486999512</ele>
        <time>2019-03-30T19:36:58.166Z</time>
      </trkpt>
      <trkpt lat="45.12735" lon="1.30788">
        <ele>133.21096801758</ele>
        <time>2019-03-30T19:37:23.062Z</time>
      </trkpt>
      <trkpt lat="45.12748" lon="1.30784">
        <ele>127.22155761719</ele>
        <time>2019-03-30T19:37:47.960Z</time>
      </trkpt>
      <trkpt lat="45.12758" lon="1.30772">
        <ele>121.98268127441</ele>
        <time>2019-03-30T19:38:12.860Z</time>
      </trkpt>
      <trkpt lat="45.1276" lon="1.30751">
        <ele>119.00270080566</ele>
        <time>2019-03-30T19:38:37.763Z</time>
      </trkpt>
      <trkpt lat="45.12725" lon="1.3068">
        <ele>126.78350067139</ele>
        <time>2019-03-30T19:39:02.675Z</time>
      </trkpt>
      <trkpt lat="45.12717" lon="1.30667">
        <ele>128.43760681152</ele>
        <time>2019-03-30T19:39:27.589Z</time>
      </trkpt>
      <trkpt lat="45.12699" lon="1.30634">
        <ele>129.20133972168</ele>
        <time>2019-03-30T19:39:52.508Z</time>
      </trkpt>
      <trkpt lat="45.12665" lon="1.30576">
        <ele>127.66951751709</ele>
        <time>2019-03-30T19:40:17.436Z</time>
      </trkpt>
      <trkpt lat="45.12659" lon="1.30568">
        <ele>127.62446594238</ele>
        <time>2019-03-30T19:40:42.365Z</time>
      </trkpt>
      <trkpt lat="45.12634" lon="1.30539">
        <ele>127.21478271484</ele>
        <time>2019-03-30T19:41:07.299Z</time>
      </trkpt>
      <trkpt lat="45.12634" lon="1.30539">
        <ele>127.21608734131</ele>
        <time>2019-03-30T19:41:32.233Z</time>
      </trkpt>
      <trkpt lat="45.12633" lon="1.30538">
        <ele>127.13111114502</ele>
        <time>2019-03-30T19:41:57.167Z</time>
      </trkpt>
      <trkpt lat="45.12628" lon="1.30534">
        <ele>127.21478271484</ele>
        <time>2019-03-30T19:42:22.102Z</time>
      </trkpt>
      <trkpt lat="45.12628" lon="1.30534">
        <ele>127.21608734131</ele>
        <time>2019-03-30T19:42:47.037Z</time>
      </trkpt>
      <trkpt lat="45.1258" lon="1.30507">
        <ele>123.14057159424</ele>
        <time>2019-03-30T19:43:11.981Z</time>
      </trkpt>
      <trkpt lat="45.12534" lon="1.30505">
        <ele>124.56657409668</ele>
        <time>2019-03-30T19:43:36.932Z</time>
      </trkpt>
      <trkpt lat="45.12527" lon="1.30503">
        <ele>124.79827880859</ele>
        <time>2019-03-30T19:44:01.884Z</time>
      </trkpt>
      <trkpt lat="45.12502" lon="1.30483">
        <ele>122.08863067627</ele>
        <time>2019-03-30T19:44:26.841Z</time>
      </trkpt>
      <trkpt lat="45.12495" lon="1.30464">
        <ele>121.12162017822</ele>
        <time>2019-03-30T19:44:51.800Z</time>
      </trkpt>
      <trkpt lat="45.12499" lon="1.30435">
        <ele>119.56355285645</ele>
        <time>2019-03-30T19:45:16.762Z</time>
      </trkpt>
      <trkpt lat="45.12523" lon="1.30404">
        <ele>113.21128845215</ele>
        <time>2019-03-30T19:45:41.730Z</time>
      </trkpt>
      <trkpt lat="45.12569" lon="1.30394">
        <ele>108.63028717041</ele>
        <time>2019-03-30T19:46:06.705Z</time>
      </trkpt>
      <trkpt lat="45.12583" lon="1.30392">
        <ele>107.86437225342</ele>
        <time>2019-03-30T19:46:31.682Z</time>
      </trkpt>
      <trkpt lat="45.12583" lon="1.30392">
        <ele>107.86487579346</ele>
        <time>2019-03-30T19:46:56.659Z</time>
      </trkpt>
      <trkpt lat="45.12656" lon="1.30384">
        <ele>101.3108291626</ele>
        <time>2019-03-30T19:47:21.648Z</time>
      </trkpt>
      <trkpt lat="45.12678" lon="1.30379">
        <ele>98.812767028809</ele>
        <time>2019-03-30T19:47:46.641Z</time>
      </trkpt>
      <trkpt lat="45.12701" lon="1.30332">
        <ele>93.25186920166</ele>
        <time>2019-03-30T19:48:11.640Z</time>
      </trkpt>
      <trkpt lat="45.12708" lon="1.30316">
        <ele>91.462593078613</ele>
        <time>2019-03-30T19:48:36.641Z</time>
      </trkpt>
      <trkpt lat="45.12711" lon="1.30309">
        <ele>90.91983795166</ele>
        <time>2019-03-30T19:49:01.643Z</time>
      </trkpt>
      <trkpt lat="45.12712" lon="1.30308">
        <ele>90.855072021484</ele>
        <time>2019-03-30T19:49:26.645Z</time>
      </trkpt>
      <trkpt lat="45.12763" lon="1.30292">
        <ele>88.216621398926</ele>
        <time>2019-03-30T19:49:51.656Z</time>
      </trkpt>
      <trkpt lat="45.12777" lon="1.30288">
        <ele>87.60725402832</ele>
        <time>2019-03-30T19:50:16.669Z</time>
      </trkpt>
      <trkpt lat="45.12845" lon="1.30267">
        <ele>88.677909851074</ele>
        <time>2019-03-30T19:50:41.693Z</time>
      </trkpt>
      <trkpt lat="45.12848" lon="1.30266">
        <ele>88.742477416992</ele>
        <time>2019-03-30T19:51:06.718Z</time>
      </trkpt>
      <trkpt lat="45.12904" lon="1.30248">
        <ele>88.353866577148</ele>
        <time>2019-03-30T19:51:31.752Z</time>
      </trkpt>
      <trkpt lat="45.1298" lon="1.30227">
        <ele>87</ele>
        <time>2019-03-30T19:51:56.798Z</time>
      </trkpt>
      <trkpt lat="45.12996" lon="1.30038">
        <ele>87.57933807373</ele>
        <time>2019-03-30T19:52:21.866Z</time>
      </trkpt>
      <trkpt lat="45.12996" lon="1.30038">
        <ele>87.579322814941</ele>
        <time>2019-03-30T19:52:46.934Z</time>
      </trkpt>
      <trkpt lat="45.12996" lon="1.30038">
        <ele>87.579452514648</ele>
        <time>2019-03-30T19:53:12.002Z</time>
      </trkpt>
      <trkpt lat="45.13005" lon="1.29926">
        <ele>87.645492553711</ele>
        <time>2019-03-30T19:53:37.082Z</time>
      </trkpt>
      <trkpt lat="45.13006" lon="1.29921">
        <ele>87.703422546387</ele>
        <time>2019-03-30T19:54:02.163Z</time>
      </trkpt>
      <trkpt lat="45.13008" lon="1.29888">
        <ele>88</ele>
        <time>2019-03-30T19:54:27.248Z</time>
      </trkpt>
      <trkpt lat="45.13016" lon="1.29793">
        <ele>87.815116882324</ele>
        <time>2019-03-30T19:54:52.344Z</time>
      </trkpt>
      <trkpt lat="45.13022" lon="1.29723">
        <ele>88.286758422852</ele>
        <time>2019-03-30T19:55:17.448Z</time>
      </trkpt>
      <trkpt lat="45.13043" lon="1.29478">
        <ele>86.970306396484</ele>
        <time>2019-03-30T19:55:42.580Z</time>
      </trkpt>
      <trkpt lat="45.13052" lon="1.29369">
        <ele>86.233367919922</ele>
        <time>2019-03-30T19:56:07.724Z</time>
      </trkpt>
      <trkpt lat="45.13061" lon="1.29261">
        <ele>86.79126739502</ele>
        <time>2019-03-30T19:56:32.880Z</time>
      </trkpt>
      <trkpt lat="45.13061" lon="1.29261">
        <ele>86.791000366211</ele>
        <time>2019-03-30T19:56:58.036Z</time>
      </trkpt>
      <trkpt lat="45.13061" lon="1.29261">
        <ele>86.790916442871</ele>
        <time>2019-03-30T19:57:23.192Z</time>
      </trkpt>
      <trkpt lat="45.13061" lon="1.29261">
        <ele>86.790916442871</ele>
        <time>2019-03-30T19:57:48.348Z</time>
      </trkpt>
      <trkpt lat="45.13074" lon="1.29115">
        <ele>87.75414276123</ele>
        <time>2019-03-30T19:58:13.521Z</time>
      </trkpt>
      <trkpt lat="45.13075" lon="1.29096">
        <ele>88.217552185059</ele>
        <time>2019-03-30T19:58:38.696Z</time>
      </trkpt>
      <trkpt lat="45.13078" lon="1.29066">
        <ele>88.56079864502</ele>
        <time>2019-03-30T19:59:03.875Z</time>
      </trkpt>
      <trkpt lat="45.13101" lon="1.28794">
        <ele>86.452789306641</ele>
        <time>2019-03-30T19:59:29.085Z</time>
      </trkpt>
      <trkpt lat="45.131" lon="1.28794">
        <ele>86.452690124512</ele>
        <time>2019-03-30T19:59:54.295Z</time>
      </trkpt>
      <trkpt lat="45.13103" lon="1.28769">
        <ele>85.94312286377</ele>
        <time>2019-03-30T20:00:19.507Z</time>
      </trkpt>
      <trkpt lat="45.13104" lon="1.28756">
        <ele>85.634178161621</ele>
        <time>2019-03-30T20:00:44.721Z</time>
      </trkpt>
      <trkpt lat="45.13105" lon="1.28743">
        <ele>85.312370300293</ele>
        <time>2019-03-30T20:01:09.936Z</time>
      </trkpt>
      <trkpt lat="45.13129" lon="1.28456">
        <ele>88.25447845459</ele>
        <time>2019-03-30T20:01:35.184Z</time>
      </trkpt>
      <trkpt lat="45.13153" lon="1.28176">
        <ele>87.646911621094</ele>
        <time>2019-03-30T20:02:00.464Z</time>
      </trkpt>
      <trkpt lat="45.13187" lon="1.27791">
        <ele>86.742462158203</ele>
        <time>2019-03-30T20:02:25.788Z</time>
      </trkpt>
      <trkpt lat="45.13183" lon="1.27628">
        <ele>85.118232727051</ele>
        <time>2019-03-30T20:02:51.131Z</time>
      </trkpt>
      <trkpt lat="45.13183" lon="1.27628">
        <ele>85.11833190918</ele>
        <time>2019-03-30T20:03:16.474Z</time>
      </trkpt>
      <trkpt lat="45.1318" lon="1.27605">
        <ele>85.132682800293</ele>
        <time>2019-03-30T20:03:41.819Z</time>
      </trkpt>
      <trkpt lat="45.13187" lon="1.27546">
        <ele>85.924339294434</ele>
        <time>2019-03-30T20:04:07.171Z</time>
      </trkpt>
      <trkpt lat="45.13199" lon="1.27493">
        <ele>86.703125</ele>
        <time>2019-03-30T20:04:32.529Z</time>
      </trkpt>
      <trkpt lat="45.13213" lon="1.27463">
        <ele>86.799339294434</ele>
        <time>2019-03-30T20:04:57.891Z</time>
      </trkpt>
      <trkpt lat="45.13289" lon="1.27439">
        <ele>86.081680297852</ele>
        <time>2019-03-30T20:05:23.266Z</time>
      </trkpt>
      <trkpt lat="45.13389" lon="1.27406">
        <ele>85.908615112305</ele>
        <time>2019-03-30T20:05:48.657Z</time>
      </trkpt>
      <trkpt lat="45.13399" lon="1.27425">
        <ele>87.002777099609</ele>
        <time>2019-03-30T20:06:14.051Z</time>
      </trkpt>
      <trkpt lat="45.13411" lon="1.27426">
        <ele>87.749877929688</ele>
        <time>2019-03-30T20:06:39.447Z</time>
      </trkpt>
      <trkpt lat="45.13422" lon="1.27417">
        <ele>88.174171447754</ele>
        <time>2019-03-30T20:07:04.845Z</time>
      </trkpt>
      <trkpt lat="45.13426" lon="1.27392">
        <ele>88.09587097168</ele>
        <time>2019-03-30T20:07:30.246Z</time>
      </trkpt>
      <trkpt lat="45.13413" lon="1.27373">
        <ele>88.256774902344</ele>
        <time>2019-03-30T20:07:55.650Z</time>
      </trkpt>
      <trkpt lat="45.13401" lon="1.27374">
        <ele>87.490867614746</ele>
        <time>2019-03-30T20:08:21.056Z</time>
      </trkpt>
      <trkpt lat="45.13332" lon="1.27314">
        <ele>87.336952209473</ele>
        <time>2019-03-30T20:08:46.475Z</time>
      </trkpt>
      <trkpt lat="45.13268" lon="1.27256">
        <ele>86.052070617676</ele>
        <time>2019-03-30T20:09:11.906Z</time>
      </trkpt>
      <trkpt lat="45.13245" lon="1.27197">
        <ele>85.819946289062</ele>
        <time>2019-03-30T20:09:37.344Z</time>
      </trkpt>
      <trkpt lat="45.13243" lon="1.2715">
        <ele>85.430671691895</ele>
        <time>2019-03-30T20:10:02.788Z</time>
      </trkpt>
      <trkpt lat="45.13243" lon="1.2715">
        <ele>85.427299499512</ele>
        <time>2019-03-30T20:10:28.232Z</time>
      </trkpt>
      <trkpt lat="45.13243" lon="1.27149">
        <ele>85.424110412598</ele>
        <time>2019-03-30T20:10:53.676Z</time>
      </trkpt>
      <trkpt lat="45.13243" lon="1.27149">
        <ele>85.424209594727</ele>
        <time>2019-03-30T20:11:19.120Z</time>
      </trkpt>
      <trkpt lat="45.1324" lon="1.27085">
        <ele>86.09024810791</ele>
        <time>2019-03-30T20:11:44.571Z</time>
      </trkpt>
      <trkpt lat="45.13232" lon="1.27041">
        <ele>87.040542602539</ele>
        <time>2019-03-30T20:12:10.027Z</time>
      </trkpt>
      <trkpt lat="45.13289" lon="1.27017">
        <ele>86.621780395508</ele>
        <time>2019-03-30T20:12:35.493Z</time>
      </trkpt>
      <trkpt lat="45.13289" lon="1.27017">
        <ele>86.620506286621</ele>
        <time>2019-03-30T20:13:00.959Z</time>
      </trkpt>
      <trkpt lat="45.13289" lon="1.27017">
        <ele>86.614273071289</ele>
        <time>2019-03-30T20:13:26.425Z</time>
      </trkpt>
      <trkpt lat="45.1329" lon="1.27017">
        <ele>86.602203369141</ele>
        <time>2019-03-30T20:13:51.891Z</time>
      </trkpt>
      <trkpt lat="45.1329" lon="1.27017">
        <ele>86.60179901123</ele>
        <time>2019-03-30T20:14:17.357Z</time>
      </trkpt>
      <trkpt lat="45.13422" lon="1.2696">
        <ele>88.456481933594</ele>
        <time>2019-03-30T20:14:42.845Z</time>
      </trkpt>
      <trkpt lat="45.13459" lon="1.26945">
        <ele>88.866340637207</ele>
        <time>2019-03-30T20:15:08.339Z</time>
      </trkpt>
      <trkpt lat="45.13459" lon="1.26945">
        <ele>88.86604309082</ele>
        <time>2019-03-30T20:15:33.833Z</time>
      </trkpt>
      <trkpt lat="45.13459" lon="1.26945">
        <ele>88.863746643066</ele>
        <time>2019-03-30T20:15:59.327Z</time>
      </trkpt>
      <trkpt lat="45.1346" lon="1.26945">
        <ele>88.859535217285</ele>
        <time>2019-03-30T20:16:24.821Z</time>
      </trkpt>
      <trkpt lat="45.1346" lon="1.26945">
        <ele>88.859130859375</ele>
        <time>2019-03-30T20:16:50.315Z</time>
      </trkpt>
      <trkpt lat="45.13484" lon="1.26935">
        <ele>89.342010498047</ele>
        <time>2019-03-30T20:17:15.813Z</time>
      </trkpt>
      <trkpt lat="45.13554" lon="1.26923">
        <ele>89.675506591797</ele>
        <time>2019-03-30T20:17:41.323Z</time>
      </trkpt>
      <trkpt lat="45.13572" lon="1.26913">
        <ele>90.084831237793</ele>
        <time>2019-03-30T20:18:06.836Z</time>
      </trkpt>
      <trkpt lat="45.13639" lon="1.26831">
        <ele>91.859397888184</ele>
        <time>2019-03-30T20:18:32.363Z</time>
      </trkpt>
      <trkpt lat="45.13683" lon="1.2681">
        <ele>94.165054321289</ele>
        <time>2019-03-30T20:18:57.897Z</time>
      </trkpt>
      <trkpt lat="45.13732" lon="1.2677">
        <ele>94.239486694336</ele>
        <time>2019-03-30T20:19:23.440Z</time>
      </trkpt>
      <trkpt lat="45.13732" lon="1.2677">
        <ele>94.238983154297</ele>
        <time>2019-03-30T20:19:48.983Z</time>
      </trkpt>
      <trkpt lat="45.13735" lon="1.26768">
        <ele>94.103820800781</ele>
        <time>2019-03-30T20:20:14.527Z</time>
      </trkpt>
      <trkpt lat="45.13952" lon="1.26559">
        <ele>93.839637756348</ele>
        <time>2019-03-30T20:20:40.113Z</time>
      </trkpt>
      <trkpt lat="45.14011" lon="1.26521">
        <ele>94.39990234375</ele>
        <time>2019-03-30T20:21:05.709Z</time>
      </trkpt>
      <trkpt lat="45.14011" lon="1.26521">
        <ele>94.399299621582</ele>
        <time>2019-03-30T20:21:31.305Z</time>
      </trkpt>
      <trkpt lat="45.14201" lon="1.2641">
        <ele>95.314155578613</ele>
        <time>2019-03-30T20:21:56.934Z</time>
      </trkpt>
      <trkpt lat="45.14243" lon="1.2637">
        <ele>97.626480102539</ele>
        <time>2019-03-30T20:22:22.571Z</time>
      </trkpt>
      <trkpt lat="45.14413" lon="1.26171">
        <ele>100.85166931152</ele>
        <time>2019-03-30T20:22:48.244Z</time>
      </trkpt>
      <trkpt lat="45.14671" lon="1.26009">
        <ele>98.47599029541</ele>
        <time>2019-03-30T20:23:13.962Z</time>
      </trkpt>
      <trkpt lat="45.14713" lon="1.25978">
        <ele>98.200553894043</ele>
        <time>2019-03-30T20:23:39.687Z</time>
      </trkpt>
      <trkpt lat="45.14713" lon="1.25978">
        <ele>98.201293945312</ele>
        <time>2019-03-30T20:24:05.412Z</time>
      </trkpt>
      <trkpt lat="45.14713" lon="1.25978">
        <ele>98.222854614258</ele>
        <time>2019-03-30T20:24:31.137Z</time>
      </trkpt>
      <trkpt lat="45.14713" lon="1.25978">
        <ele>98.259346008301</ele>
        <time>2019-03-30T20:24:56.862Z</time>
      </trkpt>
      <trkpt lat="45.14713" lon="1.25978">
        <ele>98.259651184082</ele>
        <time>2019-03-30T20:25:22.587Z</time>
      </trkpt>
      <trkpt lat="45.1476" lon="1.25945">
        <ele>104.31797790527</ele>
        <time>2019-03-30T20:25:48.321Z</time>
      </trkpt>
      <trkpt lat="45.14879" lon="1.2583">
        <ele>112.74154663086</ele>
        <time>2019-03-30T20:26:14.078Z</time>
      </trkpt>
      <trkpt lat="45.14908" lon="1.25761">
        <ele>122.48866271973</ele>
        <time>2019-03-30T20:26:39.844Z</time>
      </trkpt>
      <trkpt lat="45.14934" lon="1.25724">
        <ele>116.82096862793</ele>
        <time>2019-03-30T20:27:05.616Z</time>
      </trkpt>
      <trkpt lat="45.15012" lon="1.25644">
        <ele>118.17951202393</ele>
        <time>2019-03-30T20:27:31.403Z</time>
      </trkpt>
      <trkpt lat="45.15046" lon="1.25619">
        <ele>123.31414031982</ele>
        <time>2019-03-30T20:27:57.196Z</time>
      </trkpt>
      <trkpt lat="45.15046" lon="1.25619">
        <ele>123.31373596191</ele>
        <time>2019-03-30T20:28:22.989Z</time>
      </trkpt>
      <trkpt lat="45.15112" lon="1.2563">
        <ele>117.06455993652</ele>
        <time>2019-03-30T20:28:48.793Z</time>
      </trkpt>
      <trkpt lat="45.15139" lon="1.25623">
        <ele>115.11797332764</ele>
        <time>2019-03-30T20:29:14.601Z</time>
      </trkpt>
      <trkpt lat="45.15158" lon="1.2561">
        <ele>118.03358459473</ele>
        <time>2019-03-30T20:29:40.413Z</time>
      </trkpt>
      <trkpt lat="45.1517" lon="1.2559">
        <ele>118.80605316162</ele>
        <time>2019-03-30T20:30:06.228Z</time>
      </trkpt>
      <trkpt lat="45.15186" lon="1.25475">
        <ele>117.84908294678</ele>
        <time>2019-03-30T20:30:32.056Z</time>
      </trkpt>
      <trkpt lat="45.15183" lon="1.25416">
        <ele>120.7816696167</ele>
        <time>2019-03-30T20:30:57.891Z</time>
      </trkpt>
      <trkpt lat="45.15221" lon="1.25293">
        <ele>120.69847106934</ele>
        <time>2019-03-30T20:31:23.741Z</time>
      </trkpt>
      <trkpt lat="45.15221" lon="1.25293">
        <ele>120.70623779297</ele>
        <time>2019-03-30T20:31:49.591Z</time>
      </trkpt>
      <trkpt lat="45.15221" lon="1.25293">
        <ele>120.71168518066</ele>
        <time>2019-03-30T20:32:15.441Z</time>
      </trkpt>
      <trkpt lat="45.15221" lon="1.25293">
        <ele>120.71228790283</ele>
        <time>2019-03-30T20:32:41.291Z</time>
      </trkpt>
      <trkpt lat="45.15227" lon="1.25273">
        <ele>121.33036804199</ele>
        <time>2019-03-30T20:33:07.143Z</time>
      </trkpt>
      <trkpt lat="45.15227" lon="1.25273">
        <ele>121.33056640625</ele>
        <time>2019-03-30T20:33:32.995Z</time>
      </trkpt>
      <trkpt lat="45.15241" lon="1.25229">
        <ele>120.5538482666</ele>
        <time>2019-03-30T20:33:58.853Z</time>
      </trkpt>
      <trkpt lat="45.15253" lon="1.25207">
        <ele>124.06803131104</ele>
        <time>2019-03-30T20:34:24.714Z</time>
      </trkpt>
      <trkpt lat="45.15322" lon="1.25147">
        <ele>123.97801971436</ele>
        <time>2019-03-30T20:34:50.588Z</time>
      </trkpt>
      <trkpt lat="45.15367" lon="1.2509">
        <ele>123.68576812744</ele>
        <time>2019-03-30T20:35:16.472Z</time>
      </trkpt>
      <trkpt lat="45.15367" lon="1.2509">
        <ele>123.66594696045</ele>
        <time>2019-03-30T20:35:42.356Z</time>
      </trkpt>
      <trkpt lat="45.15367" lon="1.2509">
        <ele>123.63469696045</ele>
        <time>2019-03-30T20:36:08.240Z</time>
      </trkpt>
      <trkpt lat="45.15367" lon="1.2509">
        <ele>123.63389587402</ele>
        <time>2019-03-30T20:36:34.124Z</time>
      </trkpt>
      <trkpt lat="45.15395" lon="1.25054">
        <ele>125.87106323242</ele>
        <time>2019-03-30T20:37:00.014Z</time>
      </trkpt>
      <trkpt lat="45.15406" lon="1.25025">
        <ele>128.43911743164</ele>
        <time>2019-03-30T20:37:25.907Z</time>
      </trkpt>
      <trkpt lat="45.1541" lon="1.24993">
        <ele>129.02717590332</ele>
        <time>2019-03-30T20:37:51.804Z</time>
      </trkpt>
      <trkpt lat="45.15403" lon="1.24924">
        <ele>129.47929382324</ele>
        <time>2019-03-30T20:38:17.709Z</time>
      </trkpt>
      <trkpt lat="45.15416" lon="1.24815">
        <ele>127.92385864258</ele>
        <time>2019-03-30T20:38:43.626Z</time>
      </trkpt>
      <trkpt lat="45.15414" lon="1.24764">
        <ele>130.61866760254</ele>
        <time>2019-03-30T20:39:09.549Z</time>
      </trkpt>
      <trkpt lat="45.1542" lon="1.24747">
        <ele>128.55908203125</ele>
        <time>2019-03-30T20:39:35.474Z</time>
      </trkpt>
      <trkpt lat="45.1548" lon="1.24674">
        <ele>129.09704589844</ele>
        <time>2019-03-30T20:40:01.412Z</time>
      </trkpt>
      <trkpt lat="45.15493" lon="1.24649">
        <ele>127.61532592773</ele>
        <time>2019-03-30T20:40:27.354Z</time>
      </trkpt>
      <trkpt lat="45.15502" lon="1.24592">
        <ele>129.12168884277</ele>
        <time>2019-03-30T20:40:53.302Z</time>
      </trkpt>
      <trkpt lat="45.1549" lon="1.24529">
        <ele>131.57722473145</ele>
        <time>2019-03-30T20:41:19.258Z</time>
      </trkpt>
      <trkpt lat="45.15496" lon="1.24508">
        <ele>131.58337402344</ele>
        <time>2019-03-30T20:41:45.216Z</time>
      </trkpt>
      <trkpt lat="45.15505" lon="1.24502">
        <ele>129.8568572998</ele>
        <time>2019-03-30T20:42:11.176Z</time>
      </trkpt>
      <trkpt lat="45.15535" lon="1.24479">
        <ele>123.91743469238</ele>
        <time>2019-03-30T20:42:37.141Z</time>
      </trkpt>
      <trkpt lat="45.15557" lon="1.24392">
        <ele>133.43127441406</ele>
        <time>2019-03-30T20:43:03.117Z</time>
      </trkpt>
      <trkpt lat="45.15566" lon="1.24376">
        <ele>137.26727294922</ele>
        <time>2019-03-30T20:43:29.095Z</time>
      </trkpt>
      <trkpt lat="45.15584" lon="1.24364">
        <ele>139.53282165527</ele>
        <time>2019-03-30T20:43:55.076Z</time>
      </trkpt>
      <trkpt lat="45.1562" lon="1.2436">
        <ele>140.12295532227</ele>
        <time>2019-03-30T20:44:21.063Z</time>
      </trkpt>
      <trkpt lat="45.15658" lon="1.24394">
        <ele>134.14584350586</ele>
        <time>2019-03-30T20:44:47.057Z</time>
      </trkpt>
      <trkpt lat="45.15658" lon="1.24395">
        <ele>134.12605285645</ele>
        <time>2019-03-30T20:45:13.051Z</time>
      </trkpt>
      <trkpt lat="45.15659" lon="1.24395">
        <ele>134.08953857422</ele>
        <time>2019-03-30T20:45:39.045Z</time>
      </trkpt>
      <trkpt lat="45.15659" lon="1.24395">
        <ele>134.09085083008</ele>
        <time>2019-03-30T20:46:05.039Z</time>
      </trkpt>
      <trkpt lat="45.15675" lon="1.24409">
        <ele>136.52349853516</ele>
        <time>2019-03-30T20:46:31.036Z</time>
      </trkpt>
      <trkpt lat="45.15713" lon="1.24422">
        <ele>143.21180725098</ele>
        <time>2019-03-30T20:46:57.040Z</time>
      </trkpt>
      <trkpt lat="45.15723" lon="1.24447">
        <ele>148.27711486816</ele>
        <time>2019-03-30T20:47:23.047Z</time>
      </trkpt>
      <trkpt lat="45.15717" lon="1.24508">
        <ele>144.30191040039</ele>
        <time>2019-03-30T20:47:49.061Z</time>
      </trkpt>
      <trkpt lat="45.15748" lon="1.24654">
        <ele>147.080078125</ele>
        <time>2019-03-30T20:48:15.092Z</time>
      </trkpt>
      <trkpt lat="45.15761" lon="1.24748">
        <ele>144.63499450684</ele>
        <time>2019-03-30T20:48:41.134Z</time>
      </trkpt>
      <trkpt lat="45.15761" lon="1.24748">
        <ele>144.61148071289</ele>
        <time>2019-03-30T20:49:07.176Z</time>
      </trkpt>
      <trkpt lat="45.15761" lon="1.24748">
        <ele>144.5867767334</ele>
        <time>2019-03-30T20:49:33.218Z</time>
      </trkpt>
      <trkpt lat="45.15761" lon="1.24748">
        <ele>144.58456420898</ele>
        <time>2019-03-30T20:49:59.260Z</time>
      </trkpt>
      <trkpt lat="45.15769" lon="1.24799">
        <ele>141.98323059082</ele>
        <time>2019-03-30T20:50:25.308Z</time>
      </trkpt>
      <trkpt lat="45.15788" lon="1.2482">
        <ele>144.23930358887</ele>
        <time>2019-03-30T20:50:51.360Z</time>
      </trkpt>
      <trkpt lat="45.15847" lon="1.24824">
        <ele>150.79278564453</ele>
        <time>2019-03-30T20:51:17.421Z</time>
      </trkpt>
      <trkpt lat="45.15901" lon="1.24855">
        <ele>150.91052246094</ele>
        <time>2019-03-30T20:51:43.492Z</time>
      </trkpt>
      <trkpt lat="45.15948" lon="1.24857">
        <ele>150.57786560059</ele>
        <time>2019-03-30T20:52:09.570Z</time>
      </trkpt>
      <trkpt lat="45.16" lon="1.24817">
        <ele>152.99812316895</ele>
        <time>2019-03-30T20:52:35.658Z</time>
      </trkpt>
      <trkpt lat="45.16093" lon="1.24762">
        <ele>153.85406494141</ele>
        <time>2019-03-30T20:53:01.762Z</time>
      </trkpt>
      <trkpt lat="45.16122" lon="1.24735">
        <ele>148.92391967773</ele>
        <time>2019-03-30T20:53:27.871Z</time>
      </trkpt>
      <trkpt lat="45.16144" lon="1.24682">
        <ele>156.86573791504</ele>
        <time>2019-03-30T20:53:53.987Z</time>
      </trkpt>
      <trkpt lat="45.16154" lon="1.24678">
        <ele>157.4578704834</ele>
        <time>2019-03-30T20:54:20.105Z</time>
      </trkpt>
      <trkpt lat="45.16163" lon="1.24681">
        <ele>156.73701477051</ele>
        <time>2019-03-30T20:54:46.224Z</time>
      </trkpt>
      <trkpt lat="45.16192" lon="1.24727">
        <ele>147.73916625977</ele>
        <time>2019-03-30T20:55:12.350Z</time>
      </trkpt>
      <trkpt lat="45.16221" lon="1.24737">
        <ele>147.93920898438</ele>
        <time>2019-03-30T20:55:38.481Z</time>
      </trkpt>
      <trkpt lat="45.1625" lon="1.24729">
        <ele>146.07270812988</ele>
        <time>2019-03-30T20:56:04.617Z</time>
      </trkpt>
      <trkpt lat="45.16292" lon="1.24698">
        <ele>150.54847717285</ele>
        <time>2019-03-30T20:56:30.760Z</time>
      </trkpt>
      <trkpt lat="45.16292" lon="1.24698">
        <ele>150.54861450195</ele>
        <time>2019-03-30T20:56:56.903Z</time>
      </trkpt>
      <trkpt lat="45.16292" lon="1.24697">
        <ele>150.55578613281</ele>
        <time>2019-03-30T20:57:23.046Z</time>
      </trkpt>
      <trkpt lat="45.16292" lon="1.24697">
        <ele>150.57066345215</ele>
        <time>2019-03-30T20:57:49.189Z</time>
      </trkpt>
      <trkpt lat="45.16292" lon="1.24697">
        <ele>150.57276916504</ele>
        <time>2019-03-30T20:58:15.332Z</time>
      </trkpt>
      <trkpt lat="45.16294" lon="1.24695">
        <ele>150.67272949219</ele>
        <time>2019-03-30T20:58:41.476Z</time>
      </trkpt>
      <trkpt lat="45.16357" lon="1.24668">
        <ele>152.21331787109</ele>
        <time>2019-03-30T20:59:07.630Z</time>
      </trkpt>
      <trkpt lat="45.16484" lon="1.24669">
        <ele>147.79690551758</ele>
        <time>2019-03-30T20:59:33.805Z</time>
      </trkpt>
      <trkpt lat="45.16484" lon="1.24669">
        <ele>147.79803466797</ele>
        <time>2019-03-30T20:59:59.980Z</time>
      </trkpt>
      <trkpt lat="45.16484" lon="1.24669">
        <ele>147.79898071289</ele>
        <time>2019-03-30T21:00:26.155Z</time>
      </trkpt>
      <trkpt lat="45.16485" lon="1.24669">
        <ele>147.78802490234</ele>
        <time>2019-03-30T21:00:52.330Z</time>
      </trkpt>
      <trkpt lat="45.16522" lon="1.24669">
        <ele>146.85256958008</ele>
        <time>2019-03-30T21:01:18.511Z</time>
      </trkpt>
      <trkpt lat="45.16522" lon="1.24669">
        <ele>146.85235595703</ele>
        <time>2019-03-30T21:01:44.692Z</time>
      </trkpt>
      <trkpt lat="45.16681" lon="1.24681">
        <ele>153.47128295898</ele>
        <time>2019-03-30T21:02:10.898Z</time>
      </trkpt>
      <trkpt lat="45.16721" lon="1.24676">
        <ele>153.48390197754</ele>
        <time>2019-03-30T21:02:37.111Z</time>
      </trkpt>
      <trkpt lat="45.1678" lon="1.24652">
        <ele>149.64497375488</ele>
        <time>2019-03-30T21:03:03.333Z</time>
      </trkpt>
      <trkpt lat="45.16828" lon="1.24617">
        <ele>156.73956298828</ele>
        <time>2019-03-30T21:03:29.564Z</time>
      </trkpt>
      <trkpt lat="45.16857" lon="1.24611">
        <ele>159.39741516113</ele>
        <time>2019-03-30T21:03:55.800Z</time>
      </trkpt>
      <trkpt lat="45.16887" lon="1.24617">
        <ele>160.63671875</ele>
        <time>2019-03-30T21:04:22.041Z</time>
      </trkpt>
      <trkpt lat="45.16916" lon="1.24634">
        <ele>161.74374389648</ele>
        <time>2019-03-30T21:04:48.287Z</time>
      </trkpt>
      <trkpt lat="45.16931" lon="1.24654">
        <ele>159.84468078613</ele>
        <time>2019-03-30T21:05:14.536Z</time>
      </trkpt>
      <trkpt lat="45.17006" lon="1.24799">
        <ele>148.67378234863</ele>
        <time>2019-03-30T21:05:40.805Z</time>
      </trkpt>
      <trkpt lat="45.17041" lon="1.2483">
        <ele>149.05632019043</ele>
        <time>2019-03-30T21:06:07.081Z</time>
      </trkpt>
      <trkpt lat="45.17057" lon="1.24831">
        <ele>149.15464782715</ele>
        <time>2019-03-30T21:06:33.359Z</time>
      </trkpt>
      <trkpt lat="45.17065" lon="1.24826">
        <ele>148.44706726074</ele>
        <time>2019-03-30T21:06:59.639Z</time>
      </trkpt>
      <trkpt lat="45.17065" lon="1.24826">
        <ele>148.44673156738</ele>
        <time>2019-03-30T21:07:25.919Z</time>
      </trkpt>
      <trkpt lat="45.17065" lon="1.24826">
        <ele>148.42451477051</ele>
        <time>2019-03-30T21:07:52.199Z</time>
      </trkpt>
      <trkpt lat="45.17065" lon="1.24826">
        <ele>148.37867736816</ele>
        <time>2019-03-30T21:08:18.479Z</time>
      </trkpt>
      <trkpt lat="45.17065" lon="1.24826">
        <ele>148.37707519531</ele>
        <time>2019-03-30T21:08:44.759Z</time>
      </trkpt>
      <trkpt lat="45.1712" lon="1.24794">
        <ele>148.34350585938</ele>
        <time>2019-03-30T21:09:11.048Z</time>
      </trkpt>
      <trkpt lat="45.17301" lon="1.24755">
        <ele>155.99584960938</ele>
        <time>2019-03-30T21:09:37.367Z</time>
      </trkpt>
      <trkpt lat="45.17429" lon="1.24776">
        <ele>159.82531738281</ele>
        <time>2019-03-30T21:10:03.706Z</time>
      </trkpt>
      <trkpt lat="45.17429" lon="1.24776">
        <ele>159.82713317871</ele>
        <time>2019-03-30T21:10:30.045Z</time>
      </trkpt>
      <trkpt lat="45.17457" lon="1.24793">
        <ele>162.37406921387</ele>
        <time>2019-03-30T21:10:56.389Z</time>
      </trkpt>
      <trkpt lat="45.1752" lon="1.2486">
        <ele>165.92164611816</ele>
        <time>2019-03-30T21:11:22.746Z</time>
      </trkpt>
      <trkpt lat="45.17547" lon="1.24907">
        <ele>163.57696533203</ele>
        <time>2019-03-30T21:11:49.110Z</time>
      </trkpt>
      <trkpt lat="45.17584" lon="1.25007">
        <ele>154.43463134766</ele>
        <time>2019-03-30T21:12:15.486Z</time>
      </trkpt>
      <trkpt lat="45.17608" lon="1.25077">
        <ele>151.53359985352</ele>
        <time>2019-03-30T21:12:41.871Z</time>
      </trkpt>
      <trkpt lat="45.17664" lon="1.25204">
        <ele>154.2572479248</ele>
        <time>2019-03-30T21:13:08.273Z</time>
      </trkpt>
      <trkpt lat="45.17664" lon="1.25204">
        <ele>154.2586517334</ele>
        <time>2019-03-30T21:13:34.675Z</time>
      </trkpt>
      <trkpt lat="45.17711" lon="1.25283">
        <ele>155.13311767578</ele>
        <time>2019-03-30T21:14:01.089Z</time>
      </trkpt>
      <trkpt lat="45.17741" lon="1.25312">
        <ele>154.59852600098</ele>
        <time>2019-03-30T21:14:27.509Z</time>
      </trkpt>
      <trkpt lat="45.17845" lon="1.25378">
        <ele>153.93409729004</ele>
        <time>2019-03-30T21:14:53.947Z</time>
      </trkpt>
      <trkpt lat="45.17904" lon="1.25432">
        <ele>150.98191833496</ele>
        <time>2019-03-30T21:15:20.396Z</time>
      </trkpt>
      <trkpt lat="45.17934" lon="1.25448">
        <ele>150.6951751709</ele>
        <time>2019-03-30T21:15:46.850Z</time>
      </trkpt>
      <trkpt lat="45.18001" lon="1.25467">
        <ele>148.56796264648</ele>
        <time>2019-03-30T21:16:13.315Z</time>
      </trkpt>
      <trkpt lat="45.18026" lon="1.25467">
        <ele>147.67976379395</ele>
        <time>2019-03-30T21:16:39.784Z</time>
      </trkpt>
      <trkpt lat="45.18068" lon="1.25449">
        <ele>149.26298522949</ele>
        <time>2019-03-30T21:17:06.260Z</time>
      </trkpt>
      <trkpt lat="45.18171" lon="1.25453">
        <ele>149.5782623291</ele>
        <time>2019-03-30T21:17:32.753Z</time>
      </trkpt>
      <trkpt lat="45.183" lon="1.25499">
        <ele>152.64080810547</ele>
        <time>2019-03-30T21:17:59.267Z</time>
      </trkpt>
      <trkpt lat="45.18334" lon="1.25512">
        <ele>152.68450927734</ele>
        <time>2019-03-30T21:18:25.787Z</time>
      </trkpt>
      <trkpt lat="45.18373" lon="1.25522">
        <ele>154.80122375488</ele>
        <time>2019-03-30T21:18:52.313Z</time>
      </trkpt>
      <trkpt lat="45.1848" lon="1.25513">
        <ele>152.93130493164</ele>
        <time>2019-03-30T21:19:18.856Z</time>
      </trkpt>
      <trkpt lat="45.1862" lon="1.25546">
        <ele>150.11128234863</ele>
        <time>2019-03-30T21:19:45.422Z</time>
      </trkpt>
      <trkpt lat="45.18651" lon="1.25535">
        <ele>150.66232299805</ele>
        <time>2019-03-30T21:20:11.993Z</time>
      </trkpt>
      <trkpt lat="45.18653" lon="1.25474">
        <ele>152.63497924805</ele>
        <time>2019-03-30T21:20:38.571Z</time>
      </trkpt>
      <trkpt lat="45.18647" lon="1.25437">
        <ele>155.72436523438</ele>
        <time>2019-03-30T21:21:05.153Z</time>
      </trkpt>
      <trkpt lat="45.187" lon="1.25404">
        <ele>152.73173522949</ele>
        <time>2019-03-30T21:21:31.744Z</time>
      </trkpt>
      <trkpt lat="45.18741" lon="1.25354">
        <ele>155.07292175293</ele>
        <time>2019-03-30T21:21:58.344Z</time>
      </trkpt>
      <trkpt lat="45.18752" lon="1.25334">
        <ele>154.39613342285</ele>
        <time>2019-03-30T21:22:24.947Z</time>
      </trkpt>
      <trkpt lat="45.18755" lon="1.25301">
        <ele>153.29718017578</ele>
        <time>2019-03-30T21:22:51.554Z</time>
      </trkpt>
      <trkpt lat="45.18695" lon="1.25138">
        <ele>163.76826477051</ele>
        <time>2019-03-30T21:23:18.182Z</time>
      </trkpt>
      <trkpt lat="45.18673" lon="1.24952">
        <ele>177.96641540527</ele>
        <time>2019-03-30T21:23:44.831Z</time>
      </trkpt>
      <trkpt lat="45.18629" lon="1.24834">
        <ele>185.69927978516</ele>
        <time>2019-03-30T21:24:11.495Z</time>
      </trkpt>
      <trkpt lat="45.18627" lon="1.24817">
        <ele>186.95231628418</ele>
        <time>2019-03-30T21:24:38.161Z</time>
      </trkpt>
      <trkpt lat="45.18666" lon="1.24771">
        <ele>187.4462890625</ele>
        <time>2019-03-30T21:25:04.835Z</time>
      </trkpt>
      <trkpt lat="45.18706" lon="1.24678">
        <ele>195.37687683105</ele>
        <time>2019-03-30T21:25:31.521Z</time>
      </trkpt>
      <trkpt lat="45.18706" lon="1.24678">
        <ele>195.37626647949</ele>
        <time>2019-03-30T21:25:58.207Z</time>
      </trkpt>
      <trkpt lat="45.18747" lon="1.24655">
        <ele>199.59043884277</ele>
        <time>2019-03-30T21:26:24.900Z</time>
      </trkpt>
      <trkpt lat="45.18781" lon="1.24654">
        <ele>199.03692626953</ele>
        <time>2019-03-30T21:26:51.599Z</time>
      </trkpt>
      <trkpt lat="45.18807" lon="1.24642">
        <ele>201.22225952148</ele>
        <time>2019-03-30T21:27:18.302Z</time>
      </trkpt>
      <trkpt lat="45.18863" lon="1.24583">
        <ele>208.77937316895</ele>
        <time>2019-03-30T21:27:45.017Z</time>
      </trkpt>
      <trkpt lat="45.18909" lon="1.24554">
        <ele>214.74049377441</ele>
        <time>2019-03-30T21:28:11.740Z</time>
      </trkpt>
      <trkpt lat="45.18944" lon="1.24556">
        <ele>219.00128173828</ele>
        <time>2019-03-30T21:28:38.468Z</time>
      </trkpt>
      <trkpt lat="45.18987" lon="1.24579">
        <ele>213.98147583008</ele>
        <time>2019-03-30T21:29:05.203Z</time>
      </trkpt>
      <trkpt lat="45.19017" lon="1.24574">
        <ele>210.35144042969</ele>
        <time>2019-03-30T21:29:31.943Z</time>
      </trkpt>
      <trkpt lat="45.19049" lon="1.24549">
        <ele>208.67309570312</ele>
        <time>2019-03-30T21:29:58.689Z</time>
      </trkpt>
      <trkpt lat="45.19058" lon="1.24531">
        <ele>208.71815490723</ele>
        <time>2019-03-30T21:30:25.438Z</time>
      </trkpt>
      <trkpt lat="45.1906" lon="1.24484">
        <ele>213.13586425781</ele>
        <time>2019-03-30T21:30:52.192Z</time>
      </trkpt>
      <trkpt lat="45.19042" lon="1.24423">
        <ele>219.47714233398</ele>
        <time>2019-03-30T21:31:18.953Z</time>
      </trkpt>
      <trkpt lat="45.19037" lon="1.24396">
        <ele>221.24670410156</ele>
        <time>2019-03-30T21:31:45.718Z</time>
      </trkpt>
      <trkpt lat="45.19037" lon="1.24395">
        <ele>221.30110168457</ele>
        <time>2019-03-30T21:32:12.483Z</time>
      </trkpt>
      <trkpt lat="45.19037" lon="1.24395">
        <ele>221.40065002441</ele>
        <time>2019-03-30T21:32:39.248Z</time>
      </trkpt>
      <trkpt lat="45.19037" lon="1.24395">
        <ele>221.4095916748</ele>
        <time>2019-03-30T21:33:06.013Z</time>
      </trkpt>
      <trkpt lat="45.19022" lon="1.24312">
        <ele>229.06379699707</ele>
        <time>2019-03-30T21:33:32.787Z</time>
      </trkpt>
      <trkpt lat="45.19024" lon="1.24289">
        <ele>230.84861755371</ele>
        <time>2019-03-30T21:33:59.564Z</time>
      </trkpt>
      <trkpt lat="45.19055" lon="1.24228">
        <ele>231.4208984375</ele>
        <time>2019-03-30T21:34:26.350Z</time>
      </trkpt>
      <trkpt lat="45.19098" lon="1.24186">
        <ele>235.14280700684</ele>
        <time>2019-03-30T21:34:53.144Z</time>
      </trkpt>
      <trkpt lat="45.19115" lon="1.24106">
        <ele>246.69679260254</ele>
        <time>2019-03-30T21:35:19.947Z</time>
      </trkpt>
      <trkpt lat="45.19123" lon="1.24095">
        <ele>247.52062988281</ele>
        <time>2019-03-30T21:35:46.752Z</time>
      </trkpt>
      <trkpt lat="45.19166" lon="1.24076">
        <ele>251.49143981934</ele>
        <time>2019-03-30T21:36:13.564Z</time>
      </trkpt>
      <trkpt lat="45.19179" lon="1.24042">
        <ele>254.70405578613</ele>
        <time>2019-03-30T21:36:40.381Z</time>
      </trkpt>
      <trkpt lat="45.19186" lon="1.23994">
        <ele>257.57479858398</ele>
        <time>2019-03-30T21:37:07.203Z</time>
      </trkpt>
      <trkpt lat="45.19197" lon="1.23971">
        <ele>258.62982177734</ele>
        <time>2019-03-30T21:37:34.028Z</time>
      </trkpt>
      <trkpt lat="45.19248" lon="1.23906">
        <ele>262.1513671875</ele>
        <time>2019-03-30T21:38:00.864Z</time>
      </trkpt>
      <trkpt lat="45.19341" lon="1.23825">
        <ele>259.65869140625</ele>
        <time>2019-03-30T21:38:27.718Z</time>
      </trkpt>
      <trkpt lat="45.19465" lon="1.23632">
        <ele>266.57025146484</ele>
        <time>2019-03-30T21:38:54.601Z</time>
      </trkpt>
      <trkpt lat="45.19472" lon="1.23612">
        <ele>267.34259033203</ele>
        <time>2019-03-30T21:39:21.487Z</time>
      </trkpt>
      <trkpt lat="45.19471" lon="1.23583">
        <ele>269.48495483398</ele>
        <time>2019-03-30T21:39:48.376Z</time>
      </trkpt>
      <trkpt lat="45.19462" lon="1.23548">
        <ele>272.82510375977</ele>
        <time>2019-03-30T21:40:15.269Z</time>
      </trkpt>
      <trkpt lat="45.19465" lon="1.23501">
        <ele>275.69323730469</ele>
        <time>2019-03-30T21:40:42.168Z</time>
      </trkpt>
      <trkpt lat="45.19519" lon="1.23441">
        <ele>277.65545654297</ele>
        <time>2019-03-30T21:41:09.078Z</time>
      </trkpt>
      <trkpt lat="45.19529" lon="1.23431">
        <ele>278.92913818359</ele>
        <time>2019-03-30T21:41:35.990Z</time>
      </trkpt>
      <trkpt lat="45.19529" lon="1.23431">
        <ele>278.92984008789</ele>
        <time>2019-03-30T21:42:02.902Z</time>
      </trkpt>
      <trkpt lat="45.19626" lon="1.23325">
        <ele>280.59420776367</ele>
        <time>2019-03-30T21:42:29.834Z</time>
      </trkpt>
      <trkpt lat="45.19627" lon="1.23325">
        <ele>280.62396240234</ele>
        <time>2019-03-30T21:42:56.766Z</time>
      </trkpt>
      <trkpt lat="45.19627" lon="1.23324">
        <ele>280.68322753906</ele>
        <time>2019-03-30T21:43:23.698Z</time>
      </trkpt>
      <trkpt lat="45.19627" lon="1.23324">
        <ele>280.68475341797</ele>
        <time>2019-03-30T21:43:50.630Z</time>
      </trkpt>
      <trkpt lat="45.19641" lon="1.23309">
        <ele>281.4328918457</ele>
        <time>2019-03-30T21:44:17.565Z</time>
      </trkpt>
      <trkpt lat="45.19705" lon="1.23292">
        <ele>273.92471313477</ele>
        <time>2019-03-30T21:44:44.510Z</time>
      </trkpt>
      <trkpt lat="45.19748" lon="1.2324">
        <ele>277.76351928711</ele>
        <time>2019-03-30T21:45:11.464Z</time>
      </trkpt>
      <trkpt lat="45.1981" lon="1.23206">
        <ele>278.24285888672</ele>
        <time>2019-03-30T21:45:38.429Z</time>
      </trkpt>
      <trkpt lat="45.19848" lon="1.23175">
        <ele>280.14373779297</ele>
        <time>2019-03-30T21:46:05.401Z</time>
      </trkpt>
      <trkpt lat="45.19926" lon="1.22992">
        <ele>277.85366821289</ele>
        <time>2019-03-30T21:46:32.397Z</time>
      </trkpt>
      <trkpt lat="45.19955" lon="1.22957">
        <ele>277.62805175781</ele>
        <time>2019-03-30T21:46:59.399Z</time>
      </trkpt>
      <trkpt lat="45.19967" lon="1.22951">
        <ele>276.42678833008</ele>
        <time>2019-03-30T21:47:26.403Z</time>
      </trkpt>
      <trkpt lat="45.19991" lon="1.22958">
        <ele>273.16360473633</ele>
        <time>2019-03-30T21:47:53.411Z</time>
      </trkpt>
      <trkpt lat="45.20046" lon="1.23069">
        <ele>268.41290283203</ele>
        <time>2019-03-30T21:48:20.434Z</time>
      </trkpt>
      <trkpt lat="45.20092" lon="1.23076">
        <ele>267.75952148438</ele>
        <time>2019-03-30T21:48:47.465Z</time>
      </trkpt>
      <trkpt lat="45.20128" lon="1.23058">
        <ele>269.97290039062</ele>
        <time>2019-03-30T21:49:14.502Z</time>
      </trkpt>
      <trkpt lat="45.20144" lon="1.23039">
        <ele>270</ele>
        <time>2019-03-30T21:49:41.542Z</time>
      </trkpt>
      <trkpt lat="45.20153" lon="1.23022">
        <ele>270</ele>
        <time>2019-03-30T21:50:08.584Z</time>
      </trkpt>
      <trkpt lat="45.20163" lon="1.22949">
        <ele>271.79650878906</ele>
        <time>2019-03-30T21:50:35.635Z</time>
      </trkpt>
      <trkpt lat="45.20224" lon="1.22862">
        <ele>276.17706298828</ele>
        <time>2019-03-30T21:51:02.700Z</time>
      </trkpt>
      <trkpt lat="45.20235" lon="1.22821">
        <ele>275.88092041016</ele>
        <time>2019-03-30T21:51:29.770Z</time>
      </trkpt>
      <trkpt lat="45.20238" lon="1.22778">
        <ele>274.00518798828</ele>
        <time>2019-03-30T21:51:56.845Z</time>
      </trkpt>
      <trkpt lat="45.20244" lon="1.22765">
        <ele>273.52893066406</ele>
        <time>2019-03-30T21:52:23.921Z</time>
      </trkpt>
      <trkpt lat="45.20257" lon="1.22759">
        <ele>273.02737426758</ele>
        <time>2019-03-30T21:52:50.999Z</time>
      </trkpt>
      <trkpt lat="45.20388" lon="1.22728">
        <ele>269.89224243164</ele>
        <time>2019-03-30T21:53:18.099Z</time>
      </trkpt>
      <trkpt lat="45.20416" lon="1.22708">
        <ele>264.50512695312</ele>
        <time>2019-03-30T21:53:45.204Z</time>
      </trkpt>
      <trkpt lat="45.20433" lon="1.22671">
        <ele>261.99349975586</ele>
        <time>2019-03-30T21:54:12.314Z</time>
      </trkpt>
      <trkpt lat="45.20457" lon="1.2255">
        <ele>255.60861206055</ele>
        <time>2019-03-30T21:54:39.438Z</time>
      </trkpt>
      <trkpt lat="45.20473" lon="1.22516">
        <ele>251.69081115723</ele>
        <time>2019-03-30T21:55:06.567Z</time>
      </trkpt>
      <trkpt lat="45.20497" lon="1.22512">
        <ele>247.03741455078</ele>
        <time>2019-03-30T21:55:33.699Z</time>
      </trkpt>
      <trkpt lat="45.20515" lon="1.22522">
        <ele>244.62382507324</ele>
        <time>2019-03-30T21:56:00.835Z</time>
      </trkpt>
      <trkpt lat="45.20563" lon="1.22586">
        <ele>241.28424072266</ele>
        <time>2019-03-30T21:56:27.981Z</time>
      </trkpt>
      <trkpt lat="45.20571" lon="1.22587">
        <ele>240.7338104248</ele>
        <time>2019-03-30T21:56:55.128Z</time>
      </trkpt>
      <trkpt lat="45.20586" lon="1.22574">
        <ele>238.99029541016</ele>
        <time>2019-03-30T21:57:22.278Z</time>
      </trkpt>
      <trkpt lat="45.20614" lon="1.22522">
        <ele>235.78753662109</ele>
        <time>2019-03-30T21:57:49.436Z</time>
      </trkpt>
      <trkpt lat="45.20627" lon="1.22454">
        <ele>237.71853637695</ele>
        <time>2019-03-30T21:58:16.602Z</time>
      </trkpt>
      <trkpt lat="45.20625" lon="1.223">
        <ele>238.28874206543</ele>
        <time>2019-03-30T21:58:43.785Z</time>
      </trkpt>
      <trkpt lat="45.20634" lon="1.22254">
        <ele>237.86543273926</ele>
        <time>2019-03-30T21:59:10.973Z</time>
      </trkpt>
      <trkpt lat="45.20616" lon="1.22029">
        <ele>221.8558807373</ele>
        <time>2019-03-30T21:59:38.187Z</time>
      </trkpt>
      <trkpt lat="45.20625" lon="1.21976">
        <ele>215.4891204834</ele>
        <time>2019-03-30T22:00:05.407Z</time>
      </trkpt>
      <trkpt lat="45.20638" lon="1.2196">
        <ele>211.83502197266</ele>
        <time>2019-03-30T22:00:32.630Z</time>
      </trkpt>
      <trkpt lat="45.20679" lon="1.21949">
        <ele>203.77043151855</ele>
        <time>2019-03-30T22:00:59.860Z</time>
      </trkpt>
      <trkpt lat="45.20721" lon="1.21903">
        <ele>204.28091430664</ele>
        <time>2019-03-30T22:01:27.098Z</time>
      </trkpt>
      <trkpt lat="45.20756" lon="1.21881">
        <ele>205.73678588867</ele>
        <time>2019-03-30T22:01:54.342Z</time>
      </trkpt>
      <trkpt lat="45.20756" lon="1.21881">
        <ele>205.73742675781</ele>
        <time>2019-03-30T22:02:21.586Z</time>
      </trkpt>
      <trkpt lat="45.20756" lon="1.21881">
        <ele>205.7484588623</ele>
        <time>2019-03-30T22:02:48.830Z</time>
      </trkpt>
      <trkpt lat="45.20757" lon="1.21881">
        <ele>205.77491760254</ele>
        <time>2019-03-30T22:03:16.074Z</time>
      </trkpt>
      <trkpt lat="45.20757" lon="1.21881">
        <ele>205.7751159668</ele>
        <time>2019-03-30T22:03:43.318Z</time>
      </trkpt>
      <trkpt lat="45.20762" lon="1.21877">
        <ele>206.15504455566</ele>
        <time>2019-03-30T22:04:10.563Z</time>
      </trkpt>
      <trkpt lat="45.20861" lon="1.21869">
        <ele>215.83062744141</ele>
        <time>2019-03-30T22:04:37.824Z</time>
      </trkpt>
      <trkpt lat="45.20893" lon="1.21856">
        <ele>219.5262298584</ele>
        <time>2019-03-30T22:05:05.091Z</time>
      </trkpt>
      <trkpt lat="45.20941" lon="1.21852">
        <ele>216.54884338379</ele>
        <time>2019-03-30T22:05:32.365Z</time>
      </trkpt>
      <trkpt lat="45.20975" lon="1.21834">
        <ele>217.71517944336</ele>
        <time>2019-03-30T22:05:59.645Z</time>
      </trkpt>
      <trkpt lat="45.20991" lon="1.21814">
        <ele>219.62091064453</ele>
        <time>2019-03-30T22:06:26.928Z</time>
      </trkpt>
      <trkpt lat="45.21009" lon="1.21774">
        <ele>224.37899780273</ele>
        <time>2019-03-30T22:06:54.217Z</time>
      </trkpt>
      <trkpt lat="45.21016" lon="1.21693">
        <ele>228.14646911621</ele>
        <time>2019-03-30T22:07:21.515Z</time>
      </trkpt>
      <trkpt lat="45.21011" lon="1.21595">
        <ele>235.34118652344</ele>
        <time>2019-03-30T22:07:48.824Z</time>
      </trkpt>
      <trkpt lat="45.21027" lon="1.2152">
        <ele>241.02572631836</ele>
        <time>2019-03-30T22:08:16.142Z</time>
      </trkpt>
      <trkpt lat="45.2104" lon="1.215">
        <ele>243.74182128906</ele>
        <time>2019-03-30T22:08:43.463Z</time>
      </trkpt>
      <trkpt lat="45.21054" lon="1.21497">
        <ele>244.52293395996</ele>
        <time>2019-03-30T22:09:10.786Z</time>
      </trkpt>
      <trkpt lat="45.21113" lon="1.21507">
        <ele>243.62107849121</ele>
        <time>2019-03-30T22:09:38.119Z</time>
      </trkpt>
      <trkpt lat="45.21168" lon="1.21448">
        <ele>253.58120727539</ele>
        <time>2019-03-30T22:10:05.463Z</time>
      </trkpt>
      <trkpt lat="45.21255" lon="1.21384">
        <ele>258.49603271484</ele>
        <time>2019-03-30T22:10:32.823Z</time>
      </trkpt>
      <trkpt lat="45.21255" lon="1.21384">
        <ele>258.49603271484</ele>
        <time>2019-03-30T22:11:00.183Z</time>
      </trkpt>
      <trkpt lat="45.21276" lon="1.2135">
        <ele>259.87393188477</ele>
        <time>2019-03-30T22:11:27.548Z</time>
      </trkpt>
      <trkpt lat="45.21288" lon="1.213">
        <ele>260.17892456055</ele>
        <time>2019-03-30T22:11:54.919Z</time>
      </trkpt>
      <trkpt lat="45.21288" lon="1.21281">
        <ele>261.92959594727</ele>
        <time>2019-03-30T22:12:22.292Z</time>
      </trkpt>
      <trkpt lat="45.21286" lon="1.21236">
        <ele>266.46823120117</ele>
        <time>2019-03-30T22:12:49.670Z</time>
      </trkpt>
      <trkpt lat="45.21256" lon="1.21172">
        <ele>275.72045898438</ele>
        <time>2019-03-30T22:13:17.057Z</time>
      </trkpt>
      <trkpt lat="45.21251" lon="1.21146">
        <ele>278.66180419922</ele>
        <time>2019-03-30T22:13:44.447Z</time>
      </trkpt>
      <trkpt lat="45.21254" lon="1.21109">
        <ele>281.4807434082</ele>
        <time>2019-03-30T22:14:11.841Z</time>
      </trkpt>
      <trkpt lat="45.21291" lon="1.21051">
        <ele>282.19808959961</ele>
        <time>2019-03-30T22:14:39.244Z</time>
      </trkpt>
      <trkpt lat="45.21308" lon="1.20988">
        <ele>287.04531860352</ele>
        <time>2019-03-30T22:15:06.654Z</time>
      </trkpt>
      <trkpt lat="45.2135" lon="1.20926">
        <ele>289.31311035156</ele>
        <time>2019-03-30T22:15:34.074Z</time>
      </trkpt>
      <trkpt lat="45.2138" lon="1.20919">
        <ele>291.533203125</ele>
        <time>2019-03-30T22:16:01.499Z</time>
      </trkpt>
      <trkpt lat="45.21481" lon="1.20961">
        <ele>291.75372314453</ele>
        <time>2019-03-30T22:16:28.941Z</time>
      </trkpt>
      <trkpt lat="45.21559" lon="1.20976">
        <ele>290.91714477539</ele>
        <time>2019-03-30T22:16:56.395Z</time>
      </trkpt>
      <trkpt lat="45.21559" lon="1.20976">
        <ele>290.91632080078</ele>
        <time>2019-03-30T22:17:23.849Z</time>
      </trkpt>
      <trkpt lat="45.21582" lon="1.20946">
        <ele>291.22607421875</ele>
        <time>2019-03-30T22:17:51.308Z</time>
      </trkpt>
      <trkpt lat="45.21613" lon="1.20807">
        <ele>294.85797119141</ele>
        <time>2019-03-30T22:18:18.784Z</time>
      </trkpt>
      <trkpt lat="45.21615" lon="1.20802">
        <ele>294.52334594727</ele>
        <time>2019-03-30T22:18:46.261Z</time>
      </trkpt>
      <trkpt lat="45.21615" lon="1.20802">
        <ele>294.50784301758</ele>
        <time>2019-03-30T22:19:13.738Z</time>
      </trkpt>
      <trkpt lat="45.21615" lon="1.20801">
        <ele>294.47229003906</ele>
        <time>2019-03-30T22:19:41.215Z</time>
      </trkpt>
      <trkpt lat="45.21615" lon="1.20801">
        <ele>294.4709777832</ele>
        <time>2019-03-30T22:20:08.692Z</time>
      </trkpt>
      <trkpt lat="45.21626" lon="1.20778">
        <ele>294.81988525391</ele>
        <time>2019-03-30T22:20:36.172Z</time>
      </trkpt>
      <trkpt lat="45.21675" lon="1.20704">
        <ele>295.96768188477</ele>
        <time>2019-03-30T22:21:03.663Z</time>
      </trkpt>
      <trkpt lat="45.21675" lon="1.20704">
        <ele>295.96716308594</ele>
        <time>2019-03-30T22:21:31.154Z</time>
      </trkpt>
      <trkpt lat="45.21698" lon="1.20654">
        <ele>298.96743774414</ele>
        <time>2019-03-30T22:21:58.652Z</time>
      </trkpt>
      <trkpt lat="45.21714" lon="1.2064">
        <ele>299.37850952148</ele>
        <time>2019-03-30T22:22:26.153Z</time>
      </trkpt>
      <trkpt lat="45.21816" lon="1.2061">
        <ele>294.06039428711</ele>
        <time>2019-03-30T22:22:53.671Z</time>
      </trkpt>
      <trkpt lat="45.21923" lon="1.20512">
        <ele>302.40524291992</ele>
        <time>2019-03-30T22:23:21.209Z</time>
      </trkpt>
      <trkpt lat="45.2195" lon="1.20503">
        <ele>302.81716918945</ele>
        <time>2019-03-30T22:23:48.752Z</time>
      </trkpt>
      <trkpt lat="45.21974" lon="1.20505">
        <ele>303.41564941406</ele>
        <time>2019-03-30T22:24:16.298Z</time>
      </trkpt>
      <trkpt lat="45.22112" lon="1.2053">
        <ele>304.89413452148</ele>
        <time>2019-03-30T22:24:43.867Z</time>
      </trkpt>
      <trkpt lat="45.22112" lon="1.2053">
        <ele>304.89395141602</ele>
        <time>2019-03-30T22:25:11.436Z</time>
      </trkpt>
      <trkpt lat="45.22157" lon="1.20534">
        <ele>304.67602539062</ele>
        <time>2019-03-30T22:25:39.012Z</time>
      </trkpt>
      <trkpt lat="45.22203" lon="1.20526">
        <ele>305.55422973633</ele>
        <time>2019-03-30T22:26:06.595Z</time>
      </trkpt>
      <trkpt lat="45.22257" lon="1.20499">
        <ele>306.93338012695</ele>
        <time>2019-03-30T22:26:34.187Z</time>
      </trkpt>
      <trkpt lat="45.22398" lon="1.20378">
        <ele>312.17651367188</ele>
        <time>2019-03-30T22:27:01.806Z</time>
      </trkpt>
      <trkpt lat="45.22398" lon="1.20378">
        <ele>312.17642211914</ele>
        <time>2019-03-30T22:27:29.425Z</time>
      </trkpt>
      <trkpt lat="45.22438" lon="1.20357">
        <ele>312.55960083008</ele>
        <time>2019-03-30T22:27:57.051Z</time>
      </trkpt>
      <trkpt lat="45.2255" lon="1.20343">
        <ele>313.70816040039</ele>
        <time>2019-03-30T22:28:24.695Z</time>
      </trkpt>
      <trkpt lat="45.22623" lon="1.20318">
        <ele>315.45315551758</ele>
        <time>2019-03-30T22:28:52.351Z</time>
      </trkpt>
      <trkpt lat="45.22663" lon="1.20291">
        <ele>319.79748535156</ele>
        <time>2019-03-30T22:29:20.014Z</time>
      </trkpt>
      <trkpt lat="45.22695" lon="1.20253">
        <ele>326.16879272461</ele>
        <time>2019-03-30T22:29:47.683Z</time>
      </trkpt>
      <trkpt lat="45.22719" lon="1.20258">
        <ele>329.78973388672</ele>
        <time>2019-03-30T22:30:15.356Z</time>
      </trkpt>
      <trkpt lat="45.22734" lon="1.20307">
        <ele>328.12274169922</ele>
        <time>2019-03-30T22:30:43.035Z</time>
      </trkpt>
      <trkpt lat="45.22768" lon="1.20352">
        <ele>321.89306640625</ele>
        <time>2019-03-30T22:31:10.722Z</time>
      </trkpt>
      <trkpt lat="45.2289" lon="1.20418">
        <ele>323.49948120117</ele>
        <time>2019-03-30T22:31:38.430Z</time>
      </trkpt>
      <trkpt lat="45.22976" lon="1.20506">
        <ele>327.87622070312</ele>
        <time>2019-03-30T22:32:06.155Z</time>
      </trkpt>
      <trkpt lat="45.23001" lon="1.20543">
        <ele>327.72817993164</ele>
        <time>2019-03-30T22:32:33.886Z</time>
      </trkpt>
      <trkpt lat="45.23017" lon="1.20591">
        <ele>327.13711547852</ele>
        <time>2019-03-30T22:33:01.622Z</time>
      </trkpt>
      <trkpt lat="45.23026" lon="1.20644">
        <ele>326.45343017578</ele>
        <time>2019-03-30T22:33:29.365Z</time>
      </trkpt>
      <trkpt lat="45.23028" lon="1.20814">
        <ele>323.41589355469</ele>
        <time>2019-03-30T22:33:57.127Z</time>
      </trkpt>
      <trkpt lat="45.23017" lon="1.20939">
        <ele>322.38595581055</ele>
        <time>2019-03-30T22:34:24.903Z</time>
      </trkpt>
      <trkpt lat="45.23017" lon="1.20939">
        <ele>322.38778686523</ele>
        <time>2019-03-30T22:34:52.679Z</time>
      </trkpt>
      <trkpt lat="45.23017" lon="1.20981">
        <ele>322.74176025391</ele>
        <time>2019-03-30T22:35:20.460Z</time>
      </trkpt>
      <trkpt lat="45.23033" lon="1.21094">
        <ele>324.3349609375</ele>
        <time>2019-03-30T22:35:48.254Z</time>
      </trkpt>
      <trkpt lat="45.23041" lon="1.21201">
        <ele>319.04040527344</ele>
        <time>2019-03-30T22:36:16.060Z</time>
      </trkpt>
      <trkpt lat="45.23042" lon="1.21208">
        <ele>318.73568725586</ele>
        <time>2019-03-30T22:36:43.867Z</time>
      </trkpt>
      <trkpt lat="45.23042" lon="1.21208">
        <ele>318.73791503906</ele>
        <time>2019-03-30T22:37:11.674Z</time>
      </trkpt>
      <trkpt lat="45.23045" lon="1.2123">
        <ele>317.63174438477</ele>
        <time>2019-03-30T22:37:39.483Z</time>
      </trkpt>
      <trkpt lat="45.23063" lon="1.2127">
        <ele>313.3903503418</ele>
        <time>2019-03-30T22:38:07.298Z</time>
      </trkpt>
      <trkpt lat="45.23136" lon="1.21336">
        <ele>313.75820922852</ele>
        <time>2019-03-30T22:38:35.127Z</time>
      </trkpt>
      <trkpt lat="45.2321" lon="1.2145">
        <ele>305.79638671875</ele>
        <time>2019-03-30T22:39:02.973Z</time>
      </trkpt>
      <trkpt lat="45.2321" lon="1.2145">
        <ele>305.78317260742</ele>
        <time>2019-03-30T22:39:30.819Z</time>
      </trkpt>
      <trkpt lat="45.23211" lon="1.21451">
        <ele>305.75845336914</ele>
        <time>2019-03-30T22:39:58.665Z</time>
      </trkpt>
      <trkpt lat="45.23211" lon="1.21451">
        <ele>305.75692749023</ele>
        <time>2019-03-30T22:40:26.511Z</time>
      </trkpt>
      <trkpt lat="45.23216" lon="1.21459">
        <ele>304.5705871582</ele>
        <time>2019-03-30T22:40:54.359Z</time>
      </trkpt>
      <trkpt lat="45.23267" lon="1.21577">
        <ele>295.95962524414</ele>
        <time>2019-03-30T22:41:22.222Z</time>
      </trkpt>
      <trkpt lat="45.23282" lon="1.21629">
        <ele>293.63613891602</ele>
        <time>2019-03-30T22:41:50.092Z</time>
      </trkpt>
      <trkpt lat="45.23294" lon="1.2172">
        <ele>289.44775390625</ele>
        <time>2019-03-30T22:42:17.972Z</time>
      </trkpt>
      <trkpt lat="45.23299" lon="1.21755">
        <ele>288.24545288086</ele>
        <time>2019-03-30T22:42:45.856Z</time>
      </trkpt>
      <trkpt lat="45.23307" lon="1.21815">
        <ele>286.51498413086</ele>
        <time>2019-03-30T22:43:13.747Z</time>
      </trkpt>
      <trkpt lat="45.23307" lon="1.21815">
        <ele>286.51397705078</ele>
        <time>2019-03-30T22:43:41.638Z</time>
      </trkpt>
      <trkpt lat="45.23307" lon="1.21818">
        <ele>286.44961547852</ele>
        <time>2019-03-30T22:44:09.529Z</time>
      </trkpt>
      <trkpt lat="45.2333" lon="1.21958">
        <ele>286.70391845703</ele>
        <time>2019-03-30T22:44:37.437Z</time>
      </trkpt>
      <trkpt lat="45.23342" lon="1.21987">
        <ele>285.52920532227</ele>
        <time>2019-03-30T22:45:05.349Z</time>
      </trkpt>
      <trkpt lat="45.2336" lon="1.22016">
        <ele>285.19451904297</ele>
        <time>2019-03-30T22:45:33.265Z</time>
      </trkpt>
      <trkpt lat="45.2349" lon="1.22161">
        <ele>288.77404785156</ele>
        <time>2019-03-30T22:46:01.207Z</time>
      </trkpt>
      <trkpt lat="45.23532" lon="1.22195">
        <ele>287.02200317383</ele>
        <time>2019-03-30T22:46:29.157Z</time>
      </trkpt>
      <trkpt lat="45.23588" lon="1.22246">
        <ele>283.44268798828</ele>
        <time>2019-03-30T22:46:57.118Z</time>
      </trkpt>
      <trkpt lat="45.23646" lon="1.22347">
        <ele>281.3069152832</ele>
        <time>2019-03-30T22:47:25.093Z</time>
      </trkpt>
      <trkpt lat="45.23683" lon="1.22417">
        <ele>277.29898071289</ele>
        <time>2019-03-30T22:47:53.078Z</time>
      </trkpt>
      <trkpt lat="45.23693" lon="1.22452">
        <ele>275.02700805664</ele>
        <time>2019-03-30T22:48:21.068Z</time>
      </trkpt>
      <trkpt lat="45.23698" lon="1.22499">
        <ele>273.85482788086</ele>
        <time>2019-03-30T22:48:49.063Z</time>
      </trkpt>
      <trkpt lat="45.23697" lon="1.22706">
        <ele>279.05963134766</ele>
        <time>2019-03-30T22:49:17.081Z</time>
      </trkpt>
      <trkpt lat="45.23712" lon="1.22841">
        <ele>273.83227539062</ele>
        <time>2019-03-30T22:49:45.115Z</time>
      </trkpt>
      <trkpt lat="45.23704" lon="1.22899">
        <ele>274.96932983398</ele>
        <time>2019-03-30T22:50:13.156Z</time>
      </trkpt>
      <trkpt lat="45.23651" lon="1.23005">
        <ele>270.33801269531</ele>
        <time>2019-03-30T22:50:41.211Z</time>
      </trkpt>
      <trkpt lat="45.23578" lon="1.23213">
        <ele>270.12225341797</ele>
        <time>2019-03-30T22:51:09.292Z</time>
      </trkpt>
      <trkpt lat="45.23578" lon="1.23261">
        <ele>270.69155883789</ele>
        <time>2019-03-30T22:51:37.379Z</time>
      </trkpt>
      <trkpt lat="45.23612" lon="1.23632">
        <ele>259.76159667969</ele>
        <time>2019-03-30T22:52:05.508Z</time>
      </trkpt>
      <trkpt lat="45.23625" lon="1.23794">
        <ele>262.36764526367</ele>
        <time>2019-03-30T22:52:33.656Z</time>
      </trkpt>
      <trkpt lat="45.23631" lon="1.23824">
        <ele>264.5495300293</ele>
        <time>2019-03-30T22:53:01.807Z</time>
      </trkpt>
      <trkpt lat="45.23651" lon="1.23855">
        <ele>267.04034423828</ele>
        <time>2019-03-30T22:53:29.963Z</time>
      </trkpt>
      <trkpt lat="45.23684" lon="1.23889">
        <ele>268.30184936523</ele>
        <time>2019-03-30T22:53:58.125Z</time>
      </trkpt>
      <trkpt lat="45.23743" lon="1.23917">
        <ele>267.64633178711</ele>
        <time>2019-03-30T22:54:26.297Z</time>
      </trkpt>
      <trkpt lat="45.23767" lon="1.23916">
        <ele>267.89733886719</ele>
        <time>2019-03-30T22:54:54.473Z</time>
      </trkpt>
      <trkpt lat="45.23834" lon="1.23883">
        <ele>261.29632568359</ele>
        <time>2019-03-30T22:55:22.661Z</time>
      </trkpt>
      <trkpt lat="45.23856" lon="1.23885">
        <ele>258.94711303711</ele>
        <time>2019-03-30T22:55:50.852Z</time>
      </trkpt>
      <trkpt lat="45.23891" lon="1.23932">
        <ele>258.14367675781</ele>
        <time>2019-03-30T22:56:19.051Z</time>
      </trkpt>
      <trkpt lat="45.23909" lon="1.24083">
        <ele>261.71881103516</ele>
        <time>2019-03-30T22:56:47.267Z</time>
      </trkpt>
      <trkpt lat="45.23916" lon="1.24107">
        <ele>261.41683959961</ele>
        <time>2019-03-30T22:57:15.486Z</time>
      </trkpt>
      <trkpt lat="45.2396" lon="1.2416">
        <ele>258.20114135742</ele>
        <time>2019-03-30T22:57:43.714Z</time>
      </trkpt>
      <trkpt lat="45.2396" lon="1.2416">
        <ele>258.20101928711</ele>
        <time>2019-03-30T22:58:11.942Z</time>
      </trkpt>
      <trkpt lat="45.24091" lon="1.24253">
        <ele>268.30822753906</ele>
        <time>2019-03-30T22:58:40.194Z</time>
      </trkpt>
      <trkpt lat="45.24091" lon="1.24253">
        <ele>268.30908203125</ele>
        <time>2019-03-30T22:59:08.446Z</time>
      </trkpt>
      <trkpt lat="45.24091" lon="1.24253">
        <ele>268.31701660156</ele>
        <time>2019-03-30T22:59:36.698Z</time>
      </trkpt>
      <trkpt lat="45.24091" lon="1.24254">
        <ele>268.33978271484</ele>
        <time>2019-03-30T23:00:04.950Z</time>
      </trkpt>
      <trkpt lat="45.24091" lon="1.24254">
        <ele>268.33990478516</ele>
        <time>2019-03-30T23:00:33.202Z</time>
      </trkpt>
      <trkpt lat="45.24095" lon="1.24256">
        <ele>268.51043701172</ele>
        <time>2019-03-30T23:01:01.454Z</time>
      </trkpt>
      <trkpt lat="45.24157" lon="1.24277">
        <ele>271.00894165039</ele>
        <time>2019-03-30T23:01:29.717Z</time>
      </trkpt>
      <trkpt lat="45.24205" lon="1.24319">
        <ele>265.49685668945</ele>
        <time>2019-03-30T23:01:57.989Z</time>
      </trkpt>
      <trkpt lat="45.24216" lon="1.24323">
        <ele>265.32534790039</ele>
        <time>2019-03-30T23:02:26.263Z</time>
      </trkpt>
      <trkpt lat="45.2424" lon="1.24311">
        <ele>267.8557434082</ele>
        <time>2019-03-30T23:02:54.541Z</time>
      </trkpt>
      <trkpt lat="45.24302" lon="1.24269">
        <ele>271.49768066406</ele>
        <time>2019-03-30T23:03:22.830Z</time>
      </trkpt>
      <trkpt lat="45.24333" lon="1.24261">
        <ele>271.18838500977</ele>
        <time>2019-03-30T23:03:51.124Z</time>
      </trkpt>
      <trkpt lat="45.24363" lon="1.24274">
        <ele>268.66537475586</ele>
        <time>2019-03-30T23:04:19.423Z</time>
      </trkpt>
      <trkpt lat="45.24364" lon="1.24247">
        <ele>267.86727905273</ele>
        <time>2019-03-30T23:04:47.725Z</time>
      </trkpt>
      <trkpt lat="45.24344" lon="1.24146">
        <ele>269.45254516602</ele>
        <time>2019-03-30T23:05:16.038Z</time>
      </trkpt>
      <trkpt lat="45.24336" lon="1.23973">
        <ele>287.23348999023</ele>
        <time>2019-03-30T23:05:44.371Z</time>
      </trkpt>
      <trkpt lat="45.24342" lon="1.23945">
        <ele>287.59393310547</ele>
        <time>2019-03-30T23:06:12.707Z</time>
      </trkpt>
      <trkpt lat="45.24366" lon="1.23905">
        <ele>289.62139892578</ele>
        <time>2019-03-30T23:06:41.049Z</time>
      </trkpt>
      <trkpt lat="45.2442" lon="1.23874">
        <ele>291.36877441406</ele>
        <time>2019-03-30T23:07:09.401Z</time>
      </trkpt>
      <trkpt lat="45.24461" lon="1.2384">
        <ele>289.81970214844</ele>
        <time>2019-03-30T23:07:37.760Z</time>
      </trkpt>
      <trkpt lat="45.24555" lon="1.23679">
        <ele>281.76663208008</ele>
        <time>2019-03-30T23:08:06.143Z</time>
      </trkpt>
      <trkpt lat="45.24584" lon="1.23632">
        <ele>282.65243530273</ele>
        <time>2019-03-30T23:08:34.533Z</time>
      </trkpt>
      <trkpt lat="45.24639" lon="1.23527">
        <ele>280.21655273438</ele>
        <time>2019-03-30T23:09:02.938Z</time>
      </trkpt>
      <trkpt lat="45.24659" lon="1.23454">
        <ele>275.20843505859</ele>
        <time>2019-03-30T23:09:31.352Z</time>
      </trkpt>
      <trkpt lat="45.24673" lon="1.2338">
        <ele>272.51931762695</ele>
        <time>2019-03-30T23:09:59.774Z</time>
      </trkpt>
      <trkpt lat="45.24673" lon="1.2338">
        <ele>272.51181030273</ele>
        <time>2019-03-30T23:10:28.196Z</time>
      </trkpt>
      <trkpt lat="45.24673" lon="1.23379">
        <ele>272.49740600586</ele>
        <time>2019-03-30T23:10:56.618Z</time>
      </trkpt>
      <trkpt lat="45.24673" lon="1.23379">
        <ele>272.49649047852</ele>
        <time>2019-03-30T23:11:25.040Z</time>
      </trkpt>
      <trkpt lat="45.24694" lon="1.23264">
        <ele>267.17059326172</ele>
        <time>2019-03-30T23:11:53.476Z</time>
      </trkpt>
      <trkpt lat="45.24762" lon="1.23081">
        <ele>261.44747924805</ele>
        <time>2019-03-30T23:12:21.935Z</time>
      </trkpt>
      <trkpt lat="45.24779" lon="1.23052">
        <ele>263.37731933594</ele>
        <time>2019-03-30T23:12:50.398Z</time>
      </trkpt>
      <trkpt lat="45.24779" lon="1.23052">
        <ele>263.37731933594</ele>
        <time>2019-03-30T23:13:18.861Z</time>
      </trkpt>
      <trkpt lat="45.24893" lon="1.2288">
        <ele>274.48037719727</ele>
        <time>2019-03-30T23:13:47.351Z</time>
      </trkpt>
      <trkpt lat="45.24941" lon="1.22836">
        <ele>279.43914794922</ele>
        <time>2019-03-30T23:14:15.850Z</time>
      </trkpt>
      <trkpt lat="45.25029" lon="1.22794">
        <ele>283.45758056641</ele>
        <time>2019-03-30T23:14:44.364Z</time>
      </trkpt>
      <trkpt lat="45.25185" lon="1.22713">
        <ele>281.11715698242</ele>
        <time>2019-03-30T23:15:12.905Z</time>
      </trkpt>
      <trkpt lat="45.25239" lon="1.22698">
        <ele>278.07833862305</ele>
        <time>2019-03-30T23:15:41.454Z</time>
      </trkpt>
      <trkpt lat="45.25295" lon="1.22668">
        <ele>275.94958496094</ele>
        <time>2019-03-30T23:16:10.013Z</time>
      </trkpt>
      <trkpt lat="45.25362" lon="1.22614">
        <ele>275.65637207031</ele>
        <time>2019-03-30T23:16:38.584Z</time>
      </trkpt>
      <trkpt lat="45.25408" lon="1.2256">
        <ele>285.97131347656</ele>
        <time>2019-03-30T23:17:07.165Z</time>
      </trkpt>
      <trkpt lat="45.2546" lon="1.22473">
        <ele>290.41159057617</ele>
        <time>2019-03-30T23:17:35.759Z</time>
      </trkpt>
      <trkpt lat="45.25542" lon="1.22367">
        <ele>292.82809448242</ele>
        <time>2019-03-30T23:18:04.371Z</time>
      </trkpt>
      <trkpt lat="45.25641" lon="1.22288">
        <ele>286.67370605469</ele>
        <time>2019-03-30T23:18:33.001Z</time>
      </trkpt>
      <trkpt lat="45.25698" lon="1.22227">
        <ele>281.82717895508</ele>
        <time>2019-03-30T23:19:01.642Z</time>
      </trkpt>
      <trkpt lat="45.25754" lon="1.2213">
        <ele>269.13916015625</ele>
        <time>2019-03-30T23:19:30.297Z</time>
      </trkpt>
      <trkpt lat="45.25767" lon="1.22098">
        <ele>266.79779052734</ele>
        <time>2019-03-30T23:19:58.957Z</time>
      </trkpt>
      <trkpt lat="45.25776" lon="1.22053">
        <ele>265.33615112305</ele>
        <time>2019-03-30T23:20:27.622Z</time>
      </trkpt>
      <trkpt lat="45.25769" lon="1.2191">
        <ele>265.08200073242</ele>
        <time>2019-03-30T23:20:56.303Z</time>
      </trkpt>
      <trkpt lat="45.25778" lon="1.21832">
        <ele>264.40515136719</ele>
        <time>2019-03-30T23:21:24.993Z</time>
      </trkpt>
      <trkpt lat="45.25778" lon="1.21832">
        <ele>264.40475463867</ele>
        <time>2019-03-30T23:21:53.683Z</time>
      </trkpt>
      <trkpt lat="45.25778" lon="1.2183">
        <ele>264.43048095703</ele>
        <time>2019-03-30T23:22:22.373Z</time>
      </trkpt>
      <trkpt lat="45.25807" lon="1.21734">
        <ele>259.15310668945</ele>
        <time>2019-03-30T23:22:51.075Z</time>
      </trkpt>
      <trkpt lat="45.25835" lon="1.21668">
        <ele>255.22354125977</ele>
        <time>2019-03-30T23:23:19.786Z</time>
      </trkpt>
      <trkpt lat="45.25835" lon="1.21667">
        <ele>255.22267150879</ele>
        <time>2019-03-30T23:23:48.497Z</time>
      </trkpt>
      <trkpt lat="45.25836" lon="1.21667">
        <ele>255.22076416016</ele>
        <time>2019-03-30T23:24:17.208Z</time>
      </trkpt>
      <trkpt lat="45.25836" lon="1.21667">
        <ele>255.2209777832</ele>
        <time>2019-03-30T23:24:45.919Z</time>
      </trkpt>
      <trkpt lat="45.25867" lon="1.21593">
        <ele>257.59350585938</ele>
        <time>2019-03-30T23:25:14.640Z</time>
      </trkpt>
      <trkpt lat="45.25877" lon="1.21577">
        <ele>260.03283691406</ele>
        <time>2019-03-30T23:25:43.363Z</time>
      </trkpt>
      <trkpt lat="45.25994" lon="1.21468">
        <ele>259.5647277832</ele>
        <time>2019-03-30T23:26:12.109Z</time>
      </trkpt>
      <trkpt lat="45.26061" lon="1.21403">
        <ele>257.51473999023</ele>
        <time>2019-03-30T23:26:40.868Z</time>
      </trkpt>
      <trkpt lat="45.26104" lon="1.21307">
        <ele>255.28492736816</ele>
        <time>2019-03-30T23:27:09.639Z</time>
      </trkpt>
      <trkpt lat="45.2616" lon="1.21275">
        <ele>251.91744995117</ele>
        <time>2019-03-30T23:27:38.420Z</time>
      </trkpt>
      <trkpt lat="45.26174" lon="1.21269">
        <ele>252.58857727051</ele>
        <time>2019-03-30T23:28:07.203Z</time>
      </trkpt>
      <trkpt lat="45.26174" lon="1.21269">
        <ele>252.58888244629</ele>
        <time>2019-03-30T23:28:35.986Z</time>
      </trkpt>
      <trkpt lat="45.2621" lon="1.21251">
        <ele>253.90156555176</ele>
        <time>2019-03-30T23:29:04.775Z</time>
      </trkpt>
      <trkpt lat="45.26246" lon="1.21222">
        <ele>254.17849731445</ele>
        <time>2019-03-30T23:29:33.571Z</time>
      </trkpt>
      <trkpt lat="45.26284" lon="1.21173">
        <ele>256.4533996582</ele>
        <time>2019-03-30T23:30:02.375Z</time>
      </trkpt>
      <trkpt lat="45.263" lon="1.2114">
        <ele>259.19329833984</ele>
        <time>2019-03-30T23:30:31.184Z</time>
      </trkpt>
      <trkpt lat="45.26303" lon="1.21102">
        <ele>261.40093994141</ele>
        <time>2019-03-30T23:30:59.997Z</time>
      </trkpt>
      <trkpt lat="45.26293" lon="1.21041">
        <ele>263.91467285156</ele>
        <time>2019-03-30T23:31:28.817Z</time>
      </trkpt>
      <trkpt lat="45.26294" lon="1.20989">
        <ele>265.35638427734</ele>
        <time>2019-03-30T23:31:57.643Z</time>
      </trkpt>
      <trkpt lat="45.26284" lon="1.20948">
        <ele>264.87164306641</ele>
        <time>2019-03-30T23:32:26.474Z</time>
      </trkpt>
      <trkpt lat="45.26286" lon="1.2084">
        <ele>264.68347167969</ele>
        <time>2019-03-30T23:32:55.317Z</time>
      </trkpt>
      <trkpt lat="45.26278" lon="1.20767">
        <ele>261.13467407227</ele>
        <time>2019-03-30T23:33:24.169Z</time>
      </trkpt>
      <trkpt lat="45.26293" lon="1.20714">
        <ele>262.31771850586</ele>
        <time>2019-03-30T23:33:53.027Z</time>
      </trkpt>
      <trkpt lat="45.26306" lon="1.20698">
        <ele>260.38864135742</ele>
        <time>2019-03-30T23:34:21.888Z</time>
      </trkpt>
      <trkpt lat="45.2631" lon="1.20697">
        <ele>260.07360839844</ele>
        <time>2019-03-30T23:34:50.749Z</time>
      </trkpt>
      <trkpt lat="45.2631" lon="1.20697">
        <ele>260.07342529297</ele>
        <time>2019-03-30T23:35:19.610Z</time>
      </trkpt>
      <trkpt lat="45.2631" lon="1.20697">
        <ele>260.07290649414</ele>
        <time>2019-03-30T23:35:48.471Z</time>
      </trkpt>
      <trkpt lat="45.2631" lon="1.20697">
        <ele>260.05661010742</ele>
        <time>2019-03-30T23:36:17.332Z</time>
      </trkpt>
      <trkpt lat="45.26311" lon="1.20696">
        <ele>260.01361083984</ele>
        <time>2019-03-30T23:36:46.194Z</time>
      </trkpt>
      <trkpt lat="45.26311" lon="1.20696">
        <ele>260.0124206543</ele>
        <time>2019-03-30T23:37:15.056Z</time>
      </trkpt>
      <trkpt lat="45.26336" lon="1.20686">
        <ele>257.99435424805</ele>
        <time>2019-03-30T23:37:43.922Z</time>
      </trkpt>
      <trkpt lat="45.2652" lon="1.20716">
        <ele>236.56967163086</ele>
        <time>2019-03-30T23:38:12.817Z</time>
      </trkpt>
      <trkpt lat="45.2656" lon="1.20708">
        <ele>236.5871887207</ele>
        <time>2019-03-30T23:38:41.719Z</time>
      </trkpt>
      <trkpt lat="45.26584" lon="1.20695">
        <ele>238.46656799316</ele>
        <time>2019-03-30T23:39:10.625Z</time>
      </trkpt>
      <trkpt lat="45.2663" lon="1.20656">
        <ele>242.60829162598</ele>
        <time>2019-03-30T23:39:39.540Z</time>
      </trkpt>
      <trkpt lat="45.26664" lon="1.20606">
        <ele>244.18041992188</ele>
        <time>2019-03-30T23:40:08.462Z</time>
      </trkpt>
      <trkpt lat="45.26674" lon="1.20579">
        <ele>245.34394836426</ele>
        <time>2019-03-30T23:40:37.388Z</time>
      </trkpt>
      <trkpt lat="45.26674" lon="1.20579">
        <ele>245.34457397461</ele>
        <time>2019-03-30T23:41:06.314Z</time>
      </trkpt>
      <trkpt lat="45.26674" lon="1.20579">
        <ele>245.35916137695</ele>
        <time>2019-03-30T23:41:35.240Z</time>
      </trkpt>
      <trkpt lat="45.26675" lon="1.20578">
        <ele>245.39489746094</ele>
        <time>2019-03-30T23:42:04.166Z</time>
      </trkpt>
      <trkpt lat="45.26675" lon="1.20578">
        <ele>245.39601135254</ele>
        <time>2019-03-30T23:42:33.092Z</time>
      </trkpt>
      <trkpt lat="45.26689" lon="1.20541">
        <ele>246.71083068848</ele>
        <time>2019-03-30T23:43:02.023Z</time>
      </trkpt>
      <trkpt lat="45.26702" lon="1.20458">
        <ele>242.13551330566</ele>
        <time>2019-03-30T23:43:30.963Z</time>
      </trkpt>
      <trkpt lat="45.26765" lon="1.20531">
        <ele>243.63891601562</ele>
        <time>2019-03-30T23:43:59.917Z</time>
      </trkpt>
      <trkpt lat="45.26845" lon="1.20655">
        <ele>244.02192687988</ele>
        <time>2019-03-30T23:44:28.889Z</time>
      </trkpt>
      <trkpt lat="45.26862" lon="1.20666">
        <ele>243.13372802734</ele>
        <time>2019-03-30T23:44:57.864Z</time>
      </trkpt>
      <trkpt lat="45.26862" lon="1.20666">
        <ele>243.13342285156</ele>
        <time>2019-03-30T23:45:26.839Z</time>
      </trkpt>
      <trkpt lat="45.27013" lon="1.20694">
        <ele>234.60221862793</ele>
        <time>2019-03-30T23:45:55.839Z</time>
      </trkpt>
      <trkpt lat="45.27175" lon="1.20685">
        <ele>229.10676574707</ele>
        <time>2019-03-30T23:46:24.865Z</time>
      </trkpt>
      <trkpt lat="45.27284" lon="1.20724">
        <ele>229.87084960938</ele>
        <time>2019-03-30T23:46:53.909Z</time>
      </trkpt>
      <trkpt lat="45.27284" lon="1.20724">
        <ele>229.87149047852</ele>
        <time>2019-03-30T23:47:22.953Z</time>
      </trkpt>
      <trkpt lat="45.27284" lon="1.20724">
        <ele>229.87312316895</ele>
        <time>2019-03-30T23:47:51.997Z</time>
      </trkpt>
      <trkpt lat="45.27284" lon="1.20724">
        <ele>229.88003540039</ele>
        <time>2019-03-30T23:48:21.041Z</time>
      </trkpt>
      <trkpt lat="45.27284" lon="1.20724">
        <ele>229.88043212891</ele>
        <time>2019-03-30T23:48:50.085Z</time>
      </trkpt>
      <trkpt lat="45.27294" lon="1.20727">
        <ele>229.99145507812</ele>
        <time>2019-03-30T23:49:19.130Z</time>
      </trkpt>
      <trkpt lat="45.27378" lon="1.20731">
        <ele>225.86253356934</ele>
        <time>2019-03-30T23:49:48.189Z</time>
      </trkpt>
      <trkpt lat="45.27467" lon="1.20746">
        <ele>226.07304382324</ele>
        <time>2019-03-30T23:50:17.262Z</time>
      </trkpt>
      <trkpt lat="45.27539" lon="1.20736">
        <ele>226.42720031738</ele>
        <time>2019-03-30T23:50:46.347Z</time>
      </trkpt>
      <trkpt lat="45.2764" lon="1.20687">
        <ele>219.26936340332</ele>
        <time>2019-03-30T23:51:15.449Z</time>
      </trkpt>
      <trkpt lat="45.2768" lon="1.2068">
        <ele>218.52403259277</ele>
        <time>2019-03-30T23:51:44.557Z</time>
      </trkpt>
      <trkpt lat="45.27714" lon="1.20687">
        <ele>216.41229248047</ele>
        <time>2019-03-30T23:52:13.671Z</time>
      </trkpt>
      <trkpt lat="45.27733" lon="1.20701">
        <ele>212.47492980957</ele>
        <time>2019-03-30T23:52:42.788Z</time>
      </trkpt>
      <trkpt lat="45.27733" lon="1.20701">
        <ele>212.4744720459</ele>
        <time>2019-03-30T23:53:11.905Z</time>
      </trkpt>
      <trkpt lat="45.27733" lon="1.20701">
        <ele>212.47332763672</ele>
        <time>2019-03-30T23:53:41.022Z</time>
      </trkpt>
      <trkpt lat="45.27734" lon="1.20701">
        <ele>212.43626403809</ele>
        <time>2019-03-30T23:54:10.139Z</time>
      </trkpt>
      <trkpt lat="45.27734" lon="1.20701">
        <ele>212.33453369141</ele>
        <time>2019-03-30T23:54:39.256Z</time>
      </trkpt>
      <trkpt lat="45.27734" lon="1.20701">
        <ele>212.33221435547</ele>
        <time>2019-03-30T23:55:08.373Z</time>
      </trkpt>
      <trkpt lat="45.27743" lon="1.20708">
        <ele>210.63899230957</ele>
        <time>2019-03-30T23:55:37.492Z</time>
      </trkpt>
      <trkpt lat="45.27772" lon="1.20716">
        <ele>205.63804626465</ele>
        <time>2019-03-30T23:56:06.616Z</time>
      </trkpt>
      <trkpt lat="45.27812" lon="1.20701">
        <ele>200.41857910156</ele>
        <time>2019-03-30T23:56:35.746Z</time>
      </trkpt>
      <trkpt lat="45.27859" lon="1.20655">
        <ele>199.08601379395</ele>
        <time>2019-03-30T23:57:04.886Z</time>
      </trkpt>
      <trkpt lat="45.27933" lon="1.20605">
        <ele>193.62203979492</ele>
        <time>2019-03-30T23:57:34.039Z</time>
      </trkpt>
      <trkpt lat="45.2794" lon="1.20593">
        <ele>194.5874786377</ele>
        <time>2019-03-30T23:58:03.193Z</time>
      </trkpt>
      <trkpt lat="45.27955" lon="1.20514">
        <ele>194.62127685547</ele>
        <time>2019-03-30T23:58:32.357Z</time>
      </trkpt>
      <trkpt lat="45.27968" lon="1.20504">
        <ele>193.4453125</ele>
        <time>2019-03-30T23:59:01.523Z</time>
      </trkpt>
      <trkpt lat="45.28005" lon="1.20499">
        <ele>190.28485107422</ele>
        <time>2019-03-30T23:59:30.695Z</time>
      </trkpt>
      <trkpt lat="45.28037" lon="1.20513">
        <ele>188.34111022949</ele>
        <time>2019-03-30T23:59:59.872Z</time>
      </trkpt>
      <trkpt lat="45.28056" lon="1.20513">
        <ele>187.09078979492</ele>
        <time>2019-03-31T00:00:29.052Z</time>
      </trkpt>
      <trkpt lat="45.28059" lon="1.20504">
        <ele>187.56707763672</ele>
        <time>2019-03-31T00:00:58.234Z</time>
      </trkpt>
      <trkpt lat="45.28062" lon="1.20493">
        <ele>188.05995178223</ele>
        <time>2019-03-31T00:01:27.417Z</time>
      </trkpt>
      <trkpt lat="45.28114" lon="1.20325">
        <ele>179.84196472168</ele>
        <time>2019-03-31T00:01:56.621Z</time>
      </trkpt>
      <trkpt lat="45.28154" lon="1.20345">
        <ele>177.1237487793</ele>
        <time>2019-03-31T00:02:25.831Z</time>
      </trkpt>
      <trkpt lat="45.28162" lon="1.20342">
        <ele>176.88812255859</ele>
        <time>2019-03-31T00:02:55.043Z</time>
      </trkpt>
      <trkpt lat="45.28215" lon="1.20248">
        <ele>176.14111328125</ele>
        <time>2019-03-31T00:03:24.268Z</time>
      </trkpt>
      <trkpt lat="45.282" lon="1.20222">
        <ele>177.66398620605</ele>
        <time>2019-03-31T00:03:53.497Z</time>
      </trkpt>
      <trkpt lat="45.28195" lon="1.202">
        <ele>178.81867980957</ele>
        <time>2019-03-31T00:04:22.729Z</time>
      </trkpt>
      <trkpt lat="45.28209" lon="1.20088">
        <ele>174.39390563965</ele>
        <time>2019-03-31T00:04:51.973Z</time>
      </trkpt>
      <trkpt lat="45.28344" lon="1.19769">
        <ele>181.16607666016</ele>
        <time>2019-03-31T00:05:21.259Z</time>
      </trkpt>
      <trkpt lat="45.28344" lon="1.19769">
        <ele>181.16580200195</ele>
        <time>2019-03-31T00:05:50.545Z</time>
      </trkpt>
      <trkpt lat="45.28344" lon="1.19769">
        <ele>181.15934753418</ele>
        <time>2019-03-31T00:06:19.831Z</time>
      </trkpt>
      <trkpt lat="45.28344" lon="1.19769">
        <ele>181.15449523926</ele>
        <time>2019-03-31T00:06:49.118Z</time>
      </trkpt>
      <trkpt lat="45.28344" lon="1.19769">
        <ele>181.1549987793</ele>
        <time>2019-03-31T00:07:18.405Z</time>
      </trkpt>
      <trkpt lat="45.28419" lon="1.19592">
        <ele>175.03845214844</ele>
        <time>2019-03-31T00:07:47.715Z</time>
      </trkpt>
      <trkpt lat="45.28453" lon="1.19534">
        <ele>175.9271697998</ele>
        <time>2019-03-31T00:08:17.033Z</time>
      </trkpt>
      <trkpt lat="45.28496" lon="1.19436">
        <ele>177.94357299805</ele>
        <time>2019-03-31T00:08:46.364Z</time>
      </trkpt>
      <trkpt lat="45.28531" lon="1.1948">
        <ele>174.70222473145</ele>
        <time>2019-03-31T00:09:15.703Z</time>
      </trkpt>
      <trkpt lat="45.2855" lon="1.19538">
        <ele>172.70536804199</ele>
        <time>2019-03-31T00:09:45.049Z</time>
      </trkpt>
      <trkpt lat="45.28568" lon="1.19572">
        <ele>172.76324462891</ele>
        <time>2019-03-31T00:10:14.400Z</time>
      </trkpt>
      <trkpt lat="45.2859" lon="1.19599">
        <ele>173.55490112305</ele>
        <time>2019-03-31T00:10:43.756Z</time>
      </trkpt>
      <trkpt lat="45.28613" lon="1.19619">
        <ele>174.3851776123</ele>
        <time>2019-03-31T00:11:13.116Z</time>
      </trkpt>
      <trkpt lat="45.28676" lon="1.19653">
        <ele>176.94645690918</ele>
        <time>2019-03-31T00:11:42.487Z</time>
      </trkpt>
      <trkpt lat="45.28684" lon="1.19659">
        <ele>177.42918395996</ele>
        <time>2019-03-31T00:12:11.859Z</time>
      </trkpt>
      <trkpt lat="45.28769" lon="1.19713">
        <ele>184.47274780273</ele>
        <time>2019-03-31T00:12:41.246Z</time>
      </trkpt>
      <trkpt lat="45.28858" lon="1.19816">
        <ele>196.1748046875</ele>
        <time>2019-03-31T00:13:10.651Z</time>
      </trkpt>
      <trkpt lat="45.28858" lon="1.19816">
        <ele>196.17532348633</ele>
        <time>2019-03-31T00:13:40.056Z</time>
      </trkpt>
      <trkpt lat="45.28858" lon="1.19816">
        <ele>196.18737792969</ele>
        <time>2019-03-31T00:14:09.461Z</time>
      </trkpt>
      <trkpt lat="45.28858" lon="1.19816">
        <ele>196.18717956543</ele>
        <time>2019-03-31T00:14:38.866Z</time>
      </trkpt>
      <trkpt lat="45.28943" lon="1.19913">
        <ele>203.43601989746</ele>
        <time>2019-03-31T00:15:08.289Z</time>
      </trkpt>
      <trkpt lat="45.29071" lon="1.1998">
        <ele>207.71591186523</ele>
        <time>2019-03-31T00:15:37.734Z</time>
      </trkpt>
      <trkpt lat="45.29142" lon="1.20031">
        <ele>207.77310180664</ele>
        <time>2019-03-31T00:16:07.192Z</time>
      </trkpt>
      <trkpt lat="45.2925" lon="1.20098">
        <ele>210.7345123291</ele>
        <time>2019-03-31T00:16:36.668Z</time>
      </trkpt>
      <trkpt lat="45.29311" lon="1.20096">
        <ele>212.75422668457</ele>
        <time>2019-03-31T00:17:06.154Z</time>
      </trkpt>
      <trkpt lat="45.29364" lon="1.20129">
        <ele>214.40966796875</ele>
        <time>2019-03-31T00:17:35.649Z</time>
      </trkpt>
      <trkpt lat="45.29412" lon="1.20137">
        <ele>214.33355712891</ele>
        <time>2019-03-31T00:18:05.152Z</time>
      </trkpt>
      <trkpt lat="45.29548" lon="1.20102">
        <ele>216.02935791016</ele>
        <time>2019-03-31T00:18:34.677Z</time>
      </trkpt>
      <trkpt lat="45.29548" lon="1.20102">
        <ele>216.0288848877</ele>
        <time>2019-03-31T00:19:04.202Z</time>
      </trkpt>
      <trkpt lat="45.29548" lon="1.20102">
        <ele>216.02729797363</ele>
        <time>2019-03-31T00:19:33.727Z</time>
      </trkpt>
      <trkpt lat="45.29548" lon="1.20102">
        <ele>216.02719116211</ele>
        <time>2019-03-31T00:20:03.252Z</time>
      </trkpt>
      <trkpt lat="45.29553" lon="1.201">
        <ele>215.99803161621</ele>
        <time>2019-03-31T00:20:32.778Z</time>
      </trkpt>
      <trkpt lat="45.29597" lon="1.20079">
        <ele>218.35830688477</ele>
        <time>2019-03-31T00:21:02.311Z</time>
      </trkpt>
      <trkpt lat="45.29653" lon="1.2007">
        <ele>222.24250793457</ele>
        <time>2019-03-31T00:21:31.854Z</time>
      </trkpt>
      <trkpt lat="45.29679" lon="1.2008">
        <ele>222.37767028809</ele>
        <time>2019-03-31T00:22:01.401Z</time>
      </trkpt>
      <trkpt lat="45.29679" lon="1.2008">
        <ele>222.37808227539</ele>
        <time>2019-03-31T00:22:30.948Z</time>
      </trkpt>
      <trkpt lat="45.29688" lon="1.20084">
        <ele>222.43600463867</ele>
        <time>2019-03-31T00:23:00.496Z</time>
      </trkpt>
      <trkpt lat="45.29743" lon="1.20091">
        <ele>224.22486877441</ele>
        <time>2019-03-31T00:23:30.053Z</time>
      </trkpt>
      <trkpt lat="45.29911" lon="1.20049">
        <ele>233.22964477539</ele>
        <time>2019-03-31T00:23:59.638Z</time>
      </trkpt>
      <trkpt lat="45.29945" lon="1.20049">
        <ele>234.87770080566</ele>
        <time>2019-03-31T00:24:29.228Z</time>
      </trkpt>
      <trkpt lat="45.29945" lon="1.20049">
        <ele>234.87857055664</ele>
        <time>2019-03-31T00:24:58.818Z</time>
      </trkpt>
      <trkpt lat="45.29945" lon="1.20049">
        <ele>234.89300537109</ele>
        <time>2019-03-31T00:25:28.408Z</time>
      </trkpt>
      <trkpt lat="45.29945" lon="1.20049">
        <ele>234.89340209961</ele>
        <time>2019-03-31T00:25:57.998Z</time>
      </trkpt>
      <trkpt lat="45.30003" lon="1.20048">
        <ele>238.4012298584</ele>
        <time>2019-03-31T00:26:27.597Z</time>
      </trkpt>
      <trkpt lat="45.30067" lon="1.20058">
        <ele>240.580078125</ele>
        <time>2019-03-31T00:26:57.207Z</time>
      </trkpt>
      <trkpt lat="45.30124" lon="1.20091">
        <ele>242.2045135498</ele>
        <time>2019-03-31T00:27:26.826Z</time>
      </trkpt>
      <trkpt lat="45.30124" lon="1.20091">
        <ele>242.20471191406</ele>
        <time>2019-03-31T00:27:56.445Z</time>
      </trkpt>
      <trkpt lat="45.30184" lon="1.20168">
        <ele>244.7647857666</ele>
        <time>2019-03-31T00:28:26.077Z</time>
      </trkpt>
      <trkpt lat="45.30241" lon="1.20296">
        <ele>243.41622924805</ele>
        <time>2019-03-31T00:28:55.726Z</time>
      </trkpt>
      <trkpt lat="45.30261" lon="1.20603">
        <ele>253.49784851074</ele>
        <time>2019-03-31T00:29:25.410Z</time>
      </trkpt>
      <trkpt lat="45.30279" lon="1.20636">
        <ele>254.35888671875</ele>
        <time>2019-03-31T00:29:55.099Z</time>
      </trkpt>
      <trkpt lat="45.30279" lon="1.20636">
        <ele>254.35908508301</ele>
        <time>2019-03-31T00:30:24.788Z</time>
      </trkpt>
      <trkpt lat="45.30279" lon="1.20636">
        <ele>254.36489868164</ele>
        <time>2019-03-31T00:30:54.477Z</time>
      </trkpt>
      <trkpt lat="45.30279" lon="1.20636">
        <ele>254.36520385742</ele>
        <time>2019-03-31T00:31:24.166Z</time>
      </trkpt>
      <trkpt lat="45.30294" lon="1.20663">
        <ele>254.68490600586</ele>
        <time>2019-03-31T00:31:53.859Z</time>
      </trkpt>
      <trkpt lat="45.30387" lon="1.20783">
        <ele>251.5694732666</ele>
        <time>2019-03-31T00:32:23.572Z</time>
      </trkpt>
      <trkpt lat="45.30404" lon="1.20815">
        <ele>250.68031311035</ele>
        <time>2019-03-31T00:32:53.290Z</time>
      </trkpt>
      <trkpt lat="45.30477" lon="1.21039">
        <ele>254.16659545898</ele>
        <time>2019-03-31T00:33:23.035Z</time>
      </trkpt>
      <trkpt lat="45.3051" lon="1.21094">
        <ele>251.05685424805</ele>
        <time>2019-03-31T00:33:52.789Z</time>
      </trkpt>
      <trkpt lat="45.3052" lon="1.21163">
        <ele>250.73422241211</ele>
        <time>2019-03-31T00:34:22.551Z</time>
      </trkpt>
      <trkpt lat="45.30536" lon="1.21191">
        <ele>250.39309692383</ele>
        <time>2019-03-31T00:34:52.317Z</time>
      </trkpt>
      <trkpt lat="45.30565" lon="1.21216">
        <ele>248.14274597168</ele>
        <time>2019-03-31T00:35:22.088Z</time>
      </trkpt>
      <trkpt lat="45.30617" lon="1.21224">
        <ele>242.3115234375</ele>
        <time>2019-03-31T00:35:51.867Z</time>
      </trkpt>
      <trkpt lat="45.30672" lon="1.21268">
        <ele>238.00752258301</ele>
        <time>2019-03-31T00:36:21.656Z</time>
      </trkpt>
      <trkpt lat="45.30819" lon="1.21306">
        <ele>230.0323638916</ele>
        <time>2019-03-31T00:36:51.469Z</time>
      </trkpt>
      <trkpt lat="45.30915" lon="1.21312">
        <ele>225.31451416016</ele>
        <time>2019-03-31T00:37:21.298Z</time>
      </trkpt>
      <trkpt lat="45.30915" lon="1.21312">
        <ele>225.31149291992</ele>
        <time>2019-03-31T00:37:51.127Z</time>
      </trkpt>
      <trkpt lat="45.30916" lon="1.21312">
        <ele>225.29696655273</ele>
        <time>2019-03-31T00:38:20.956Z</time>
      </trkpt>
      <trkpt lat="45.30916" lon="1.21312">
        <ele>225.29656982422</ele>
        <time>2019-03-31T00:38:50.785Z</time>
      </trkpt>
      <trkpt lat="45.31083" lon="1.21322">
        <ele>216.43399047852</ele>
        <time>2019-03-31T00:39:20.641Z</time>
      </trkpt>
      <trkpt lat="45.31121" lon="1.21308">
        <ele>216.88453674316</ele>
        <time>2019-03-31T00:39:50.503Z</time>
      </trkpt>
      <trkpt lat="45.3119" lon="1.21277">
        <ele>218.25044250488</ele>
        <time>2019-03-31T00:40:20.377Z</time>
      </trkpt>
      <trkpt lat="45.31231" lon="1.21273">
        <ele>219.87696838379</ele>
        <time>2019-03-31T00:40:50.257Z</time>
      </trkpt>
      <trkpt lat="45.31231" lon="1.21273">
        <ele>219.87767028809</ele>
        <time>2019-03-31T00:41:20.137Z</time>
      </trkpt>
      <trkpt lat="45.31255" lon="1.21288">
        <ele>221.36372375488</ele>
        <time>2019-03-31T00:41:50.021Z</time>
      </trkpt>
      <trkpt lat="45.31279" lon="1.21316">
        <ele>222.38708496094</ele>
        <time>2019-03-31T00:42:19.910Z</time>
      </trkpt>
      <trkpt lat="45.31293" lon="1.21361">
        <ele>221.89149475098</ele>
        <time>2019-03-31T00:42:49.805Z</time>
      </trkpt>
      <trkpt lat="45.31293" lon="1.21361">
        <ele>221.89221191406</ele>
        <time>2019-03-31T00:43:19.700Z</time>
      </trkpt>
      <trkpt lat="45.31323" lon="1.21389">
        <ele>222.14758300781</ele>
        <time>2019-03-31T00:43:49.601Z</time>
      </trkpt>
      <trkpt lat="45.31323" lon="1.21389">
        <ele>222.14788818359</ele>
        <time>2019-03-31T00:44:19.502Z</time>
      </trkpt>
      <trkpt lat="45.3143" lon="1.21341">
        <ele>231.19241333008</ele>
        <time>2019-03-31T00:44:49.421Z</time>
      </trkpt>
      <trkpt lat="45.31453" lon="1.21315">
        <ele>234.11445617676</ele>
        <time>2019-03-31T00:45:19.344Z</time>
      </trkpt>
      <trkpt lat="45.31514" lon="1.21206">
        <ele>241.5892791748</ele>
        <time>2019-03-31T00:45:49.283Z</time>
      </trkpt>
      <trkpt lat="45.31537" lon="1.21184">
        <ele>241.40916442871</ele>
        <time>2019-03-31T00:46:19.227Z</time>
      </trkpt>
      <trkpt lat="45.31569" lon="1.212">
        <ele>242.49954223633</ele>
        <time>2019-03-31T00:46:49.176Z</time>
      </trkpt>
      <trkpt lat="45.31661" lon="1.2119">
        <ele>244.90390014648</ele>
        <time>2019-03-31T00:47:19.140Z</time>
      </trkpt>
      <trkpt lat="45.31669" lon="1.21265">
        <ele>248.20869445801</ele>
        <time>2019-03-31T00:47:49.112Z</time>
      </trkpt>
      <trkpt lat="45.31724" lon="1.21371">
        <ele>254.60954284668</ele>
        <time>2019-03-31T00:48:19.099Z</time>
      </trkpt>
      <trkpt lat="45.31734" lon="1.21435">
        <ele>256.45156860352</ele>
        <time>2019-03-31T00:48:49.094Z</time>
      </trkpt>
      <trkpt lat="45.31779" lon="1.21551">
        <ele>262.75430297852</ele>
        <time>2019-03-31T00:49:19.104Z</time>
      </trkpt>
      <trkpt lat="45.31779" lon="1.21551">
        <ele>262.75329589844</ele>
        <time>2019-03-31T00:49:49.114Z</time>
      </trkpt>
      <trkpt lat="45.31785" lon="1.21565">
        <ele>263.52581787109</ele>
        <time>2019-03-31T00:50:19.125Z</time>
      </trkpt>
      <trkpt lat="45.31799" lon="1.21623">
        <ele>265.2180480957</ele>
        <time>2019-03-31T00:50:49.143Z</time>
      </trkpt>
      <trkpt lat="45.31802" lon="1.21671">
        <ele>265.35607910156</ele>
        <time>2019-03-31T00:51:19.167Z</time>
      </trkpt>
      <trkpt lat="45.31797" lon="1.21913">
        <ele>261.19555664062</ele>
        <time>2019-03-31T00:51:49.218Z</time>
      </trkpt>
      <trkpt lat="45.31765" lon="1.21985">
        <ele>261.72082519531</ele>
        <time>2019-03-31T00:52:19.279Z</time>
      </trkpt>
      <trkpt lat="45.31765" lon="1.21985">
        <ele>261.72076416016</ele>
        <time>2019-03-31T00:52:49.340Z</time>
      </trkpt>
      <trkpt lat="45.31765" lon="1.21985">
        <ele>261.71975708008</ele>
        <time>2019-03-31T00:53:19.401Z</time>
      </trkpt>
      <trkpt lat="45.31765" lon="1.21985">
        <ele>261.7216796875</ele>
        <time>2019-03-31T00:53:49.462Z</time>
      </trkpt>
      <trkpt lat="45.31699" lon="1.22133">
        <ele>257.29663085938</ele>
        <time>2019-03-31T00:54:19.542Z</time>
      </trkpt>
      <trkpt lat="45.31701" lon="1.22199">
        <ele>255.91583251953</ele>
        <time>2019-03-31T00:54:49.630Z</time>
      </trkpt>
      <trkpt lat="45.31721" lon="1.22277">
        <ele>256.93106079102</ele>
        <time>2019-03-31T00:55:19.727Z</time>
      </trkpt>
      <trkpt lat="45.31721" lon="1.22277">
        <ele>256.93005371094</ele>
        <time>2019-03-31T00:55:49.824Z</time>
      </trkpt>
      <trkpt lat="45.31724" lon="1.22388">
        <ele>254.09341430664</ele>
        <time>2019-03-31T00:56:19.934Z</time>
      </trkpt>
      <trkpt lat="45.31744" lon="1.22436">
        <ele>253.68202209473</ele>
        <time>2019-03-31T00:56:50.050Z</time>
      </trkpt>
      <trkpt lat="45.31763" lon="1.22461">
        <ele>254.15829467773</ele>
        <time>2019-03-31T00:57:20.170Z</time>
      </trkpt>
      <trkpt lat="45.31771" lon="1.22502">
        <ele>254.76736450195</ele>
        <time>2019-03-31T00:57:50.295Z</time>
      </trkpt>
      <trkpt lat="45.31774" lon="1.22541">
        <ele>256.40884399414</ele>
        <time>2019-03-31T00:58:20.424Z</time>
      </trkpt>
      <trkpt lat="45.31768" lon="1.22582">
        <ele>256.6689453125</ele>
        <time>2019-03-31T00:58:50.558Z</time>
      </trkpt>
      <trkpt lat="45.31749" lon="1.22625">
        <ele>257.27197265625</ele>
        <time>2019-03-31T00:59:20.698Z</time>
      </trkpt>
      <trkpt lat="45.31731" lon="1.22642">
        <ele>256.74520874023</ele>
        <time>2019-03-31T00:59:50.841Z</time>
      </trkpt>
      <trkpt lat="45.31704" lon="1.22686">
        <ele>258.1071472168</ele>
        <time>2019-03-31T01:00:20.991Z</time>
      </trkpt>
      <trkpt lat="45.31699" lon="1.227">
        <ele>259.01202392578</ele>
        <time>2019-03-31T01:00:51.143Z</time>
      </trkpt>
      <trkpt lat="45.31699" lon="1.227">
        <ele>259.01278686523</ele>
        <time>2019-03-31T01:01:21.295Z</time>
      </trkpt>
      <trkpt lat="45.31699" lon="1.227">
        <ele>259.01431274414</ele>
        <time>2019-03-31T01:01:51.447Z</time>
      </trkpt>
      <trkpt lat="45.31699" lon="1.22701">
        <ele>259.04232788086</ele>
        <time>2019-03-31T01:02:21.599Z</time>
      </trkpt>
      <trkpt lat="45.31699" lon="1.22701">
        <ele>259.04071044922</ele>
        <time>2019-03-31T01:02:51.751Z</time>
      </trkpt>
      <trkpt lat="45.31689" lon="1.22731">
        <ele>260.83181762695</ele>
        <time>2019-03-31T01:03:21.907Z</time>
      </trkpt>
      <trkpt lat="45.31689" lon="1.22789">
        <ele>268.37936401367</ele>
        <time>2019-03-31T01:03:52.069Z</time>
      </trkpt>
      <trkpt lat="45.31689" lon="1.22828">
        <ele>271.34841918945</ele>
        <time>2019-03-31T01:04:22.235Z</time>
      </trkpt>
      <trkpt lat="45.31673" lon="1.22936">
        <ele>276.69519042969</ele>
        <time>2019-03-31T01:04:52.414Z</time>
      </trkpt>
      <trkpt lat="45.31672" lon="1.22948">
        <ele>277.77648925781</ele>
        <time>2019-03-31T01:05:22.594Z</time>
      </trkpt>
      <trkpt lat="45.31671" lon="1.22968">
        <ele>279.75030517578</ele>
        <time>2019-03-31T01:05:52.777Z</time>
      </trkpt>
      <trkpt lat="45.31731" lon="1.22825">
        <ele>279.70510864258</ele>
        <time>2019-03-31T01:06:22.978Z</time>
      </trkpt>
      <trkpt lat="45.31836" lon="1.22755">
        <ele>283.0234375</ele>
        <time>2019-03-31T01:06:53.198Z</time>
      </trkpt>
      <trkpt lat="45.31895" lon="1.22738">
        <ele>288.15182495117</ele>
        <time>2019-03-31T01:07:23.428Z</time>
      </trkpt>
      <trkpt lat="45.31931" lon="1.22672">
        <ele>290.56463623047</ele>
        <time>2019-03-31T01:07:53.667Z</time>
      </trkpt>
      <trkpt lat="45.31975" lon="1.22618">
        <ele>294.67510986328</ele>
        <time>2019-03-31T01:08:23.915Z</time>
      </trkpt>
      <trkpt lat="45.32027" lon="1.22555">
        <ele>297.09371948242</ele>
        <time>2019-03-31T01:08:54.174Z</time>
      </trkpt>
      <trkpt lat="45.32027" lon="1.22555">
        <ele>297.09426879883</ele>
        <time>2019-03-31T01:09:24.433Z</time>
      </trkpt>
      <trkpt lat="45.32027" lon="1.22555">
        <ele>297.09536743164</ele>
        <time>2019-03-31T01:09:54.692Z</time>
      </trkpt>
      <trkpt lat="45.32027" lon="1.22555">
        <ele>297.09460449219</ele>
        <time>2019-03-31T01:10:24.951Z</time>
      </trkpt>
      <trkpt lat="45.32106" lon="1.22459">
        <ele>297.22982788086</ele>
        <time>2019-03-31T01:10:55.227Z</time>
      </trkpt>
      <trkpt lat="45.32124" lon="1.22451">
        <ele>298.85345458984</ele>
        <time>2019-03-31T01:11:25.506Z</time>
      </trkpt>
      <trkpt lat="45.32124" lon="1.22451">
        <ele>298.85235595703</ele>
        <time>2019-03-31T01:11:55.785Z</time>
      </trkpt>
      <trkpt lat="45.32144" lon="1.22448">
        <ele>300.49819946289</ele>
        <time>2019-03-31T01:12:26.067Z</time>
      </trkpt>
      <trkpt lat="45.32212" lon="1.22435">
        <ele>306.17651367188</ele>
        <time>2019-03-31T01:12:56.360Z</time>
      </trkpt>
      <trkpt lat="45.32231" lon="1.22421">
        <ele>306.3883972168</ele>
        <time>2019-03-31T01:13:26.657Z</time>
      </trkpt>
      <trkpt lat="45.32237" lon="1.22408">
        <ele>306.37652587891</ele>
        <time>2019-03-31T01:13:56.955Z</time>
      </trkpt>
      <trkpt lat="45.32287" lon="1.22293">
        <ele>313.001953125</ele>
        <time>2019-03-31T01:14:27.269Z</time>
      </trkpt>
      <trkpt lat="45.32295" lon="1.22273">
        <ele>314.26989746094</ele>
        <time>2019-03-31T01:14:57.585Z</time>
      </trkpt>
      <trkpt lat="45.32334" lon="1.22185">
        <ele>319.4518737793</ele>
        <time>2019-03-31T01:15:27.913Z</time>
      </trkpt>
      <trkpt lat="45.32398" lon="1.22101">
        <ele>323.72503662109</ele>
        <time>2019-03-31T01:15:58.255Z</time>
      </trkpt>
      <trkpt lat="45.32454" lon="1.22037">
        <ele>328.51425170898</ele>
        <time>2019-03-31T01:16:28.608Z</time>
      </trkpt>
      <trkpt lat="45.32482" lon="1.22005">
        <ele>329</ele>
        <time>2019-03-31T01:16:58.967Z</time>
      </trkpt>
      <trkpt lat="45.32493" lon="1.21989">
        <ele>329.23364257812</ele>
        <time>2019-03-31T01:17:29.329Z</time>
      </trkpt>
      <trkpt lat="45.32493" lon="1.21989">
        <ele>329.23382568359</ele>
        <time>2019-03-31T01:17:59.691Z</time>
      </trkpt>
      <trkpt lat="45.32493" lon="1.21988">
        <ele>329.23519897461</ele>
        <time>2019-03-31T01:18:30.053Z</time>
      </trkpt>
      <trkpt lat="45.32493" lon="1.21988">
        <ele>329.23480224609</ele>
        <time>2019-03-31T01:19:00.415Z</time>
      </trkpt>
      <trkpt lat="45.32505" lon="1.21972">
        <ele>329.40798950195</ele>
        <time>2019-03-31T01:19:30.779Z</time>
      </trkpt>
      <trkpt lat="45.3251" lon="1.21927">
        <ele>328.4397277832</ele>
        <time>2019-03-31T01:20:01.148Z</time>
      </trkpt>
      <trkpt lat="45.32492" lon="1.21631">
        <ele>326.14685058594</ele>
        <time>2019-03-31T01:20:31.551Z</time>
      </trkpt>
      <trkpt lat="45.32516" lon="1.21511">
        <ele>321.46536254883</ele>
        <time>2019-03-31T01:21:01.968Z</time>
      </trkpt>
      <trkpt lat="45.32522" lon="1.2149">
        <ele>320.15188598633</ele>
        <time>2019-03-31T01:21:32.388Z</time>
      </trkpt>
      <trkpt lat="45.32522" lon="1.2149">
        <ele>320.15112304688</ele>
        <time>2019-03-31T01:22:02.808Z</time>
      </trkpt>
      <trkpt lat="45.32522" lon="1.2149">
        <ele>320.14514160156</ele>
        <time>2019-03-31T01:22:33.228Z</time>
      </trkpt>
      <trkpt lat="45.32522" lon="1.2149">
        <ele>320.14541625977</ele>
        <time>2019-03-31T01:23:03.648Z</time>
      </trkpt>
      <trkpt lat="45.32574" lon="1.21279">
        <ele>317.69357299805</ele>
        <time>2019-03-31T01:23:34.093Z</time>
      </trkpt>
      <trkpt lat="45.32584" lon="1.21214">
        <ele>318.21130371094</ele>
        <time>2019-03-31T01:24:04.545Z</time>
      </trkpt>
      <trkpt lat="45.32702" lon="1.21205">
        <ele>315.56585693359</ele>
        <time>2019-03-31T01:24:35.016Z</time>
      </trkpt>
      <trkpt lat="45.32685" lon="1.21304">
        <ele>313.96719360352</ele>
        <time>2019-03-31T01:25:05.499Z</time>
      </trkpt>
      <trkpt lat="45.32683" lon="1.21333">
        <ele>313.23526000977</ele>
        <time>2019-03-31T01:25:35.985Z</time>
      </trkpt>
      <trkpt lat="45.32683" lon="1.21333">
        <ele>313.23498535156</ele>
        <time>2019-03-31T01:26:06.471Z</time>
      </trkpt>
      <trkpt lat="45.32683" lon="1.21333">
        <ele>313.23300170898</ele>
        <time>2019-03-31T01:26:36.957Z</time>
      </trkpt>
      <trkpt lat="45.32683" lon="1.21333">
        <ele>313.23278808594</ele>
        <time>2019-03-31T01:27:07.443Z</time>
      </trkpt>
      <trkpt lat="45.32679" lon="1.2138">
        <ele>311.96148681641</ele>
        <time>2019-03-31T01:27:37.935Z</time>
      </trkpt>
      <trkpt lat="45.32687" lon="1.21441">
        <ele>310.78198242188</ele>
        <time>2019-03-31T01:28:08.433Z</time>
      </trkpt>
      <trkpt lat="45.32761" lon="1.21596">
        <ele>313.47155761719</ele>
        <time>2019-03-31T01:28:38.953Z</time>
      </trkpt>
      <trkpt lat="45.32772" lon="1.21602">
        <ele>313.72256469727</ele>
        <time>2019-03-31T01:29:09.475Z</time>
      </trkpt>
      <trkpt lat="45.32793" lon="1.21599">
        <ele>313.23983764648</ele>
        <time>2019-03-31T01:29:40.000Z</time>
      </trkpt>
      <trkpt lat="45.3284" lon="1.21568">
        <ele>311.23419189453</ele>
        <time>2019-03-31T01:30:10.533Z</time>
      </trkpt>
      <trkpt lat="45.32868" lon="1.21545">
        <ele>310.26080322266</ele>
        <time>2019-03-31T01:30:41.071Z</time>
      </trkpt>
      <trkpt lat="45.32868" lon="1.21545">
        <ele>310.26022338867</ele>
        <time>2019-03-31T01:31:11.609Z</time>
      </trkpt>
      <trkpt lat="45.32869" lon="1.21545">
        <ele>310.25210571289</ele>
        <time>2019-03-31T01:31:42.148Z</time>
      </trkpt>
      <trkpt lat="45.32869" lon="1.21545">
        <ele>310.25091552734</ele>
        <time>2019-03-31T01:32:12.687Z</time>
      </trkpt>
      <trkpt lat="45.3289" lon="1.21527">
        <ele>308.29241943359</ele>
        <time>2019-03-31T01:32:43.230Z</time>
      </trkpt>
      <trkpt lat="45.3289" lon="1.21527">
        <ele>308.29193115234</ele>
        <time>2019-03-31T01:33:13.773Z</time>
      </trkpt>
      <trkpt lat="45.3294" lon="1.21505">
        <ele>303.21725463867</ele>
        <time>2019-03-31T01:33:44.324Z</time>
      </trkpt>
      <trkpt lat="45.33019" lon="1.21508">
        <ele>302.38980102539</ele>
        <time>2019-03-31T01:34:14.888Z</time>
      </trkpt>
      <trkpt lat="45.33036" lon="1.215">
        <ele>302.6279296875</ele>
        <time>2019-03-31T01:34:45.454Z</time>
      </trkpt>
      <trkpt lat="45.33128" lon="1.21361">
        <ele>302.04827880859</ele>
        <time>2019-03-31T01:35:16.042Z</time>
      </trkpt>
      <trkpt lat="45.332" lon="1.21337">
        <ele>297.63455200195</ele>
        <time>2019-03-31T01:35:46.642Z</time>
      </trkpt>
      <trkpt lat="45.33246" lon="1.21339">
        <ele>291.13552856445</ele>
        <time>2019-03-31T01:36:17.249Z</time>
      </trkpt>
      <trkpt lat="45.33283" lon="1.21357">
        <ele>287.6025390625</ele>
        <time>2019-03-31T01:36:47.862Z</time>
      </trkpt>
      <trkpt lat="45.33294" lon="1.21396">
        <ele>284.61950683594</ele>
        <time>2019-03-31T01:37:18.480Z</time>
      </trkpt>
      <trkpt lat="45.33266" lon="1.21671">
        <ele>283.67349243164</ele>
        <time>2019-03-31T01:37:49.130Z</time>
      </trkpt>
      <trkpt lat="45.33266" lon="1.21699">
        <ele>283.00790405273</ele>
        <time>2019-03-31T01:38:19.783Z</time>
      </trkpt>
      <trkpt lat="45.33266" lon="1.21699">
        <ele>283.00729370117</ele>
        <time>2019-03-31T01:38:50.436Z</time>
      </trkpt>
      <trkpt lat="45.33266" lon="1.21699">
        <ele>283.00091552734</ele>
        <time>2019-03-31T01:39:21.089Z</time>
      </trkpt>
      <trkpt lat="45.33266" lon="1.21752">
        <ele>280.53936767578</ele>
        <time>2019-03-31T01:39:51.748Z</time>
      </trkpt>
      <trkpt lat="45.33248" lon="1.21827">
        <ele>280.41717529297</ele>
        <time>2019-03-31T01:40:22.416Z</time>
      </trkpt>
      <trkpt lat="45.33265" lon="1.21892">
        <ele>276.71746826172</ele>
        <time>2019-03-31T01:40:53.091Z</time>
      </trkpt>
      <trkpt lat="45.33276" lon="1.22088">
        <ele>265.10266113281</ele>
        <time>2019-03-31T01:41:23.789Z</time>
      </trkpt>
      <trkpt lat="45.33292" lon="1.22143">
        <ele>262.17663574219</ele>
        <time>2019-03-31T01:41:54.493Z</time>
      </trkpt>
      <trkpt lat="45.33279" lon="1.22249">
        <ele>264.43225097656</ele>
        <time>2019-03-31T01:42:25.209Z</time>
      </trkpt>
      <trkpt lat="45.33276" lon="1.22321">
        <ele>263.85195922852</ele>
        <time>2019-03-31T01:42:55.934Z</time>
      </trkpt>
      <trkpt lat="45.33272" lon="1.22333">
        <ele>264.76593017578</ele>
        <time>2019-03-31T01:43:26.660Z</time>
      </trkpt>
      <trkpt lat="45.33232" lon="1.22472">
        <ele>265.79583740234</ele>
        <time>2019-03-31T01:43:57.403Z</time>
      </trkpt>
      <trkpt lat="45.3319" lon="1.22554">
        <ele>267.92910766602</ele>
        <time>2019-03-31T01:44:28.158Z</time>
      </trkpt>
      <trkpt lat="45.3318" lon="1.22623">
        <ele>268.13323974609</ele>
        <time>2019-03-31T01:44:58.920Z</time>
      </trkpt>
      <trkpt lat="45.332" lon="1.22745">
        <ele>267.5426940918</ele>
        <time>2019-03-31T01:45:29.697Z</time>
      </trkpt>
      <trkpt lat="45.33198" lon="1.2278">
        <ele>268.1669921875</ele>
        <time>2019-03-31T01:46:00.478Z</time>
      </trkpt>
      <trkpt lat="45.33155" lon="1.22902">
        <ele>271.96887207031</ele>
        <time>2019-03-31T01:46:31.274Z</time>
      </trkpt>
      <trkpt lat="45.33166" lon="1.23039">
        <ele>274.77944946289</ele>
        <time>2019-03-31T01:47:02.086Z</time>
      </trkpt>
      <trkpt lat="45.33174" lon="1.23058">
        <ele>275.68051147461</ele>
        <time>2019-03-31T01:47:32.900Z</time>
      </trkpt>
      <trkpt lat="45.33198" lon="1.23079">
        <ele>277.80587768555</ele>
        <time>2019-03-31T01:48:03.718Z</time>
      </trkpt>
      <trkpt lat="45.33347" lon="1.23159">
        <ele>273.61407470703</ele>
        <time>2019-03-31T01:48:34.562Z</time>
      </trkpt>
      <trkpt lat="45.33386" lon="1.23199">
        <ele>273.68029785156</ele>
        <time>2019-03-31T01:49:05.414Z</time>
      </trkpt>
      <trkpt lat="45.33414" lon="1.23239">
        <ele>275.19622802734</ele>
        <time>2019-03-31T01:49:36.272Z</time>
      </trkpt>
      <trkpt lat="45.3343" lon="1.23277">
        <ele>273.32974243164</ele>
        <time>2019-03-31T01:50:07.135Z</time>
      </trkpt>
      <trkpt lat="45.33457" lon="1.23409">
        <ele>272.11099243164</ele>
        <time>2019-03-31T01:50:38.014Z</time>
      </trkpt>
      <trkpt lat="45.33457" lon="1.23409">
        <ele>272.10958862305</ele>
        <time>2019-03-31T01:51:08.893Z</time>
      </trkpt>
      <trkpt lat="45.33461" lon="1.23419">
        <ele>271.48025512695</ele>
        <time>2019-03-31T01:51:39.773Z</time>
      </trkpt>
      <trkpt lat="45.33461" lon="1.23419">
        <ele>271.47885131836</ele>
        <time>2019-03-31T01:52:10.653Z</time>
      </trkpt>
      <trkpt lat="45.3347" lon="1.2343">
        <ele>272.65246582031</ele>
        <time>2019-03-31T01:52:41.535Z</time>
      </trkpt>
      <trkpt lat="45.33531" lon="1.23459">
        <ele>288.79452514648</ele>
        <time>2019-03-31T01:53:12.427Z</time>
      </trkpt>
      <trkpt lat="45.33543" lon="1.23542">
        <ele>288.76605224609</ele>
        <time>2019-03-31T01:53:43.329Z</time>
      </trkpt>
      <trkpt lat="45.33562" lon="1.23621">
        <ele>287.72998046875</ele>
        <time>2019-03-31T01:54:14.240Z</time>
      </trkpt>
      <trkpt lat="45.33571" lon="1.23649">
        <ele>287.54891967773</ele>
        <time>2019-03-31T01:54:45.154Z</time>
      </trkpt>
      <trkpt lat="45.33613" lon="1.23719">
        <ele>292.18383789062</ele>
        <time>2019-03-31T01:55:16.079Z</time>
      </trkpt>
      <trkpt lat="45.33602" lon="1.23863">
        <ele>299.48651123047</ele>
        <time>2019-03-31T01:55:47.020Z</time>
      </trkpt>
      <trkpt lat="45.33583" lon="1.23992">
        <ele>296.42202758789</ele>
        <time>2019-03-31T01:56:17.976Z</time>
      </trkpt>
      <trkpt lat="45.33592" lon="1.24046">
        <ele>295.1042175293</ele>
        <time>2019-03-31T01:56:48.938Z</time>
      </trkpt>
      <trkpt lat="45.33619" lon="1.24129">
        <ele>296.68753051758</ele>
        <time>2019-03-31T01:57:19.911Z</time>
      </trkpt>
      <trkpt lat="45.33613" lon="1.24203">
        <ele>294.13739013672</ele>
        <time>2019-03-31T01:57:50.892Z</time>
      </trkpt>
      <trkpt lat="45.33585" lon="1.24264">
        <ele>291.28762817383</ele>
        <time>2019-03-31T01:58:21.881Z</time>
      </trkpt>
      <trkpt lat="45.33557" lon="1.24512">
        <ele>291.49279785156</ele>
        <time>2019-03-31T01:58:52.899Z</time>
      </trkpt>
      <trkpt lat="45.33557" lon="1.24515">
        <ele>291.49649047852</ele>
        <time>2019-03-31T01:59:23.917Z</time>
      </trkpt>
      <trkpt lat="45.33557" lon="1.24515">
        <ele>291.49652099609</ele>
        <time>2019-03-31T01:59:54.935Z</time>
      </trkpt>
      <trkpt lat="45.33557" lon="1.24515">
        <ele>291.49682617188</ele>
        <time>2019-03-31T02:00:25.953Z</time>
      </trkpt>
      <trkpt lat="45.33557" lon="1.24515">
        <ele>291.49661254883</ele>
        <time>2019-03-31T02:00:56.971Z</time>
      </trkpt>
      <trkpt lat="45.3357" lon="1.2472">
        <ele>294.40383911133</ele>
        <time>2019-03-31T02:01:28.012Z</time>
      </trkpt>
      <trkpt lat="45.33578" lon="1.24756">
        <ele>295.56268310547</ele>
        <time>2019-03-31T02:01:59.058Z</time>
      </trkpt>
      <trkpt lat="45.33658" lon="1.24877">
        <ele>311.14016723633</ele>
        <time>2019-03-31T02:02:30.122Z</time>
      </trkpt>
      <trkpt lat="45.3367" lon="1.24912">
        <ele>311.57830810547</ele>
        <time>2019-03-31T02:03:01.191Z</time>
      </trkpt>
      <trkpt lat="45.33688" lon="1.24959">
        <ele>310.45379638672</ele>
        <time>2019-03-31T02:03:32.266Z</time>
      </trkpt>
      <trkpt lat="45.33716" lon="1.24993">
        <ele>312.34133911133</ele>
        <time>2019-03-31T02:04:03.347Z</time>
      </trkpt>
      <trkpt lat="45.33829" lon="1.25031">
        <ele>318.87966918945</ele>
        <time>2019-03-31T02:04:34.446Z</time>
      </trkpt>
      <trkpt lat="45.33879" lon="1.25059">
        <ele>320.04782104492</ele>
        <time>2019-03-31T02:05:05.554Z</time>
      </trkpt>
      <trkpt lat="45.33913" lon="1.25055">
        <ele>322.82650756836</ele>
        <time>2019-03-31T02:05:36.667Z</time>
      </trkpt>
      <trkpt lat="45.33955" lon="1.25033">
        <ele>325.8349609375</ele>
        <time>2019-03-31T02:06:07.787Z</time>
      </trkpt>
      <trkpt lat="45.34068" lon="1.24932">
        <ele>332.03720092773</ele>
        <time>2019-03-31T02:06:38.929Z</time>
      </trkpt>
      <trkpt lat="45.34068" lon="1.24932">
        <ele>332.0378112793</ele>
        <time>2019-03-31T02:07:10.071Z</time>
      </trkpt>
      <trkpt lat="45.34106" lon="1.24898">
        <ele>335.22958374023</ele>
        <time>2019-03-31T02:07:41.220Z</time>
      </trkpt>
      <trkpt lat="45.34125" lon="1.24893">
        <ele>336.56585693359</ele>
        <time>2019-03-31T02:08:12.372Z</time>
      </trkpt>
      <trkpt lat="45.34214" lon="1.24936">
        <ele>342.01782226562</ele>
        <time>2019-03-31T02:08:43.539Z</time>
      </trkpt>
      <trkpt lat="45.34219" lon="1.2494">
        <ele>342.01034545898</ele>
        <time>2019-03-31T02:09:14.707Z</time>
      </trkpt>
      <trkpt lat="45.34219" lon="1.2494">
        <ele>342.01034545898</ele>
        <time>2019-03-31T02:09:45.875Z</time>
      </trkpt>
      <trkpt lat="45.34219" lon="1.2494">
        <ele>342.01025390625</ele>
        <time>2019-03-31T02:10:17.043Z</time>
      </trkpt>
      <trkpt lat="45.34219" lon="1.2494">
        <ele>342.00942993164</ele>
        <time>2019-03-31T02:10:48.211Z</time>
      </trkpt>
      <trkpt lat="45.34219" lon="1.2494">
        <ele>342.00952148438</ele>
        <time>2019-03-31T02:11:19.379Z</time>
      </trkpt>
      <trkpt lat="45.34279" lon="1.24983">
        <ele>341.77450561523</ele>
        <time>2019-03-31T02:11:50.558Z</time>
      </trkpt>
      <trkpt lat="45.34326" lon="1.24994">
        <ele>342.86862182617</ele>
        <time>2019-03-31T02:12:21.745Z</time>
      </trkpt>
      <trkpt lat="45.34392" lon="1.25049">
        <ele>344.56134033203</ele>
        <time>2019-03-31T02:12:52.944Z</time>
      </trkpt>
      <trkpt lat="45.34477" lon="1.25036">
        <ele>347.46142578125</ele>
        <time>2019-03-31T02:13:24.157Z</time>
      </trkpt>
      <trkpt lat="45.34477" lon="1.25036">
        <ele>347.4619140625</ele>
        <time>2019-03-31T02:13:55.370Z</time>
      </trkpt>
      <trkpt lat="45.34511" lon="1.25048">
        <ele>349.63043212891</ele>
        <time>2019-03-31T02:14:26.588Z</time>
      </trkpt>
      <trkpt lat="45.34526" lon="1.25066">
        <ele>350.66577148438</ele>
        <time>2019-03-31T02:14:57.809Z</time>
      </trkpt>
      <trkpt lat="45.34571" lon="1.25163">
        <ele>351</ele>
        <time>2019-03-31T02:15:29.043Z</time>
      </trkpt>
      <trkpt lat="45.34543" lon="1.25228">
        <ele>351.99758911133</ele>
        <time>2019-03-31T02:16:00.286Z</time>
      </trkpt>
      <trkpt lat="45.34522" lon="1.25343">
        <ele>356.76333618164</ele>
        <time>2019-03-31T02:16:31.542Z</time>
      </trkpt>
      <trkpt lat="45.34471" lon="1.2545">
        <ele>358.08511352539</ele>
        <time>2019-03-31T02:17:02.813Z</time>
      </trkpt>
      <trkpt lat="45.34455" lon="1.25527">
        <ele>355.69567871094</ele>
        <time>2019-03-31T02:17:34.093Z</time>
      </trkpt>
      <trkpt lat="45.34453" lon="1.25593">
        <ele>354.63735961914</ele>
        <time>2019-03-31T02:18:05.380Z</time>
      </trkpt>
      <trkpt lat="45.34442" lon="1.25727">
        <ele>352.82244873047</ele>
        <time>2019-03-31T02:18:36.683Z</time>
      </trkpt>
      <trkpt lat="45.34446" lon="1.25751">
        <ele>351.99859619141</ele>
        <time>2019-03-31T02:19:07.988Z</time>
      </trkpt>
      <trkpt lat="45.3448" lon="1.25826">
        <ele>349.22186279297</ele>
        <time>2019-03-31T02:19:39.303Z</time>
      </trkpt>
      <trkpt lat="45.34484" lon="1.25863">
        <ele>348.67443847656</ele>
        <time>2019-03-31T02:20:10.623Z</time>
      </trkpt>
      <trkpt lat="45.34476" lon="1.25996">
        <ele>350.14303588867</ele>
        <time>2019-03-31T02:20:41.958Z</time>
      </trkpt>
      <trkpt lat="45.34515" lon="1.261">
        <ele>350.61288452148</ele>
        <time>2019-03-31T02:21:13.306Z</time>
      </trkpt>
      <trkpt lat="45.34529" lon="1.26155">
        <ele>351</ele>
        <time>2019-03-31T02:21:44.661Z</time>
      </trkpt>
      <trkpt lat="45.34531" lon="1.26191">
        <ele>351</ele>
        <time>2019-03-31T02:22:16.020Z</time>
      </trkpt>
      <trkpt lat="45.34519" lon="1.2632">
        <ele>353.93600463867</ele>
        <time>2019-03-31T02:22:47.394Z</time>
      </trkpt>
      <trkpt lat="45.34539" lon="1.26532">
        <ele>351.85827636719</ele>
        <time>2019-03-31T02:23:18.792Z</time>
      </trkpt>
      <trkpt lat="45.34539" lon="1.26532">
        <ele>351.85781860352</ele>
        <time>2019-03-31T02:23:50.190Z</time>
      </trkpt>
      <trkpt lat="45.34539" lon="1.26532">
        <ele>351.8625793457</ele>
        <time>2019-03-31T02:24:21.588Z</time>
      </trkpt>
      <trkpt lat="45.34539" lon="1.26532">
        <ele>351.86236572266</ele>
        <time>2019-03-31T02:24:52.986Z</time>
      </trkpt>
      <trkpt lat="45.34555" lon="1.26696">
        <ele>352</ele>
        <time>2019-03-31T02:25:24.402Z</time>
      </trkpt>
      <trkpt lat="45.34555" lon="1.26696">
        <ele>352</ele>
        <time>2019-03-31T02:25:55.818Z</time>
      </trkpt>
      <trkpt lat="45.34566" lon="1.26786">
        <ele>351.54751586914</ele>
        <time>2019-03-31T02:26:27.245Z</time>
      </trkpt>
      <trkpt lat="45.34606" lon="1.269">
        <ele>348.65939331055</ele>
        <time>2019-03-31T02:26:58.686Z</time>
      </trkpt>
      <trkpt lat="45.34723" lon="1.27209">
        <ele>349.14190673828</ele>
        <time>2019-03-31T02:27:30.167Z</time>
      </trkpt>
      <trkpt lat="45.34959" lon="1.27631">
        <ele>363.2233581543</ele>
        <time>2019-03-31T02:28:01.708Z</time>
      </trkpt>
      <trkpt lat="45.35006" lon="1.27777">
        <ele>366.15087890625</ele>
        <time>2019-03-31T02:28:33.268Z</time>
      </trkpt>
      <trkpt lat="45.35006" lon="1.27778">
        <ele>366.16723632812</ele>
        <time>2019-03-31T02:29:04.828Z</time>
      </trkpt>
      <trkpt lat="45.35006" lon="1.27778">
        <ele>366.16592407227</ele>
        <time>2019-03-31T02:29:36.388Z</time>
      </trkpt>
      <trkpt lat="45.35006" lon="1.27778">
        <ele>366.16653442383</ele>
        <time>2019-03-31T02:30:07.948Z</time>
      </trkpt>
      <trkpt lat="45.35028" lon="1.27846">
        <ele>369.11108398438</ele>
        <time>2019-03-31T02:30:39.516Z</time>
      </trkpt>
      <trkpt lat="45.35162" lon="1.28087">
        <ele>386.20553588867</ele>
        <time>2019-03-31T02:31:11.119Z</time>
      </trkpt>
      <trkpt lat="45.35281" lon="1.28165">
        <ele>395.45495605469</ele>
        <time>2019-03-31T02:31:42.743Z</time>
      </trkpt>
      <trkpt lat="45.35307" lon="1.28194">
        <ele>397.02465820312</ele>
        <time>2019-03-31T02:32:14.372Z</time>
      </trkpt>
      <trkpt lat="45.35316" lon="1.28241">
        <ele>397.78427124023</ele>
        <time>2019-03-31T02:32:46.006Z</time>
      </trkpt>
      <trkpt lat="45.35317" lon="1.28328">
        <ele>400.05981445312</ele>
        <time>2019-03-31T02:33:17.650Z</time>
      </trkpt>
      <trkpt lat="45.35317" lon="1.28328">
        <ele>400.05938720703</ele>
        <time>2019-03-31T02:33:49.294Z</time>
      </trkpt>
      <trkpt lat="45.35316" lon="1.28366">
        <ele>400.13705444336</ele>
        <time>2019-03-31T02:34:20.943Z</time>
      </trkpt>
      <trkpt lat="45.35309" lon="1.28515">
        <ele>393.88729858398</ele>
        <time>2019-03-31T02:34:52.608Z</time>
      </trkpt>
      <trkpt lat="45.35342" lon="1.28697">
        <ele>388.6701965332</ele>
        <time>2019-03-31T02:35:24.295Z</time>
      </trkpt>
      <trkpt lat="45.35374" lon="1.28829">
        <ele>388.26870727539</ele>
        <time>2019-03-31T02:35:55.997Z</time>
      </trkpt>
      <trkpt lat="45.35437" lon="1.28954">
        <ele>387.01034545898</ele>
        <time>2019-03-31T02:36:27.717Z</time>
      </trkpt>
      <trkpt lat="45.35525" lon="1.29117">
        <ele>389.48519897461</ele>
        <time>2019-03-31T02:36:59.460Z</time>
      </trkpt>
      <trkpt lat="45.35553" lon="1.2921">
        <ele>390.42596435547</ele>
        <time>2019-03-31T02:37:31.214Z</time>
      </trkpt>
      <trkpt lat="45.35614" lon="1.29414">
        <ele>387.18780517578</ele>
        <time>2019-03-31T02:38:02.993Z</time>
      </trkpt>
      <trkpt lat="45.35647" lon="1.29549">
        <ele>387.82339477539</ele>
        <time>2019-03-31T02:38:34.788Z</time>
      </trkpt>
      <trkpt lat="45.35662" lon="1.29581">
        <ele>388.21600341797</ele>
        <time>2019-03-31T02:39:06.588Z</time>
      </trkpt>
      <trkpt lat="45.35662" lon="1.29581">
        <ele>388.21600341797</ele>
        <time>2019-03-31T02:39:38.388Z</time>
      </trkpt>
      <trkpt lat="45.35796" lon="1.29878">
        <ele>391.10559082031</ele>
        <time>2019-03-31T02:40:10.227Z</time>
      </trkpt>
      <trkpt lat="45.35824" lon="1.29961">
        <ele>392.0837097168</ele>
        <time>2019-03-31T02:40:42.077Z</time>
      </trkpt>
      <trkpt lat="45.35829" lon="1.30012">
        <ele>392.75042724609</ele>
        <time>2019-03-31T02:41:13.933Z</time>
      </trkpt>
      <trkpt lat="45.35819" lon="1.30153">
        <ele>393.29730224609</ele>
        <time>2019-03-31T02:41:45.805Z</time>
      </trkpt>
      <trkpt lat="45.35811" lon="1.30272">
        <ele>393.12536621094</ele>
        <time>2019-03-31T02:42:17.690Z</time>
      </trkpt>
      <trkpt lat="45.35935" lon="1.29979">
        <ele>396.87362670898</ele>
        <time>2019-03-31T02:42:49.614Z</time>
      </trkpt>
      <trkpt lat="45.35964" lon="1.29919">
        <ele>397.5202331543</ele>
        <time>2019-03-31T02:43:21.546Z</time>
      </trkpt>
      <trkpt lat="45.3599" lon="1.29884">
        <ele>396.38589477539</ele>
        <time>2019-03-31T02:43:53.484Z</time>
      </trkpt>
      <trkpt lat="45.36043" lon="1.29798">
        <ele>396.77108764648</ele>
        <time>2019-03-31T02:44:25.435Z</time>
      </trkpt>
      <trkpt lat="45.36043" lon="1.29797">
        <ele>396.74273681641</ele>
        <time>2019-03-31T02:44:57.386Z</time>
      </trkpt>
      <trkpt lat="45.36043" lon="1.29797">
        <ele>396.73593139648</ele>
        <time>2019-03-31T02:45:29.337Z</time>
      </trkpt>
      <trkpt lat="45.36043" lon="1.29797">
        <ele>396.73452758789</ele>
        <time>2019-03-31T02:46:01.288Z</time>
      </trkpt>
      <trkpt lat="45.36111" lon="1.29688">
        <ele>392.02221679688</ele>
        <time>2019-03-31T02:46:33.255Z</time>
      </trkpt>
      <trkpt lat="45.36111" lon="1.29688">
        <ele>392.02282714844</ele>
        <time>2019-03-31T02:47:05.222Z</time>
      </trkpt>
      <trkpt lat="45.3622" lon="1.29498">
        <ele>391.18463134766</ele>
        <time>2019-03-31T02:47:37.217Z</time>
      </trkpt>
      <trkpt lat="45.36298" lon="1.29414">
        <ele>390.73727416992</ele>
        <time>2019-03-31T02:48:09.227Z</time>
      </trkpt>
      <trkpt lat="45.36348" lon="1.29394">
        <ele>388.45715332031</ele>
        <time>2019-03-31T02:48:41.246Z</time>
      </trkpt>
      <trkpt lat="45.36419" lon="1.29392">
        <ele>384.47616577148</ele>
        <time>2019-03-31T02:49:13.276Z</time>
      </trkpt>
      <trkpt lat="45.3664" lon="1.29271">
        <ele>371.68789672852</ele>
        <time>2019-03-31T02:49:45.344Z</time>
      </trkpt>
      <trkpt lat="45.3664" lon="1.29271">
        <ele>371.68759155273</ele>
        <time>2019-03-31T02:50:17.412Z</time>
      </trkpt>
      <trkpt lat="45.36693" lon="1.29251">
        <ele>370.25262451172</ele>
        <time>2019-03-31T02:50:49.489Z</time>
      </trkpt>
      <trkpt lat="45.36798" lon="1.29246">
        <ele>364.81143188477</ele>
        <time>2019-03-31T02:51:21.582Z</time>
      </trkpt>
      <trkpt lat="45.36867" lon="1.29275">
        <ele>360.31201171875</ele>
        <time>2019-03-31T02:51:53.687Z</time>
      </trkpt>
      <trkpt lat="45.36905" lon="1.2928">
        <ele>357.15591430664</ele>
        <time>2019-03-31T02:52:25.798Z</time>
      </trkpt>
      <trkpt lat="45.36991" lon="1.29254">
        <ele>352.97003173828</ele>
        <time>2019-03-31T02:52:57.923Z</time>
      </trkpt>
      <trkpt lat="45.37128" lon="1.29173">
        <ele>342.06607055664</ele>
        <time>2019-03-31T02:53:30.072Z</time>
      </trkpt>
      <trkpt lat="45.37281" lon="1.29176">
        <ele>337.50146484375</ele>
        <time>2019-03-31T02:54:02.245Z</time>
      </trkpt>
      <trkpt lat="45.37323" lon="1.29167">
        <ele>335.29901123047</ele>
        <time>2019-03-31T02:54:34.425Z</time>
      </trkpt>
      <trkpt lat="45.37323" lon="1.29167">
        <ele>335.2981262207</ele>
        <time>2019-03-31T02:55:06.605Z</time>
      </trkpt>
      <trkpt lat="45.37355" lon="1.29148">
        <ele>331.88137817383</ele>
        <time>2019-03-31T02:55:38.791Z</time>
      </trkpt>
      <trkpt lat="45.37412" lon="1.29087">
        <ele>324.86596679688</ele>
        <time>2019-03-31T02:56:10.988Z</time>
      </trkpt>
      <trkpt lat="45.37425" lon="1.29046">
        <ele>322.44595336914</ele>
        <time>2019-03-31T02:56:43.190Z</time>
      </trkpt>
      <trkpt lat="45.37457" lon="1.28846">
        <ele>315.39111328125</ele>
        <time>2019-03-31T02:57:15.415Z</time>
      </trkpt>
      <trkpt lat="45.37467" lon="1.28824">
        <ele>314.19760131836</ele>
        <time>2019-03-31T02:57:47.643Z</time>
      </trkpt>
      <trkpt lat="45.37518" lon="1.28753">
        <ele>316.63732910156</ele>
        <time>2019-03-31T02:58:19.883Z</time>
      </trkpt>
      <trkpt lat="45.37533" lon="1.28747">
        <ele>317.24234008789</ele>
        <time>2019-03-31T02:58:52.125Z</time>
      </trkpt>
      <trkpt lat="45.37661" lon="1.28833">
        <ele>326.07693481445</ele>
        <time>2019-03-31T02:59:24.390Z</time>
      </trkpt>
      <trkpt lat="45.37681" lon="1.28838">
        <ele>328.09790039062</ele>
        <time>2019-03-31T02:59:56.658Z</time>
      </trkpt>
      <trkpt lat="45.37771" lon="1.28829">
        <ele>334.92974853516</ele>
        <time>2019-03-31T03:00:28.941Z</time>
      </trkpt>
      <trkpt lat="45.37827" lon="1.28875">
        <ele>339.24996948242</ele>
        <time>2019-03-31T03:01:01.234Z</time>
      </trkpt>
      <trkpt lat="45.37858" lon="1.28887">
        <ele>340.8332824707</ele>
        <time>2019-03-31T03:01:33.532Z</time>
      </trkpt>
    </trkseg>
  </trk>
</gpx>